Provisional Data: Marsh Creek near Blanchard, PA


Please select a monitoring station.
Please select start date.
Please select start date.

Toggle Unit: C/F Toggle Unit: C/F
Sample Time Temperature (C) Temperature (F) Specific Conductivity (mS/cm) pH   Turbidity (NTU+) DO (mg/L)
12/23/2022 12:00:00 AM 1.29 34.322 0.116 6.69 22.05 13.54
12/23/2022 12:15:00 AM 1.32 34.376 0.116 6.68 21.14 13.52
12/23/2022 12:30:00 AM 1.34 34.412 0.116 6.66 20.62 13.49
12/23/2022 12:45:00 AM 1.38 34.484 0.115 6.67 20.61 13.48
12/23/2022 1:00:00 AM 1.4 34.52 0.115 6.65 20.02 13.45
12/23/2022 1:15:00 AM 1.44 34.592 0.114 6.66 20.01 13.43
12/23/2022 1:30:00 AM 1.49 34.682 0.114 6.66 20.48 13.41
12/23/2022 1:45:00 AM 1.52 34.736 0.114 6.64 19.08 13.37
12/23/2022 2:00:00 AM 1.56 34.808 0.114 6.63 20.19 13.35
12/23/2022 2:15:00 AM 1.59 34.862 0.114 6.64 21.75 13.33
12/23/2022 2:30:00 AM 1.59 34.862 0.115 6.63 24.73 13.31
12/23/2022 2:45:00 AM 1.61 34.898 0.115 6.61 32.05 13.3
12/23/2022 3:00:00 AM 1.62 34.916 0.115 6.6 31.54 13.28
12/23/2022 3:15:00 AM 1.65 34.97 0.115 6.6 40.14 13.27
12/23/2022 3:30:00 AM 1.69 35.042 0.114 6.6 43.54 13.25
12/23/2022 3:45:00 AM 1.73 35.114 0.113 6.58 43.38 13.23
12/23/2022 4:00:00 AM 1.79 35.222 0.111 6.59 42.45 13.21
12/23/2022 4:15:00 AM 1.84 35.312 0.109 6.59 42.18 13.19
12/23/2022 4:30:00 AM 1.9 35.42 0.107 6.59 41.11 13.16
12/23/2022 4:45:00 AM 1.95 35.51 0.106 6.59 40.51 13.14
12/23/2022 5:00:00 AM 2.01 35.618 0.104 6.58 39.83 13.11
12/23/2022 5:15:00 AM 2.06 35.708 0.104 6.59 37.58 13.09
12/23/2022 5:30:00 AM 2.11 35.798 0.102 6.6 40.25 13.07
12/23/2022 5:45:00 AM 2.17 35.906 0.101 6.59 43.34 13.04
12/23/2022 6:00:00 AM 2.2 35.96 0.1 6.59 43.13 13.02
12/23/2022 6:15:00 AM 2.25 36.05 0.099 6.59 48.64 13.01
12/23/2022 6:30:00 AM 2.29 36.122 0.099 6.59 37.98 12.99
12/23/2022 6:45:00 AM 2.33 36.194 0.098 6.59 46.64 12.98
12/23/2022 7:00:00 AM 2.37 36.266 0.098 6.59 42.51 12.96
12/23/2022 7:15:00 AM 2.41 36.338 0.098 6.58 42.94 12.94
12/23/2022 7:30:00 AM 2.44 36.392 0.098 6.58 44.13 12.93
12/23/2022 7:45:00 AM 2.48 36.464 0.097 6.59 41.34 12.92
12/23/2022 8:00:00 AM 2.51 36.518 0.098 6.56 41.14 12.9
12/23/2022 8:15:00 AM 2.54 36.572 0.098 6.59 42.37 12.89
12/23/2022 8:30:00 AM 2.55 36.59 0.098 6.58 44.7 12.89
12/23/2022 8:45:00 AM 2.55 36.59 0.098 6.58 50.66 12.87
12/23/2022 9:00:00 AM 2.54 36.572 0.098 6.59 54.74 12.87
12/23/2022 9:15:00 AM 2.54 36.572 0.099 6.58 50.86 12.88
12/23/2022 9:30:00 AM 2.54 36.572 0.099 6.58 50.04 12.89
12/23/2022 9:45:00 AM 2.53 36.554 0.099 6.59 46.09 12.91
12/23/2022 10:00:00 AM 2.52 36.536 0.099 6.57 47.24 12.92
12/23/2022 10:15:00 AM 2.51 36.518 0.098 6.57 49.24 12.94
12/23/2022 10:30:00 AM 2.46 36.428 0.098 6.57 46.97 12.96
12/23/2022 10:45:00 AM 2.45 36.41 0.097 6.59 46.86 12.98
12/23/2022 11:00:00 AM 2.42 36.356 0.097 6.6 46.57 12.99
12/23/2022 11:15:00 AM 2.39 36.302 0.096 6.6 45.75 13.01
12/23/2022 11:30:00 AM 2.37 36.266 0.094 6.6 51.32 13.03
12/23/2022 11:45:00 AM 2.33 36.194 0.093 6.59 46.17 13.05
12/23/2022 12:00:00 PM 2.3 36.14 0.092 6.6 43.35 13.09
12/23/2022 12:15:00 PM 2.28 36.104 0.091 6.6 41.43 13.12
12/23/2022 12:30:00 PM 2.23 36.014 0.09 6.6 39.13 13.14
12/23/2022 12:45:00 PM 2.21 35.978 0.089 6.59 47.81 13.17
12/23/2022 1:00:00 PM 2.15 35.87 0.089 6.6 38.2 13.19
12/23/2022 1:15:00 PM 2.11 35.798 0.088 6.6 37.76 13.22
12/23/2022 1:30:00 PM 2.08 35.744 0.087 6.6 36.64 13.25
12/23/2022 1:45:00 PM 2.04 35.672 0.087 6.61 34.03 13.27
12/23/2022 2:00:00 PM 2.01 35.618 0.087 6.58 34.33 13.29
12/23/2022 2:15:00 PM 1.94 35.492 0.087 6.59 34.28 13.31
12/23/2022 2:30:00 PM 1.87 35.366 0.087 6.6 32.78 13.34
12/23/2022 2:45:00 PM 1.82 35.276 0.087 6.59 27.89 13.38
12/23/2022 3:00:00 PM 1.75 35.15 0.088 6.59 36.98 13.41
12/23/2022 3:15:00 PM 1.69 35.042 0.088 6.59 30.98 13.43
12/23/2022 3:30:00 PM 1.61 34.898 0.088 6.59 30.41 13.46
12/23/2022 3:45:00 PM 1.51 34.718 0.088 6.59 29.07 13.48
12/23/2022 4:00:00 PM 1.46 34.628 0.088 6.59 26.83 13.5
12/23/2022 4:15:00 PM 1.4 34.52 0.088 6.59 27.25 13.52
12/23/2022 4:30:00 PM 1.34 34.412 0.088 6.58 26.65 13.53
12/23/2022 4:45:00 PM 1.25 34.25 0.089 6.58 25.3 13.55
12/23/2022 5:00:00 PM 1.19 34.142 0.088 6.58 24.3 13.57
12/23/2022 5:15:00 PM 1.12 34.016 0.088 6.58 23.82 13.58
12/23/2022 5:30:00 PM 1.05 33.89 0.088 6.57 24.9 13.6
12/23/2022 5:45:00 PM 0.97 33.746 0.088 6.56 23 13.62
12/23/2022 6:00:00 PM 0.91 33.638 0.088 6.56 21.79 13.64
12/23/2022 6:15:00 PM 0.83 33.494 0.088 6.55 20.91 13.66
12/23/2022 6:30:00 PM 0.76 33.368 0.088 6.54 20.89 13.69
12/23/2022 6:45:00 PM 0.71 33.278 0.088 6.51 19.85 13.7
12/23/2022 7:00:00 PM 0.67 33.206 0.087 6.51 19.25 13.73
12/23/2022 7:15:00 PM 0.6 33.08 0.087 6.5 18.7 13.76
12/23/2022 7:30:00 PM 0.54 32.972 0.087 6.51 18.33 13.78
12/23/2022 7:45:00 PM 0.48 32.864 0.087 6.5 17.28 13.8
12/23/2022 8:00:00 PM 0.43 32.774 0.087 6.5 17.79 13.83
12/23/2022 8:15:00 PM 0.37 32.666 0.086 6.51 17.38 13.85
12/23/2022 8:30:00 PM 0.33 32.594 0.086 6.49 16.92 13.88
12/23/2022 8:45:00 PM 0.29 32.522 0.086 6.5 16.6 13.9
12/23/2022 9:00:00 PM 0.24 32.432 0.086 6.5 16.18 13.92
12/23/2022 9:15:00 PM 0.19 32.342 0.086 6.49 15.3 13.94
12/23/2022 9:30:00 PM 0.15 32.27 0.086 6.5 15.46 13.96
12/23/2022 9:45:00 PM 0.12 32.216 0.086 6.49 14.69 13.97
12/23/2022 10:00:00 PM 0.09 32.162 0.086 6.5 15.81 13.98
12/23/2022 10:15:00 PM 0.05 32.09 0.085 6.5 14.76 14.01
12/23/2022 10:30:00 PM 0.02 32.036 0.085 6.51 14.4 14.03
12/23/2022 10:45:00 PM 0 32 0.085 6.51 14.02 14.05
12/23/2022 11:00:00 PM -0.03 31.946 0.085 6.49 14.64 14.06
12/23/2022 11:15:00 PM -0.05 31.91 0.085 6.52 14.14 14.07
12/23/2022 11:30:00 PM -0.07 31.874 0.085 6.51 14.18 14.09
12/23/2022 11:45:00 PM -0.07 31.874 0.085 6.51 14.63 14.1
12/24/2022 12:00:00 AM -0.06 31.892 0.085 6.51 13.37 14.12
12/24/2022 12:15:00 AM -0.06 31.892 0.084 6.56 13.86 14.14
12/24/2022 12:30:00 AM -0.06 31.892 0.084 6.57 13.75 14.16
12/24/2022 12:45:00 AM -0.06 31.892 0.084 6.57 13.88 14.17
12/24/2022 1:00:00 AM -0.06 31.892 0.084 6.58 13.11 14.17
12/24/2022 1:15:00 AM -0.06 31.892 0.084 6.55 12.1 14.18
12/24/2022 1:30:00 AM -0.06 31.892 0.084 6.58 12.5 14.19
12/24/2022 1:45:00 AM -0.06 31.892 0.084 6.58 12.17 14.2
12/24/2022 2:00:00 AM -0.06 31.892 0.084 6.58 11.32 14.2
12/24/2022 2:15:00 AM -0.06 31.892 0.084 6.58 11.63 14.21
12/24/2022 2:30:00 AM -0.06 31.892 0.084 6.58 11.77 14.21
12/24/2022 2:45:00 AM -0.06 31.892 0.083 6.58 12.25 14.22
12/24/2022 3:00:00 AM -0.06 31.892 0.083 6.58 12.25 14.23
12/24/2022 3:15:00 AM -0.06 31.892 0.083 6.58 11.7 14.24
12/24/2022 3:30:00 AM -0.06 31.892 0.083 6.59 10.93 14.24
12/24/2022 3:45:00 AM -0.06 31.892 0.083 6.58 10.98 14.24
12/24/2022 4:00:00 AM -0.06 31.892 0.083 6.59 10.93 14.25
12/24/2022 4:15:00 AM -0.06 31.892 0.083 6.58 10.68 14.26
12/24/2022 4:30:00 AM -0.06 31.892 0.083 6.59 10.85 14.26
12/24/2022 4:45:00 AM -0.06 31.892 0.083 6.59 10.33 14.26
12/24/2022 5:00:00 AM -0.06 31.892 0.083 6.59 11.21 14.27
12/24/2022 5:15:00 AM -0.06 31.892 0.083 6.59 10.84 14.27
12/24/2022 5:30:00 AM -0.06 31.892 0.083 6.6 9.87 14.28
12/24/2022 5:45:00 AM -0.06 31.892 0.083 6.55 11.16 14.28
12/24/2022 6:00:00 AM -0.06 31.892 0.083 6.59 10.23 14.28
12/24/2022 6:15:00 AM -0.06 31.892 0.083 6.59 10.21 14.28
12/24/2022 6:30:00 AM -0.06 31.892 0.082 6.58 10.36 14.29
12/24/2022 6:45:00 AM -0.06 31.892 0.082 6.58 9.44 14.29
12/24/2022 7:00:00 AM -0.06 31.892 0.082 6.58 10.1 14.29
12/24/2022 7:15:00 AM -0.06 31.892 0.082 6.58 9.09 14.29
12/24/2022 7:30:00 AM -0.06 31.892 0.082 6.56 9.47 14.29
12/24/2022 7:45:00 AM -0.06 31.892 0.082 6.58 9.62 14.3
12/24/2022 8:00:00 AM -0.06 31.892 0.082 6.58 8.86 14.3
12/24/2022 8:15:00 AM -0.06 31.892 0.082 6.54 8.7 14.31
12/24/2022 8:30:00 AM -0.06 31.892 0.082 6.56 9.52 14.33
12/24/2022 8:45:00 AM -0.06 31.892 0.082 6.57 8.46 14.36
12/24/2022 9:00:00 AM -0.06 31.892 0.082 6.58 8.32 14.39
12/24/2022 9:15:00 AM -0.06 31.892 0.082 6.59 8.5 14.42
12/24/2022 9:30:00 AM -0.06 31.892 0.082 6.59 8.81 14.46
12/24/2022 9:45:00 AM -0.06 31.892 0.081 6.59 7.89 14.49
12/24/2022 10:00:00 AM -0.06 31.892 0.081 6.6 8.4 14.52
12/24/2022 10:15:00 AM -0.06 31.892 0.081 6.58 7.99 14.54
12/24/2022 10:30:00 AM -0.05 31.91 0.081 6.59 8.15 14.57
12/24/2022 10:45:00 AM -0.05 31.91 0.081 6.63 8.51 14.6
12/24/2022 11:00:00 AM -0.05 31.91 0.081 6.64 7.89 14.62
12/24/2022 11:15:00 AM -0.06 31.892 0.081 6.61 7.86 14.63
12/24/2022 11:30:00 AM -0.05 31.91 0.081 6.65 8.45 14.65
12/24/2022 11:45:00 AM -0.05 31.91 0.081 6.67 8.13 14.65
12/24/2022 12:00:00 PM -0.05 31.91 0.081 6.67 8.67 14.66
12/24/2022 12:15:00 PM -0.05 31.91 0.081 6.69 8.11 14.66
12/24/2022 12:30:00 PM -0.05 31.91 0.081 6.69 8.33 14.66
12/24/2022 12:45:00 PM -0.05 31.91 0.081 6.67 7.7 14.65
12/24/2022 1:00:00 PM -0.05 31.91 0.081 6.71 8.12 14.64
12/24/2022 1:15:00 PM -0.05 31.91 0.081 6.71 8.19 14.63
12/24/2022 1:30:00 PM -0.05 31.91 0.08 6.7 8.74 14.62
12/24/2022 1:45:00 PM -0.05 31.91 0.08 6.72 10.24 14.6
12/24/2022 2:00:00 PM -0.05 31.91 0.08 6.73 10.37 14.58
12/24/2022 2:15:00 PM -0.05 31.91 0.08 6.73 11.73 14.56
12/24/2022 2:30:00 PM -0.04 31.928 0.08 6.73 12.04 14.54
12/24/2022 2:45:00 PM 0 32 0.08 6.75 11.7 14.51
12/24/2022 3:00:00 PM 0.19 32.342 0.08 6.73 9.92 14.5
12/24/2022 3:15:00 PM 0.31 32.558 0.08 6.74 9.58 14.49
12/24/2022 3:30:00 PM 0.4 32.72 0.08 6.72 9.17 14.48
12/24/2022 3:45:00 PM 0.48 32.864 0.08 6.7 8.28 14.46
12/24/2022 4:00:00 PM 0.52 32.936 0.08 6.71 8.13 14.43
12/24/2022 4:15:00 PM 0.54 32.972 0.08 6.7 8.53 14.39
12/24/2022 4:30:00 PM 0.55 32.99 0.08 6.69 7.33 14.35
12/24/2022 4:45:00 PM 0.57 33.026 0.08 6.68 7.04 14.3
12/24/2022 5:00:00 PM 0.57 33.026 0.08 6.66 7.36 14.24
12/24/2022 5:15:00 PM 0.57 33.026 0.08 6.66 7.07 14.19
12/24/2022 5:30:00 PM 0.56 33.008 0.08 6.65 7.22 14.15
12/24/2022 5:45:00 PM 0.57 33.026 0.08 6.65 7.24 14.12
12/24/2022 6:00:00 PM 0.57 33.026 0.08 6.62 6.8 14.08
12/24/2022 6:15:00 PM 0.58 33.044 0.08 6.63 7.1 14.06
12/24/2022 6:30:00 PM 0.57 33.026 0.08 6.62 7.17 14.04
12/24/2022 6:45:00 PM 0.57 33.026 0.08 6.6 6.85 14.02
12/24/2022 7:00:00 PM 0.58 33.044 0.08 6.59 6.78 14.01
12/24/2022 7:15:00 PM 0.59 33.062 0.08 6.58 6.69 14
12/24/2022 7:30:00 PM 0.59 33.062 0.08 6.58 6.79 13.99
12/24/2022 7:45:00 PM 0.59 33.062 0.08 6.57 6.63 13.98
12/24/2022 8:00:00 PM 0.59 33.062 0.08 6.58 6.48 13.98
12/24/2022 8:15:00 PM 0.59 33.062 0.08 6.58 6.42 13.98
12/24/2022 8:30:00 PM 0.59 33.062 0.08 6.57 6.38 13.98
12/24/2022 8:45:00 PM 0.59 33.062 0.08 6.57 6.29 13.97
12/24/2022 9:00:00 PM 0.59 33.062 0.08 6.56 6.57 13.97
12/24/2022 9:15:00 PM 0.6 33.08 0.08 6.56 6.26 13.97
12/24/2022 9:30:00 PM 0.6 33.08 0.08 6.56 6.06 13.97
12/24/2022 9:45:00 PM 0.6 33.08 0.08 6.55 6.32 13.97
12/24/2022 10:00:00 PM 0.6 33.08 0.08 6.56 6.06 13.96
12/24/2022 10:15:00 PM 0.6 33.08 0.08 6.55 6.25 13.97
12/24/2022 10:30:00 PM 0.59 33.062 0.08 6.56 6.27 13.97
12/24/2022 10:45:00 PM 0.6 33.08 0.08 6.55 6.15 13.97
12/24/2022 11:00:00 PM 0.6 33.08 0.08 6.56 6.11 13.97
12/24/2022 11:15:00 PM 0.6 33.08 0.08 6.55 6.17 13.96
12/24/2022 11:30:00 PM 0.6 33.08 0.08 6.55 5.92 13.97
12/24/2022 11:45:00 PM 0.6 33.08 0.08 6.56 5.78 13.97
12/25/2022 12:00:00 AM 0.6 33.08 0.08 6.56 5.94 13.97
12/25/2022 12:15:00 AM 0.6 33.08 0.08 6.55 5.96 13.96
12/25/2022 12:30:00 AM 0.61 33.098 0.08 6.56 5.9 13.96
12/25/2022 12:45:00 AM 0.61 33.098 0.08 6.56 5.7 13.96
12/25/2022 1:00:00 AM 0.62 33.116 0.08 6.55 5.78 13.96
12/25/2022 1:15:00 AM 0.62 33.116 0.08 6.55 6 13.96
12/25/2022 1:30:00 AM 0.62 33.116 0.08 6.55 5.72 13.96
12/25/2022 1:45:00 AM 0.62 33.116 0.08 6.55 6.13 13.95
12/25/2022 2:00:00 AM 0.63 33.134 0.08 6.55 5.83 13.95
12/25/2022 2:15:00 AM 0.64 33.152 0.08 6.55 5.58 13.94
12/25/2022 2:30:00 AM 0.64 33.152 0.08 6.55 5.62 13.94
12/25/2022 2:45:00 AM 0.65 33.17 0.08 6.55 5.47 13.94
12/25/2022 3:00:00 AM 0.66 33.188 0.08 6.55 5.36 13.94
12/25/2022 3:15:00 AM 0.67 33.206 0.08 6.56 5.64 13.93
12/25/2022 3:30:00 AM 0.68 33.224 0.08 6.55 5.42 13.93
12/25/2022 3:45:00 AM 0.69 33.242 0.08 6.53 5.39 13.92
12/25/2022 4:00:00 AM 0.7 33.26 0.08 6.55 5.46 13.92
12/25/2022 4:15:00 AM 0.72 33.296 0.08 6.55 5.34 13.91
12/25/2022 4:30:00 AM 0.72 33.296 0.08 6.53 5.45 13.91
12/25/2022 4:45:00 AM 0.74 33.332 0.08 6.54 5.46 13.9
12/25/2022 5:00:00 AM 0.75 33.35 0.08 6.55 5.36 13.9
12/25/2022 5:15:00 AM 0.75 33.35 0.08 6.56 5.44 13.9
12/25/2022 5:30:00 AM 0.76 33.368 0.08 6.53 5.47 13.9
12/25/2022 5:45:00 AM 0.77 33.386 0.08 6.55 5.47 13.89
12/25/2022 6:00:00 AM 0.77 33.386 0.08 6.55 5.38 13.89
12/25/2022 6:15:00 AM 0.79 33.422 0.08 6.55 5.09 13.88
12/25/2022 6:30:00 AM 0.78 33.404 0.08 6.55 5.11 13.89
12/25/2022 6:45:00 AM 0.78 33.404 0.08 6.55 5.12 13.89
12/25/2022 7:00:00 AM 0.78 33.404 0.08 6.55 5.21 13.89
12/25/2022 7:15:00 AM 0.77 33.386 0.08 6.56 5.22 13.89
12/25/2022 7:30:00 AM 0.76 33.368 0.08 6.56 5.09 13.9
12/25/2022 7:45:00 AM 0.75 33.35 0.08 6.56 4.9 13.9
12/25/2022 8:00:00 AM 0.74 33.332 0.08 6.56 5.05 13.92
12/25/2022 8:15:00 AM 0.74 33.332 0.08 6.54 5.16 13.94
12/25/2022 8:30:00 AM 0.74 33.332 0.08 6.56 4.78 13.97
12/25/2022 8:45:00 AM 0.75 33.35 0.08 6.57 4.78 14.01
12/25/2022 9:00:00 AM 0.77 33.386 0.08 6.57 5.18 14.05
12/25/2022 9:15:00 AM 0.79 33.422 0.08 6.57 4.65 14.1
12/25/2022 9:30:00 AM 0.81 33.458 0.08 6.59 4.6 14.14
12/25/2022 9:45:00 AM 0.84 33.512 0.08 6.6 4.75 14.19
12/25/2022 10:00:00 AM 0.88 33.584 0.08 6.62 4.8 14.24
12/25/2022 10:15:00 AM 0.91 33.638 0.08 6.64 4.56 14.28
12/25/2022 10:30:00 AM 0.96 33.728 0.08 6.65 4.5 14.32
12/25/2022 10:45:00 AM 1.03 33.854 0.08 6.67 4.81 14.35
12/25/2022 11:00:00 AM 1.07 33.926 0.08 6.68 4.52 14.37
12/25/2022 11:15:00 AM 1.13 34.034 0.08 6.69 4.65 14.39
12/25/2022 11:30:00 AM 1.13 34.034 0.08 6.7 4.7 14.4
12/25/2022 11:45:00 AM 1.16 34.088 0.08 6.71 4.51 14.41
12/25/2022 12:00:00 PM 1.21 34.178 0.08 6.71 4.62 14.41
12/25/2022 12:15:00 PM 1.25 34.25 0.08 6.73 4.34 14.42
12/25/2022 12:30:00 PM 1.26 34.268 0.08 6.73 4.14 14.42
12/25/2022 12:45:00 PM 1.28 34.304 0.08 6.74 4.16 14.42
12/25/2022 1:00:00 PM 1.33 34.394 0.08 6.75 4.22 14.41
12/25/2022 1:15:00 PM 1.35 34.43 0.079 6.75 4.54 14.4
12/25/2022 1:30:00 PM 1.37 34.466 0.079 6.77 4.44 14.39
12/25/2022 1:45:00 PM 1.4 34.52 0.079 6.77 4.29 14.39
12/25/2022 2:00:00 PM 1.43 34.574 0.08 6.78 4.33 14.38
12/25/2022 2:15:00 PM 1.45 34.61 0.08 6.78 4.22 14.37
12/25/2022 2:30:00 PM 1.47 34.646 0.079 6.79 4.23 14.35
12/25/2022 2:45:00 PM 1.5 34.7 0.08 6.8 4.29 14.32
12/25/2022 3:00:00 PM 1.5 34.7 0.08 6.78 4.28 14.3
12/25/2022 3:15:00 PM 1.5 34.7 0.08 6.78 4.2 14.29
12/25/2022 3:30:00 PM 1.5 34.7 0.08 6.78 4.08 14.27
12/25/2022 3:45:00 PM 1.5 34.7 0.08 6.77 4.22 14.24
12/25/2022 4:00:00 PM 1.5 34.7 0.08 6.77 4.3 14.2
12/25/2022 4:15:00 PM 1.49 34.682 0.08 6.76 4.08 14.15
12/25/2022 4:30:00 PM 1.47 34.646 0.08 6.75 4.09 14.1
12/25/2022 4:45:00 PM 1.47 34.646 0.08 6.74 4.3 14.05
12/25/2022 5:00:00 PM 1.46 34.628 0.08 6.72 3.92 14
12/25/2022 5:15:00 PM 1.44 34.592 0.08 6.71 4.04 13.95
12/25/2022 5:30:00 PM 1.43 34.574 0.08 6.68 4.04 13.91
12/25/2022 5:45:00 PM 1.41 34.538 0.08 6.68 3.98 13.87
12/25/2022 6:00:00 PM 1.39 34.502 0.08 6.68 4.02 13.83
12/25/2022 6:15:00 PM 1.39 34.502 0.08 6.67 4 13.81
12/25/2022 6:30:00 PM 1.38 34.484 0.08 6.66 4.14 13.79
12/25/2022 6:45:00 PM 1.36 34.448 0.08 6.65 3.97 13.78
12/25/2022 7:00:00 PM 1.35 34.43 0.08 6.63 3.95 13.77
12/25/2022 7:15:00 PM 1.33 34.394 0.08 6.63 3.97 13.77
12/25/2022 7:30:00 PM 1.3 34.34 0.08 6.63 3.94 13.77
12/25/2022 7:45:00 PM 1.29 34.322 0.08 6.62 4.22 13.77
12/25/2022 8:00:00 PM 1.28 34.304 0.08 6.62 3.95 13.77
12/25/2022 8:15:00 PM 1.26 34.268 0.08 6.62 3.92 13.78
12/25/2022 8:30:00 PM 1.24 34.232 0.081 6.6 3.81 13.79
12/25/2022 8:45:00 PM 1.23 34.214 0.081 6.61 3.68 13.79
12/25/2022 9:00:00 PM 1.22 34.196 0.081 6.61 3.9 13.8
12/25/2022 9:15:00 PM 1.22 34.196 0.081 6.59 3.83 13.8
12/25/2022 9:30:00 PM 1.21 34.178 0.081 6.6 3.84 13.81
12/25/2022 9:45:00 PM 1.19 34.142 0.081 6.6 3.69 13.81
12/25/2022 10:00:00 PM 1.18 34.124 0.081 6.59 3.94 13.82
12/25/2022 10:15:00 PM 1.15 34.07 0.081 6.59 3.94 13.83
12/25/2022 10:30:00 PM 1.13 34.034 0.081 6.59 3.83 13.84
12/25/2022 10:45:00 PM 1.12 34.016 0.081 6.59 3.88 13.85
12/25/2022 11:00:00 PM 1.1 33.98 0.081 6.59 3.66 13.85
12/25/2022 11:15:00 PM 1.09 33.962 0.081 6.59 3.8 13.86
12/25/2022 11:30:00 PM 1.08 33.944 0.081 6.59 3.72 13.87
12/25/2022 11:45:00 PM 1.06 33.908 0.081 6.58 3.65 13.88
12/26/2022 12:00:00 AM 1.05 33.89 0.081 6.58 4.01 13.89
12/26/2022 12:15:00 AM 1.03 33.854 0.081 6.58 3.74 13.89
12/26/2022 12:30:00 AM 1.01 33.818 0.081 6.58 3.49 13.9
12/26/2022 12:45:00 AM 1 33.8 0.081 6.56 3.6 13.91
12/26/2022 1:00:00 AM 0.99 33.782 0.081 6.57 3.74 13.91
12/26/2022 1:15:00 AM 0.98 33.764 0.081 6.57 3.48 13.92
12/26/2022 1:30:00 AM 0.97 33.746 0.081 6.58 3.67 13.93
12/26/2022 1:45:00 AM 0.96 33.728 0.081 6.58 3.63 13.93
12/26/2022 2:00:00 AM 0.95 33.71 0.081 6.58 3.59 13.94
12/26/2022 2:15:00 AM 0.93 33.674 0.081 6.58 3.46 13.95
12/26/2022 2:30:00 AM 0.92 33.656 0.081 6.57 3.51 13.95
12/26/2022 2:45:00 AM 0.91 33.638 0.082 6.57 3.76 13.96
12/26/2022 3:00:00 AM 0.9 33.62 0.082 6.57 3.62 13.97
12/26/2022 3:15:00 AM 0.89 33.602 0.082 6.58 3.72 13.98
12/26/2022 3:30:00 AM 0.88 33.584 0.082 6.58 3.59 13.98
12/26/2022 3:45:00 AM 0.87 33.566 0.082 6.58 3.4 13.99
12/26/2022 4:00:00 AM 0.85 33.53 0.082 6.58 3.56 14
12/26/2022 4:15:00 AM 0.84 33.512 0.082 6.58 3.48 14
12/26/2022 4:30:00 AM 0.82 33.476 0.082 6.58 3.47 14.01
12/26/2022 4:45:00 AM 0.8 33.44 0.082 6.58 3.66 14.02
12/26/2022 5:00:00 AM 0.78 33.404 0.082 6.58 3.37 14.03
12/26/2022 5:15:00 AM 0.75 33.35 0.082 6.57 3.47 14.04
12/26/2022 5:30:00 AM 0.72 33.296 0.082 6.56 3.47 14.05
12/26/2022 5:45:00 AM 0.69 33.242 0.082 6.57 3.49 14.07
12/26/2022 6:00:00 AM 0.65 33.17 0.082 6.57 3.32 14.08
12/26/2022 6:15:00 AM 0.62 33.116 0.082 6.58 3.49 14.1
12/26/2022 6:30:00 AM 0.59 33.062 0.082 6.57 3.62 14.11
12/26/2022 6:45:00 AM 0.56 33.008 0.082 6.57 3.44 14.13
12/26/2022 7:00:00 AM 0.53 32.954 0.082 6.57 3.58 14.14
12/26/2022 7:15:00 AM 0.51 32.918 0.082 6.57 3.37 14.15
12/26/2022 7:30:00 AM 0.49 32.882 0.082 6.55 3.41 14.16
12/26/2022 7:45:00 AM 0.47 32.846 0.082 6.58 3.34 14.18
12/26/2022 8:00:00 AM 0.46 32.828 0.082 6.57 3.25 14.2
12/26/2022 8:15:00 AM 0.45 32.81 0.082 6.58 3.37 14.23
12/26/2022 8:30:00 AM 0.45 32.81 0.082 6.58 3.18 14.26
12/26/2022 8:45:00 AM 0.45 32.81 0.082 6.58 3.35 14.3
12/26/2022 9:00:00 AM 0.46 32.828 0.082 6.6 3.45 14.36
12/26/2022 9:15:00 AM 0.47 32.846 0.082 6.61 3.2 14.42
12/26/2022 9:30:00 AM 0.48 32.864 0.082 6.61 3.21 14.48
12/26/2022 9:45:00 AM 0.49 32.882 0.082 6.63 3.25 14.54
12/26/2022 10:00:00 AM 0.51 32.918 0.082 6.64 3.04 14.59
12/26/2022 10:15:00 AM 0.55 32.99 0.082 6.66 3.28 14.64
12/26/2022 10:30:00 AM 0.58 33.044 0.082 6.65 3.17 14.68
12/26/2022 10:45:00 AM 0.62 33.116 0.082 6.68 3.18 14.72
12/26/2022 11:00:00 AM 0.67 33.206 0.082 6.7 3.03 14.75
12/26/2022 11:15:00 AM 0.74 33.332 0.082 6.72 3.16 14.77
12/26/2022 11:30:00 AM 0.81 33.458 0.082 6.73 3.01 14.79
12/26/2022 11:45:00 AM 0.84 33.512 0.082 6.74 3.06 14.8
12/26/2022 12:00:00 PM 0.9 33.62 0.082 6.75 3 14.81
12/26/2022 12:15:00 PM 0.94 33.692 0.082 6.76 2.91 14.8
12/26/2022 12:30:00 PM 0.98 33.764 0.081 6.77 3.03 14.8
12/26/2022 12:45:00 PM 1.02 33.836 0.081 6.78 2.86 14.79
12/26/2022 1:00:00 PM 1.06 33.908 0.082 6.79 3.01 14.79
12/26/2022 1:15:00 PM 1.1 33.98 0.081 6.79 2.99 14.77
12/26/2022 1:30:00 PM 1.14 34.052 0.081 6.8 2.88 14.76
12/26/2022 1:45:00 PM 1.18 34.124 0.081 6.81 2.85 14.75
12/26/2022 2:00:00 PM 1.22 34.196 0.081 6.82 2.9 14.74
12/26/2022 2:15:00 PM 1.26 34.268 0.081 6.8 2.86 14.72
12/26/2022 2:30:00 PM 1.3 34.34 0.081 6.83 2.86 14.7
12/26/2022 2:45:00 PM 1.32 34.376 0.081 6.83 3.07 14.68
12/26/2022 3:00:00 PM 1.33 34.394 0.081 6.83 2.8 14.65
12/26/2022 3:15:00 PM 1.35 34.43 0.081 6.84 2.85 14.62
12/26/2022 3:30:00 PM 1.35 34.43 0.081 6.83 2.78 14.58
12/26/2022 3:45:00 PM 1.36 34.448 0.081 6.82 3.01 14.54
12/26/2022 4:00:00 PM 1.36 34.448 0.081 6.82 2.81 14.49
12/26/2022 4:15:00 PM 1.37 34.466 0.081 6.8 2.96 14.43
12/26/2022 4:30:00 PM 1.38 34.484 0.081 6.79 2.79 14.36
12/26/2022 4:45:00 PM 1.39 34.502 0.081 6.78 2.71 14.29
12/26/2022 5:00:00 PM 1.4 34.52 0.081 6.76 2.99 14.22
12/26/2022 5:15:00 PM 1.41 34.538 0.081 6.75 3.02 14.15
12/26/2022 5:30:00 PM 1.41 34.538 0.082 6.73 2.89 14.09
12/26/2022 5:45:00 PM 1.41 34.538 0.082 6.72 3.13 14.03
12/26/2022 6:00:00 PM 1.41 34.538 0.082 6.71 3.06 13.99
12/26/2022 6:15:00 PM 1.42 34.556 0.082 6.7 3.19 13.95
12/26/2022 6:30:00 PM 1.41 34.538 0.082 6.69 3.31 13.92
12/26/2022 6:45:00 PM 1.42 34.556 0.082 6.68 3.27 13.89
12/26/2022 7:00:00 PM 1.42 34.556 0.082 6.67 3.5 13.88
12/26/2022 7:15:00 PM 1.42 34.556 0.082 6.67 3.08 13.86
12/26/2022 7:30:00 PM 1.43 34.574 0.082 6.66 3.08 13.85
12/26/2022 7:45:00 PM 1.42 34.556 0.082 6.65 2.96 13.83
12/26/2022 8:00:00 PM 1.41 34.538 0.082 6.65 3.07 13.83
12/26/2022 8:15:00 PM 1.4 34.52 0.082 6.64 2.88 13.83
12/26/2022 8:30:00 PM 1.4 34.52 0.082 6.62 2.96 13.82
12/26/2022 8:45:00 PM 1.38 34.484 0.082 6.64 2.71 13.82
12/26/2022 9:00:00 PM 1.36 34.448 0.082 6.63 2.9 13.82
12/26/2022 9:15:00 PM 1.33 34.394 0.082 6.63 2.66 13.83
12/26/2022 9:30:00 PM 1.31 34.358 0.082 6.62 2.86 13.83
12/26/2022 9:45:00 PM 1.3 34.34 0.082 6.61 2.95 13.84
12/26/2022 10:00:00 PM 1.29 34.322 0.082 6.62 2.87 13.84
12/26/2022 10:15:00 PM 1.28 34.304 0.082 6.62 2.84 13.84
12/26/2022 10:30:00 PM 1.28 34.304 0.083 6.62 2.68 13.85
12/26/2022 10:45:00 PM 1.28 34.304 0.083 6.61 2.74 13.85
12/26/2022 11:00:00 PM 1.28 34.304 0.083 6.61 2.72 13.85
12/26/2022 11:15:00 PM 1.28 34.304 0.083 6.6 3.11 13.86
12/26/2022 11:30:00 PM 1.27 34.286 0.083 6.61 2.94 13.86
12/26/2022 11:45:00 PM 1.27 34.286 0.083 6.61 2.79 13.86
12/27/2022 12:00:00 AM 1.27 34.286 0.083 6.6 2.86 13.86
12/27/2022 12:15:00 AM 1.27 34.286 0.083 6.61 2.86 13.87
12/27/2022 12:30:00 AM 1.26 34.268 0.083 6.6 2.79 13.86
12/27/2022 12:45:00 AM 1.26 34.268 0.083 6.6 2.97 13.86
12/27/2022 1:00:00 AM 1.26 34.268 0.083 6.6 2.82 13.87
12/27/2022 1:15:00 AM 1.25 34.25 0.083 6.6 2.74 13.87
12/27/2022 1:30:00 AM 1.25 34.25 0.083 6.6 2.76 13.87
12/27/2022 1:45:00 AM 1.24 34.232 0.083 6.6 2.73 13.87
12/27/2022 2:00:00 AM 1.24 34.232 0.083 6.6 2.84 13.88
12/27/2022 2:15:00 AM 1.24 34.232 0.083 6.58 2.77 13.88
12/27/2022 2:30:00 AM 1.24 34.232 0.083 6.6 2.87 13.88
12/27/2022 2:45:00 AM 1.24 34.232 0.083 6.6 2.76 13.88
12/27/2022 3:00:00 AM 1.24 34.232 0.083 6.59 2.82 13.88
12/27/2022 3:15:00 AM 1.24 34.232 0.083 6.6 2.81 13.88
12/27/2022 3:30:00 AM 1.23 34.214 0.083 6.6 2.72 13.88
12/27/2022 3:45:00 AM 1.23 34.214 0.083 6.6 2.84 13.88
12/27/2022 4:00:00 AM 1.22 34.196 0.083 6.6 2.82 13.88
12/27/2022 4:15:00 AM 1.23 34.214 0.083 6.6 2.67 13.88
12/27/2022 4:30:00 AM 1.23 34.214 0.083 6.58 2.77 13.88
12/27/2022 4:45:00 AM 1.23 34.214 0.083 6.6 2.75 13.88
12/27/2022 5:00:00 AM 1.24 34.232 0.083 6.6 2.92 13.88
12/27/2022 5:15:00 AM 1.25 34.25 0.084 6.6 2.66 13.88
12/27/2022 5:30:00 AM 1.25 34.25 0.084 6.6 2.58 13.88
12/27/2022 5:45:00 AM 1.26 34.268 0.084 6.6 2.82 13.88
12/27/2022 6:00:00 AM 1.27 34.286 0.083 6.6 2.64 13.88
12/27/2022 6:15:00 AM 1.27 34.286 0.083 6.6 2.48 13.87
12/27/2022 6:30:00 AM 1.28 34.304 0.083 6.6 2.74 13.87
12/27/2022 6:45:00 AM 1.29 34.322 0.083 6.59 2.8 13.87
12/27/2022 7:00:00 AM 1.29 34.322 0.084 6.6 2.76 13.87
12/27/2022 7:15:00 AM 1.3 34.34 0.084 6.6 2.78 13.87
12/27/2022 7:30:00 AM 1.3 34.34 0.084 6.6 2.53 13.87
12/27/2022 7:45:00 AM 1.31 34.358 0.084 6.6 2.63 13.87
12/27/2022 8:00:00 AM 1.31 34.358 0.084 6.61 2.59 13.87
12/27/2022 8:15:00 AM 1.32 34.376 0.084 6.61 2.62 13.88
12/27/2022 8:30:00 AM 1.33 34.394 0.084 6.61 2.57 13.91
12/27/2022 8:45:00 AM 1.34 34.412 0.084 6.6 2.58 13.94
12/27/2022 9:00:00 AM 1.36 34.448 0.084 6.61 2.62 13.98
12/27/2022 9:15:00 AM 1.37 34.466 0.084 6.63 2.59 14.02
12/27/2022 9:30:00 AM 1.39 34.502 0.083 6.64 2.62 14.06
12/27/2022 9:45:00 AM 1.41 34.538 0.084 6.66 2.62 14.12
12/27/2022 10:00:00 AM 1.44 34.592 0.083 6.66 2.51 14.17
12/27/2022 10:15:00 AM 1.47 34.646 0.083 6.68 2.51 14.23
12/27/2022 10:30:00 AM 1.51 34.718 0.083 6.69 2.5 14.28
12/27/2022 10:45:00 AM 1.54 34.772 0.083 6.71 2.59 14.32
12/27/2022 11:00:00 AM 1.58 34.844 0.083 6.72 2.5 14.37
12/27/2022 11:15:00 AM 1.62 34.916 0.083 6.74 2.5 14.4
12/27/2022 11:30:00 AM 1.66 34.988 0.083 6.75 2.38 14.43
12/27/2022 11:45:00 AM 1.7 35.06 0.083 6.77 2.44 14.45
12/27/2022 12:00:00 PM 1.73 35.114 0.083 6.78 2.37 14.46
12/27/2022 12:15:00 PM 1.76 35.168 0.083 6.8 2.35 14.47
12/27/2022 12:30:00 PM 1.78 35.204 0.083 6.8 2.5 14.47
12/27/2022 12:45:00 PM 1.8 35.24 0.083 6.82 2.44 14.46
12/27/2022 1:00:00 PM 1.82 35.276 0.083 6.81 2.5 14.45
12/27/2022 1:15:00 PM 1.85 35.33 0.083 6.83 2.57 14.43
12/27/2022 1:30:00 PM 1.88 35.384 0.083 6.84 2.31 14.42
12/27/2022 1:45:00 PM 1.91 35.438 0.083 6.85 2.35 14.41
12/27/2022 2:00:00 PM 1.94 35.492 0.083 6.84 2.45 14.4
12/27/2022 2:15:00 PM 1.97 35.546 0.083 6.84 2.32 14.38
12/27/2022 2:30:00 PM 2 35.6 0.083 6.84 2.27 14.35
12/27/2022 2:45:00 PM 2.03 35.654 0.083 6.84 2.38 14.33
12/27/2022 3:00:00 PM 2.05 35.69 0.083 6.85 2.32 14.3
12/27/2022 3:15:00 PM 2.06 35.708 0.083 6.84 2.28 14.25
12/27/2022 3:30:00 PM 2.07 35.726 0.083 6.82 2.3 14.21
12/27/2022 3:45:00 PM 2.08 35.744 0.083 6.83 2.42 14.15
12/27/2022 4:00:00 PM 2.09 35.762 0.083 6.8 2.32 14.11
12/27/2022 4:15:00 PM 2.1 35.78 0.083 6.81 2.45 14.05
12/27/2022 4:30:00 PM 2.1 35.78 0.083 6.78 2.45 13.99
12/27/2022 4:45:00 PM 2.1 35.78 0.083 6.78 2.26 13.94
12/27/2022 5:00:00 PM 2.11 35.798 0.083 6.76 2.48 13.89
12/27/2022 5:15:00 PM 2.12 35.816 0.083 6.76 2.52 13.83
12/27/2022 5:30:00 PM 2.12 35.816 0.083 6.74 2.43 13.78
12/27/2022 5:45:00 PM 2.13 35.834 0.083 6.73 2.28 13.73
12/27/2022 6:00:00 PM 2.14 35.852 0.083 6.71 2.31 13.69
12/27/2022 6:15:00 PM 2.14 35.852 0.083 6.71 2.34 13.66
12/27/2022 6:30:00 PM 2.15 35.87 0.084 6.7 2.33 13.64
12/27/2022 6:45:00 PM 2.15 35.87 0.084 6.69 2.5 13.6
12/27/2022 7:00:00 PM 2.15 35.87 0.084 6.68 2.54 13.59
12/27/2022 7:15:00 PM 2.16 35.888 0.084 6.68 2.44 13.57
12/27/2022 7:30:00 PM 2.16 35.888 0.084 6.66 2.43 13.56
12/27/2022 7:45:00 PM 2.16 35.888 0.084 6.66 2.34 13.54
12/27/2022 8:00:00 PM 2.17 35.906 0.084 6.66 2.56 13.54
12/27/2022 8:15:00 PM 2.17 35.906 0.084 6.65 2.37 13.53
12/27/2022 8:30:00 PM 2.18 35.924 0.084 6.65 2.58 13.52
12/27/2022 8:45:00 PM 2.18 35.924 0.084 6.65 2.16 13.52
12/27/2022 9:00:00 PM 2.19 35.942 0.084 6.65 2.37 13.52
12/27/2022 9:15:00 PM 2.19 35.942 0.084 6.65 2.41 13.51
12/27/2022 9:30:00 PM 2.2 35.96 0.084 6.63 2.3 13.51
12/27/2022 9:45:00 PM 2.2 35.96 0.084 6.63 2.3 13.5
12/27/2022 10:00:00 PM 2.2 35.96 0.084 6.63 2.33 13.5
12/27/2022 10:15:00 PM 2.21 35.978 0.084 6.64 2.5 13.5
12/27/2022 10:30:00 PM 2.21 35.978 0.084 6.64 2.56 13.49
12/27/2022 10:45:00 PM 2.21 35.978 0.084 6.64 2.38 13.49
12/27/2022 11:00:00 PM 2.22 35.996 0.084 6.62 2.46 13.49
12/27/2022 11:15:00 PM 2.22 35.996 0.084 6.63 2.34 13.48
12/27/2022 11:30:00 PM 2.22 35.996 0.084 6.63 2.46 13.48
12/27/2022 11:45:00 PM 2.22 35.996 0.084 6.63 2.53 13.48
12/28/2022 12:00:00 AM 2.23 36.014 0.084 6.63 2.5 13.48
12/28/2022 12:15:00 AM 2.23 36.014 0.084 6.63 2.38 13.47
12/28/2022 12:30:00 AM 2.23 36.014 0.085 6.63 2.49 13.48
12/28/2022 12:45:00 AM 2.23 36.014 0.084 6.63 2.41 13.47
12/28/2022 1:00:00 AM 2.23 36.014 0.084 6.63 2.34 13.47
12/28/2022 1:15:00 AM 2.24 36.032 0.084 6.63 2.41 13.47
12/28/2022 1:30:00 AM 2.24 36.032 0.084 6.63 2.38 13.46
12/28/2022 1:45:00 AM 2.24 36.032 0.085 6.62 2.29 13.46
12/28/2022 2:00:00 AM 2.24 36.032 0.085 6.63 2.29 13.46
12/28/2022 2:15:00 AM 2.24 36.032 0.085 6.63 2.6 13.46
12/28/2022 2:30:00 AM 2.24 36.032 0.085 6.63 2.36 13.46
12/28/2022 2:45:00 AM 2.23 36.014 0.085 6.62 2.38 13.46
12/28/2022 3:00:00 AM 2.23 36.014 0.085 6.62 2.32 13.46
12/28/2022 3:15:00 AM 2.22 35.996 0.085 6.61 2.47 13.46
12/28/2022 3:30:00 AM 2.21 35.978 0.085 6.63 2.39 13.46
12/28/2022 3:45:00 AM 2.2 35.96 0.085 6.62 2.37 13.46
12/28/2022 4:00:00 AM 2.18 35.924 0.085 6.62 2.45 13.47
12/28/2022 4:15:00 AM 2.15 35.87 0.085 6.62 2.34 13.48
12/28/2022 4:30:00 AM 2.12 35.816 0.085 6.62 2.44 13.48
12/28/2022 4:45:00 AM 2.1 35.78 0.085 6.62 2.86 13.48
12/28/2022 5:00:00 AM 2.08 35.744 0.085 6.62 2.32 13.48
12/28/2022 5:15:00 AM 2.06 35.708 0.085 6.61 2.52 13.5
12/28/2022 5:30:00 AM 2.03 35.654 0.085 6.62 2.31 13.5
12/28/2022 5:45:00 AM 2.01 35.618 0.085 6.61 2.28 13.51
12/28/2022 6:00:00 AM 1.97 35.546 0.085 6.62 2.14 13.52
12/28/2022 6:15:00 AM 1.95 35.51 0.085 6.62 2.21 13.54
12/28/2022 6:30:00 AM 1.92 35.456 0.085 6.61 2.33 13.55
12/28/2022 6:45:00 AM 1.89 35.402 0.085 6.61 2.3 13.55
12/28/2022 7:00:00 AM 1.86 35.348 0.085 6.62 2.31 13.57
12/28/2022 7:15:00 AM 1.84 35.312 0.085 6.61 2.31 13.58
12/28/2022 7:30:00 AM 1.8 35.24 0.085 6.62 2.46 13.6
12/28/2022 7:45:00 AM 1.77 35.186 0.085 6.6 2.2 13.62
12/28/2022 8:00:00 AM 1.75 35.15 0.085 6.61 2.28 13.66
12/28/2022 8:15:00 AM 1.74 35.132 0.085 6.63 2.22 13.72
12/28/2022 8:30:00 AM 1.73 35.114 0.085 6.63 2.31 13.8
12/28/2022 8:45:00 AM 1.74 35.132 0.085 6.65 2.3 13.88
12/28/2022 9:00:00 AM 1.74 35.132 0.085 6.66 2.22 13.97
12/28/2022 9:15:00 AM 1.76 35.168 0.085 6.68 2.26 14.06
12/28/2022 9:30:00 AM 1.8 35.24 0.085 6.7 2.27 14.15
12/28/2022 9:45:00 AM 1.82 35.276 0.085 6.71 2.28 14.23
12/28/2022 10:00:00 AM 1.85 35.33 0.085 6.74 2.33 14.29
12/28/2022 10:15:00 AM 1.92 35.456 0.085 6.74 2.15 14.35
12/28/2022 10:30:00 AM 1.97 35.546 0.085 6.78 2.27 14.4
12/28/2022 10:45:00 AM 2.04 35.672 0.084 6.8 2.19 14.43
12/28/2022 11:00:00 AM 2.06 35.708 0.085 6.81 2.44 14.45
12/28/2022 11:15:00 AM 2.16 35.888 0.085 6.83 2.27 14.47
12/28/2022 11:30:00 AM 2.25 36.05 0.084 6.85 2.29 14.48
12/28/2022 11:45:00 AM 2.33 36.194 0.084 6.85 2.23 14.49
12/28/2022 12:00:00 PM 2.44 36.392 0.084 6.88 2.54 14.47
12/28/2022 12:15:00 PM 2.52 36.536 0.084 6.89 2.28 14.46
12/28/2022 12:30:00 PM 2.61 36.698 0.085 6.91 2.27 14.44
12/28/2022 12:45:00 PM 2.73 36.914 0.084 6.92 2.27 14.42
12/28/2022 1:00:00 PM 2.82 37.076 0.084 6.93 2.32 14.38
12/28/2022 1:15:00 PM 2.89 37.202 0.084 6.94 2.28 14.35
12/28/2022 1:30:00 PM 2.95 37.31 0.084 6.94 2.25 14.32
12/28/2022 1:45:00 PM 3.03 37.454 0.084 6.96 2.19 14.28
12/28/2022 2:00:00 PM 3.09 37.562 0.084 6.95 2.27 14.25
12/28/2022 2:15:00 PM 3.11 37.598 0.084 6.97 2.23 14.22
12/28/2022 2:30:00 PM 3.14 37.652 0.084 6.98 2.28 14.19
12/28/2022 2:45:00 PM 3.16 37.688 0.084 6.98 2.76 14.17
12/28/2022 3:00:00 PM 3.16 37.688 0.084 6.98 2.55 14.14
12/28/2022 3:15:00 PM 3.16 37.688 0.084 6.98 2.45 14.12
12/28/2022 3:30:00 PM 3.13 37.634 0.084 6.98 2.5 14.1
12/28/2022 3:45:00 PM 3.11 37.598 0.084 6.98 2.87 14.07
12/28/2022 4:00:00 PM 3.11 37.598 0.084 6.98 3 14.04
12/28/2022 4:15:00 PM 3.1 37.58 0.085 6.97 3.08 13.99
12/28/2022 4:30:00 PM 3.09 37.562 0.085 6.95 2.96 13.92
12/28/2022 4:45:00 PM 3.08 37.544 0.085 6.94 2.9 13.84
12/28/2022 5:00:00 PM 3.06 37.508 0.085 6.92 2.72 13.76
12/28/2022 5:15:00 PM 3.05 37.49 0.085 6.87 2.7 13.68
12/28/2022 5:30:00 PM 3.02 37.436 0.085 6.88 2.74 13.6
12/28/2022 5:45:00 PM 3 37.4 0.085 6.85 2.53 13.52
12/28/2022 6:00:00 PM 2.98 37.364 0.085 6.83 2.39 13.45
12/28/2022 6:15:00 PM 2.95 37.31 0.085 6.8 2.5 13.4
12/28/2022 6:30:00 PM 2.93 37.274 0.086 6.8 2.51 13.36
12/28/2022 6:45:00 PM 2.91 37.238 0.086 6.78 2.51 13.32
12/28/2022 7:00:00 PM 2.89 37.202 0.086 6.77 2.42 13.29
12/28/2022 7:15:00 PM 2.88 37.184 0.086 6.75 2.52 13.27
12/28/2022 7:30:00 PM 2.87 37.166 0.087 6.75 2.49 13.25
12/28/2022 7:45:00 PM 2.86 37.148 0.087 6.73 2.61 13.24
12/28/2022 8:00:00 PM 2.85 37.13 0.087 6.73 2.61 13.23
12/28/2022 8:15:00 PM 2.83 37.094 0.087 6.72 2.6 13.22
12/28/2022 8:30:00 PM 2.81 37.058 0.087 6.69 2.47 13.22
12/28/2022 8:45:00 PM 2.78 37.004 0.088 6.71 2.49 13.22
12/28/2022 9:00:00 PM 2.76 36.968 0.088 6.7 2.53 13.22
12/28/2022 9:15:00 PM 2.73 36.914 0.088 6.68 2.54 13.23
12/28/2022 9:30:00 PM 2.7 36.86 0.087 6.7 2.5 13.23
12/28/2022 9:45:00 PM 2.67 36.806 0.087 6.68 2.53 13.23
12/28/2022 10:00:00 PM 2.64 36.752 0.087 6.69 2.37 13.25
12/28/2022 10:15:00 PM 2.61 36.698 0.087 6.68 2.57 13.25
12/28/2022 10:30:00 PM 2.58 36.644 0.087 6.68 2.57 13.26
12/28/2022 10:45:00 PM 2.55 36.59 0.087 6.65 2.64 13.28
12/28/2022 11:00:00 PM 2.53 36.554 0.087 6.67 2.38 13.28
12/28/2022 11:15:00 PM 2.51 36.518 0.087 6.67 2.43 13.29
12/28/2022 11:30:00 PM 2.48 36.464 0.087 6.67 2.58 13.3
12/28/2022 11:45:00 PM 2.45 36.41 0.087 6.67 2.78 13.31
12/29/2022 12:00:00 AM 2.42 36.356 0.087 6.66 2.64 13.33
12/29/2022 12:15:00 AM 2.4 36.32 0.087 6.66 2.65 13.33
12/29/2022 12:30:00 AM 2.37 36.266 0.087 6.65 2.51 13.34
12/29/2022 12:45:00 AM 2.34 36.212 0.088 6.65 2.42 13.35
12/29/2022 1:00:00 AM 2.32 36.176 0.088 6.65 2.6 13.36
12/29/2022 1:15:00 AM 2.29 36.122 0.087 6.65 2.67 13.37
12/29/2022 1:30:00 AM 2.26 36.068 0.088 6.65 2.51 13.38
12/29/2022 1:45:00 AM 2.22 35.996 0.088 6.62 2.66 13.39
12/29/2022 2:00:00 AM 2.2 35.96 0.088 6.64 2.42 13.41
12/29/2022 2:15:00 AM 2.15 35.87 0.088 6.65 2.74 13.42
12/29/2022 2:30:00 AM 2.12 35.816 0.088 6.64 2.5 13.43
12/29/2022 2:45:00 AM 2.09 35.762 0.088 6.64 2.52 13.45
12/29/2022 3:00:00 AM 2.06 35.708 0.088 6.64 2.42 13.45
12/29/2022 3:15:00 AM 2.02 35.636 0.088 6.64 2.7 13.47
12/29/2022 3:30:00 AM 1.98 35.564 0.088 6.64 2.49 13.49
12/29/2022 3:45:00 AM 1.95 35.51 0.088 6.64 2.73 13.5
12/29/2022 4:00:00 AM 1.91 35.438 0.088 6.64 2.61 13.52
12/29/2022 4:15:00 AM 1.88 35.384 0.088 6.61 2.61 13.53
12/29/2022 4:30:00 AM 1.84 35.312 0.088 6.62 2.52 13.55
12/29/2022 4:45:00 AM 1.8 35.24 0.088 6.63 2.69 13.57
12/29/2022 5:00:00 AM 1.76 35.168 0.089 6.63 2.54 13.58
12/29/2022 5:15:00 AM 1.73 35.114 0.089 6.63 2.46 13.6
12/29/2022 5:30:00 AM 1.69 35.042 0.089 6.63 2.47 13.61
12/29/2022 5:45:00 AM 1.66 34.988 0.089 6.63 2.42 13.62
12/29/2022 6:00:00 AM 1.63 34.934 0.089 6.62 2.4 13.64
12/29/2022 6:15:00 AM 1.59 34.862 0.089 6.6 2.36 13.66
12/29/2022 6:30:00 AM 1.55 34.79 0.089 6.63 2.41 13.67
12/29/2022 6:45:00 AM 1.52 34.736 0.09 6.62 2.4 13.69
12/29/2022 7:00:00 AM 1.48 34.664 0.09 6.62 2.61 13.71
12/29/2022 7:15:00 AM 1.44 34.592 0.09 6.62 2.46 13.72
12/29/2022 7:30:00 AM 1.41 34.538 0.09 6.62 2.26 13.74
12/29/2022 7:45:00 AM 1.37 34.466 0.089 6.62 2.6 13.76
12/29/2022 8:00:00 AM 1.34 34.412 0.089 6.62 2.42 13.81
12/29/2022 8:15:00 AM 1.32 34.376 0.089 6.62 2.39 13.86
12/29/2022 8:30:00 AM 1.29 34.322 0.089 6.62 2.39 13.92
12/29/2022 8:45:00 AM 1.28 34.304 0.089 6.61 2.27 13.99
12/29/2022 9:00:00 AM 1.29 34.322 0.089 6.65 2.5 14.08
12/29/2022 9:15:00 AM 1.31 34.358 0.089 6.66 2.21 14.17
12/29/2022 9:30:00 AM 1.34 34.412 0.089 6.68 2.45 14.24
12/29/2022 9:45:00 AM 1.38 34.484 0.089 6.7 2.27 14.32
12/29/2022 10:00:00 AM 1.43 34.574 0.089 6.71 2.1 14.4
12/29/2022 10:15:00 AM 1.48 34.664 0.089 6.73 2.31 14.48
12/29/2022 10:30:00 AM 1.55 34.79 0.089 6.76 2.32 14.54
12/29/2022 10:45:00 AM 1.63 34.934 0.089 6.77 2.1 14.59
12/29/2022 11:00:00 AM 1.72 35.096 0.089 6.79 2.27 14.62
12/29/2022 11:15:00 AM 1.81 35.258 0.089 6.81 2.15 14.64
12/29/2022 11:30:00 AM 1.9 35.42 0.088 6.83 2.12 14.64
12/29/2022 11:45:00 AM 1.99 35.582 0.089 6.84 2.03 14.64
12/29/2022 12:00:00 PM 2.09 35.762 0.088 6.86 2.07 14.65
12/29/2022 12:15:00 PM 2.18 35.924 0.089 6.87 2.07 14.64
12/29/2022 12:30:00 PM 2.26 36.068 0.088 6.89 2.06 14.63
12/29/2022 12:45:00 PM 2.35 36.23 0.088 6.9 2.19 14.61
12/29/2022 1:00:00 PM 2.42 36.356 0.088 6.91 2.09 14.59
12/29/2022 1:15:00 PM 2.49 36.482 0.088 6.92 2.36 14.57
12/29/2022 1:30:00 PM 2.56 36.608 0.088 6.93 2.38 14.54
12/29/2022 1:45:00 PM 2.63 36.734 0.088 6.95 2.46 14.51
12/29/2022 2:00:00 PM 2.69 36.842 0.089 6.95 2.24 14.49
12/29/2022 2:15:00 PM 2.74 36.932 0.089 6.96 2.47 14.45
12/29/2022 2:30:00 PM 2.78 37.004 0.089 6.96 2.51 14.42
12/29/2022 2:45:00 PM 2.81 37.058 0.089 6.97 2.55 14.39
12/29/2022 3:00:00 PM 2.81 37.058 0.089 6.98 2.71 14.36
12/29/2022 3:15:00 PM 2.82 37.076 0.089 6.98 3.69 14.33
12/29/2022 3:30:00 PM 2.81 37.058 0.089 6.98 2.79 14.28
12/29/2022 3:45:00 PM 2.81 37.058 0.089 6.97 3 14.23
12/29/2022 4:00:00 PM 2.81 37.058 0.089 6.97 2.81 14.2
12/29/2022 4:15:00 PM 2.8 37.04 0.089 6.96 2.53 14.15
12/29/2022 4:30:00 PM 2.79 37.022 0.089 6.94 2.53 14.08
12/29/2022 4:45:00 PM 2.78 37.004 0.089 6.93 2.54 13.99
12/29/2022 5:00:00 PM 2.78 37.004 0.09 6.91 2.51 13.9
12/29/2022 5:15:00 PM 2.79 37.022 0.09 6.89 2.42 13.81
12/29/2022 5:30:00 PM 2.78 37.004 0.09 6.87 2.44 13.73
12/29/2022 5:45:00 PM 2.78 37.004 0.09 6.85 2.5 13.64
12/29/2022 6:00:00 PM 2.77 36.986 0.09 6.83 2.42 13.56
12/29/2022 6:15:00 PM 2.76 36.968 0.09 6.81 2.38 13.5
12/29/2022 6:30:00 PM 2.74 36.932 0.09 6.8 2.53 13.44
12/29/2022 6:45:00 PM 2.73 36.914 0.09 6.79 2.35 13.4
12/29/2022 7:00:00 PM 2.72 36.896 0.091 6.77 2.48 13.37
12/29/2022 7:15:00 PM 2.74 36.932 0.091 6.76 2.47 13.34
12/29/2022 7:30:00 PM 2.75 36.95 0.091 6.76 2.54 13.31
12/29/2022 7:45:00 PM 2.77 36.986 0.091 6.75 2.44 13.29
12/29/2022 8:00:00 PM 2.79 37.022 0.091 6.73 2.4 13.27
12/29/2022 8:15:00 PM 2.81 37.058 0.091 6.73 2.48 13.25
12/29/2022 8:30:00 PM 2.83 37.094 0.091 6.72 2.59 13.24
12/29/2022 8:45:00 PM 2.85 37.13 0.091 6.72 2.31 13.23
12/29/2022 9:00:00 PM 2.86 37.148 0.091 6.71 2.58 13.22
12/29/2022 9:15:00 PM 2.87 37.166 0.091 6.67 3.17 13.21
12/29/2022 9:30:00 PM 2.89 37.202 0.091 6.71 2.41 13.2
12/29/2022 9:45:00 PM 2.9 37.22 0.091 6.7 2.48 13.2
12/29/2022 10:00:00 PM 2.91 37.238 0.091 6.68 2.32 13.19
12/29/2022 10:15:00 PM 2.93 37.274 0.091 6.7 2.25 13.18
12/29/2022 10:30:00 PM 2.94 37.292 0.091 6.69 2.4 13.18
12/29/2022 10:45:00 PM 2.95 37.31 0.091 6.65 2.28 13.18
12/29/2022 11:00:00 PM 2.97 37.346 0.091 6.69 2.54 13.17
12/29/2022 11:15:00 PM 2.99 37.382 0.091 6.68 2.32 13.16
12/29/2022 11:30:00 PM 3.01 37.418 0.09 6.68 2.43 13.15
12/29/2022 11:45:00 PM 3.03 37.454 0.09 6.68 2.28 13.14
12/30/2022 12:00:00 AM 3.06 37.508 0.09 6.66 2.49 13.13
12/30/2022 12:15:00 AM 3.08 37.544 0.09 6.68 2.43 13.12
12/30/2022 12:30:00 AM 3.1 37.58 0.09 6.67 2.47 13.11
12/30/2022 12:45:00 AM 3.12 37.616 0.09 6.67 2.35 13.1
12/30/2022 1:00:00 AM 3.13 37.634 0.09 6.67 2.2 13.1
12/30/2022 1:15:00 AM 3.15 37.67 0.09 6.67 2.48 13.09
12/30/2022 1:30:00 AM 3.16 37.688 0.09 6.67 2.41 13.08
12/30/2022 1:45:00 AM 3.17 37.706 0.09 6.67 2.43 13.07
12/30/2022 2:00:00 AM 3.17 37.706 0.09 6.62 2.52 13.06
12/30/2022 2:15:00 AM 3.19 37.742 0.09 6.66 2.3 13.06
12/30/2022 2:30:00 AM 3.2 37.76 0.09 6.66 2.37 13.06
12/30/2022 2:45:00 AM 3.21 37.778 0.09 6.65 2.57 13.05
12/30/2022 3:00:00 AM 3.22 37.796 0.09 6.66 2.62 13.05
12/30/2022 3:15:00 AM 3.24 37.832 0.09 6.66 2.33 13.04
12/30/2022 3:30:00 AM 3.25 37.85 0.091 6.64 2.49 13.03
12/30/2022 3:45:00 AM 3.26 37.868 0.091 6.66 2.49 13.03
12/30/2022 4:00:00 AM 3.27 37.886 0.091 6.66 2.59 13.02
12/30/2022 4:15:00 AM 3.28 37.904 0.091 6.66 2.39 13.02
12/30/2022 4:30:00 AM 3.29 37.922 0.091 6.63 2.5 13.02
12/30/2022 4:45:00 AM 3.3 37.94 0.091 6.66 2.59 13.01
12/30/2022 5:00:00 AM 3.31 37.958 0.091 6.66 2.43 13.01
12/30/2022 5:15:00 AM 3.31 37.958 0.092 6.66 2.56 13
12/30/2022 5:30:00 AM 3.32 37.976 0.092 6.66 2.63 13
12/30/2022 5:45:00 AM 3.33 37.994 0.092 6.66 2.76 12.99
12/30/2022 6:00:00 AM 3.34 38.012 0.092 6.66 2.49 12.99
12/30/2022 6:15:00 AM 3.36 38.048 0.092 6.66 2.79 12.98
12/30/2022 6:30:00 AM 3.37 38.066 0.093 6.66 2.61 12.96
12/30/2022 6:45:00 AM 3.38 38.084 0.093 6.66 2.57 12.96
12/30/2022 7:00:00 AM 3.39 38.102 0.093 6.66 2.74 12.96
12/30/2022 7:15:00 AM 3.4 38.12 0.093 6.66 2.67 12.95
12/30/2022 7:30:00 AM 3.41 38.138 0.093 6.66 2.61 12.95
12/30/2022 7:45:00 AM 3.42 38.156 0.093 6.67 2.55 12.96
12/30/2022 8:00:00 AM 3.43 38.174 0.093 6.64 2.61 12.96
12/30/2022 8:15:00 AM 3.45 38.21 0.093 6.67 2.63 12.98
12/30/2022 8:30:00 AM 3.47 38.246 0.094 6.65 2.68 13.01
12/30/2022 8:45:00 AM 3.49 38.282 0.094 6.68 2.76 13.05
12/30/2022 9:00:00 AM 3.51 38.318 0.093 6.69 2.73 13.1
12/30/2022 9:15:00 AM 3.54 38.372 0.093 6.7 2.69 13.17
12/30/2022 9:30:00 AM 3.56 38.408 0.093 6.71 2.71 13.22
12/30/2022 9:45:00 AM 3.58 38.444 0.092 6.72 2.71 13.26
12/30/2022 10:00:00 AM 3.61 38.498 0.092 6.74 2.52 13.32
12/30/2022 10:15:00 AM 3.64 38.552 0.092 6.74 2.67 13.37
12/30/2022 10:30:00 AM 3.67 38.606 0.092 6.76 2.59 13.43
12/30/2022 10:45:00 AM 3.7 38.66 0.092 6.78 2.68 13.47
12/30/2022 11:00:00 AM 3.73 38.714 0.092 6.78 2.65 13.51
12/30/2022 11:15:00 AM 3.77 38.786 0.092 6.81 2.57 13.56
12/30/2022 11:30:00 AM 3.82 38.876 0.092 6.83 2.53 13.61
12/30/2022 11:45:00 AM 3.87 38.966 0.092 6.85 2.63 13.67
12/30/2022 12:00:00 PM 3.9 39.02 0.092 6.87 2.68 13.69
12/30/2022 12:15:00 PM 3.95 39.11 0.091 6.89 2.72 13.74
12/30/2022 12:30:00 PM 4.01 39.218 0.091 6.92 2.8 13.8
12/30/2022 12:45:00 PM 4.07 39.326 0.091 6.94 3.02 13.83
12/30/2022 1:00:00 PM 4.13 39.434 0.091 6.97 2.79 13.85
12/30/2022 1:15:00 PM 4.18 39.524 0.091 6.98 2.95 13.87
12/30/2022 1:30:00 PM 4.26 39.668 0.091 7.01 2.9 13.89
12/30/2022 1:45:00 PM 4.35 39.83 0.091 7.04 3.09 13.89
12/30/2022 2:00:00 PM 4.42 39.956 0.092 7.06 3.49 13.88
12/30/2022 2:15:00 PM 4.46 40.028 0.092 7.07 3.13 13.87
12/30/2022 2:30:00 PM 4.51 40.118 0.092 7.09 3.69 13.85
12/30/2022 2:45:00 PM 4.55 40.19 0.092 7.11 3.92 13.84
12/30/2022 3:00:00 PM 4.59 40.262 0.092 7.12 4.06 13.83
12/30/2022 3:15:00 PM 4.61 40.298 0.092 7.11 4.26 13.79
12/30/2022 3:30:00 PM 4.61 40.298 0.092 7.12 4.22 13.74
12/30/2022 3:45:00 PM 4.6 40.28 0.093 7.11 4.47 13.69
12/30/2022 4:00:00 PM 4.58 40.244 0.093 7.09 4.41 13.6
12/30/2022 4:15:00 PM 4.57 40.226 0.093 7.07 4.57 13.52
12/30/2022 4:30:00 PM 4.54 40.172 0.093 7.05 4.55 13.43
12/30/2022 4:45:00 PM 4.51 40.118 0.094 7.02 4.45 13.34
12/30/2022 5:00:00 PM 4.44 39.992 0.094 6.99 4.31 13.25
12/30/2022 5:15:00 PM 4.38 39.884 0.095 6.96 4.51 13.15
12/30/2022 5:30:00 PM 4.33 39.794 0.095 6.94 4.34 13.06
12/30/2022 5:45:00 PM 4.29 39.722 0.095 6.9 4.34 12.97
12/30/2022 6:00:00 PM 4.25 39.65 0.095 6.88 4.45 12.9
12/30/2022 6:15:00 PM 4.22 39.596 0.096 6.85 4.56 12.85
12/30/2022 6:30:00 PM 4.21 39.578 0.096 6.85 4.27 12.8
12/30/2022 6:45:00 PM 4.19 39.542 0.096 6.82 4.41 12.77
12/30/2022 7:00:00 PM 4.17 39.506 0.096 6.81 4.47 12.74
12/30/2022 7:15:00 PM 4.15 39.47 0.096 6.8 4.45 12.73
12/30/2022 7:30:00 PM 4.12 39.416 0.096 6.79 4.36 12.71
12/30/2022 7:45:00 PM 4.09 39.362 0.096 6.78 4.37 12.7
12/30/2022 8:00:00 PM 4.06 39.308 0.096 6.77 4.46 12.7
12/30/2022 8:15:00 PM 4.03 39.254 0.096 6.77 4.43 12.7
12/30/2022 8:30:00 PM 3.99 39.182 0.096 6.75 4.48 12.71
12/30/2022 8:45:00 PM 3.97 39.146 0.096 6.75 4.5 12.7
12/30/2022 9:00:00 PM 3.94 39.092 0.096 6.73 4.54 12.71
12/30/2022 9:15:00 PM 3.91 39.038 0.096 6.74 4.2 12.71
12/30/2022 9:30:00 PM 3.88 38.984 0.096 6.73 4.28 12.72
12/30/2022 9:45:00 PM 3.86 38.948 0.096 6.73 4.29 12.72
12/30/2022 10:00:00 PM 3.84 38.912 0.096 6.72 4.5 12.73
12/30/2022 10:15:00 PM 3.81 38.858 0.096 6.7 4.55 12.74
12/30/2022 10:30:00 PM 3.79 38.822 0.096 6.72 4.2 12.75
12/30/2022 10:45:00 PM 3.77 38.786 0.096 6.71 4.29 12.76
12/30/2022 11:00:00 PM 3.74 38.732 0.096 6.71 4.18 12.77
12/30/2022 11:15:00 PM 3.72 38.696 0.096 6.69 4.21 12.78
12/30/2022 11:30:00 PM 3.69 38.642 0.096 6.71 4.34 12.79
12/30/2022 11:45:00 PM 3.68 38.624 0.095 6.7 4.15 12.8
12/31/2022 12:00:00 AM 3.65 38.57 0.096 6.7 4.12 12.8
12/31/2022 12:15:00 AM 3.63 38.534 0.096 6.7 4.27 12.81
12/31/2022 12:30:00 AM 3.62 38.516 0.096 6.69 4.31 12.81
12/31/2022 12:45:00 AM 3.61 38.498 0.096 6.69 4.34 12.82
12/31/2022 1:00:00 AM 3.59 38.462 0.096 6.68 4.63 12.82
12/31/2022 1:15:00 AM 3.58 38.444 0.096 6.7 4.72 12.82
12/31/2022 1:30:00 AM 3.57 38.426 0.096 6.69 5.04 12.82
12/31/2022 1:45:00 AM 3.56 38.408 0.097 6.69 5.6 12.82
12/31/2022 2:00:00 AM 3.55 38.39 0.097 6.65 6.03 12.82
12/31/2022 2:15:00 AM 3.54 38.372 0.098 6.69 6.92 12.82
12/31/2022 2:30:00 AM 3.52 38.336 0.098 6.69 7.57 12.81
12/31/2022 2:45:00 AM 3.52 38.336 0.098 6.68 8.2 12.81
12/31/2022 3:00:00 AM 3.51 38.318 0.099 6.69 8.95 12.81
12/31/2022 3:15:00 AM 3.51 38.318 0.099 6.66 9.12 12.8
12/31/2022 3:30:00 AM 3.5 38.3 0.1 6.69 10.43 12.81
12/31/2022 3:45:00 AM 3.49 38.282 0.1 6.69 10.55 12.81
12/31/2022 4:00:00 AM 3.48 38.264 0.101 6.69 11.45 12.8
12/31/2022 4:15:00 AM 3.48 38.264 0.101 6.69 10.61 12.8
12/31/2022 4:30:00 AM 3.48 38.264 0.101 6.69 11.23 12.8
12/31/2022 4:45:00 AM 3.47 38.246 0.101 6.68 10.19 12.8
12/31/2022 5:00:00 AM 3.47 38.246 0.101 6.69 9.89 12.81
12/31/2022 5:15:00 AM 3.47 38.246 0.101 6.69 9.7 12.81
12/31/2022 5:30:00 AM 3.48 38.264 0.101 6.69 8.14 12.81
12/31/2022 5:45:00 AM 3.48 38.264 0.101 6.69 7.4 12.81
12/31/2022 6:00:00 AM 3.48 38.264 0.101 6.69 7.04 12.81
12/31/2022 6:15:00 AM 3.48 38.264 0.101 6.67 6.12 12.81
12/31/2022 6:30:00 AM 3.47 38.246 0.1 6.69 5.49 12.81
12/31/2022 6:45:00 AM 3.47 38.246 0.1 6.69 5.9 12.81
12/31/2022 7:00:00 AM 3.47 38.246 0.1 6.69 5.57 12.81
12/31/2022 7:15:00 AM 3.47 38.246 0.1 6.69 5.2 12.81
12/31/2022 7:30:00 AM 3.47 38.246 0.1 6.69 5.04 12.82
12/31/2022 7:45:00 AM 3.48 38.264 0.099 6.69 4.91 12.82
12/31/2022 8:00:00 AM 3.49 38.282 0.1 6.68 4.55 12.82
12/31/2022 8:15:00 AM 3.5 38.3 0.099 6.69 4.91 12.83
12/31/2022 8:30:00 AM 3.51 38.318 0.099 6.69 4.57 12.86
12/31/2022 8:45:00 AM 3.52 38.336 0.1 6.69 4.25 12.88
12/31/2022 9:00:00 AM 3.54 38.372 0.099 6.7 4.16 12.96
12/31/2022 9:15:00 AM 3.56 38.408 0.099 6.71 4.15 13.02
12/31/2022 9:30:00 AM 3.59 38.462 0.099 6.73 4.17 13.1
12/31/2022 9:45:00 AM 3.62 38.516 0.099 6.75 3.95 13.2
12/31/2022 10:00:00 AM 3.65 38.57 0.099 6.77 4.3 13.29
12/31/2022 10:15:00 AM 3.69 38.642 0.099 6.79 4.1 13.38
12/31/2022 10:30:00 AM 3.74 38.732 0.099 6.82 4.2 13.48
12/31/2022 10:45:00 AM 3.79 38.822 0.099 6.85 3.88 13.57
12/31/2022 11:00:00 AM 3.84 38.912 0.099 6.87 3.85 13.63
12/31/2022 11:15:00 AM 3.89 39.002 0.099 6.9 4.16 13.68
12/31/2022 11:30:00 AM 3.94 39.092 0.099 6.93 4.13 13.72
12/31/2022 11:45:00 AM 4.01 39.218 0.099 6.96 3.81 13.77
12/31/2022 12:00:00 PM 4.05 39.29 0.099 6.99 3.78 13.78
12/31/2022 12:15:00 PM 4.1 39.38 0.098 7 3.97 13.77
12/31/2022 12:30:00 PM 4.16 39.488 0.098 7.02 4.02 13.78
12/31/2022 12:45:00 PM 4.19 39.542 0.098 7.04 3.87 13.75
12/31/2022 1:00:00 PM 4.23 39.614 0.097 7.05 4.02 13.73
12/31/2022 1:15:00 PM 4.27 39.686 0.097 7.05 3.95 13.69
12/31/2022 1:30:00 PM 4.3 39.74 0.097 7.04 3.83 13.62
12/31/2022 1:45:00 PM 4.33 39.794 0.096 7.05 4.18 13.57
12/31/2022 2:00:00 PM 4.36 39.848 0.096 7.04 4.03 13.52
12/31/2022 2:15:00 PM 4.39 39.902 0.096 7.03 3.96 13.44
12/31/2022 2:30:00 PM 4.41 39.938 0.096 7.01 3.76 13.39
12/31/2022 2:45:00 PM 4.43 39.974 0.095 7.01 3.9 13.34
12/31/2022 3:00:00 PM 4.45 40.01 0.095 7 3.95 13.29
12/31/2022 3:15:00 PM 4.47 40.046 0.095 6.99 4.07 13.24
12/31/2022 3:30:00 PM 4.48 40.064 0.095 6.98 3.79 13.17
12/31/2022 3:45:00 PM 4.49 40.082 0.095 6.96 4.05 13.11
12/31/2022 4:00:00 PM 4.5 40.1 0.094 6.95 4.16 13.04
12/31/2022 4:15:00 PM 4.5 40.1 0.094 6.93 4.13 12.97
12/31/2022 4:30:00 PM 4.5 40.1 0.094 6.9 4.18 12.89
12/31/2022 4:45:00 PM 4.5 40.1 0.094 6.89 4.23 12.82
12/31/2022 5:00:00 PM 4.49 40.082 0.094 6.87 4.93 12.76
12/31/2022 5:15:00 PM 4.48 40.064 0.094 6.85 6.5 12.7
12/31/2022 5:30:00 PM 4.47 40.046 0.094 6.83 8.38 12.65
12/31/2022 5:45:00 PM 4.45 40.01 0.094 6.82 8.66 12.6
12/31/2022 6:00:00 PM 4.43 39.974 0.094 6.8 8.67 12.57
12/31/2022 6:15:00 PM 4.41 39.938 0.095 6.79 8.62 12.55
12/31/2022 6:30:00 PM 4.39 39.902 0.095 6.76 8.35 12.53
12/31/2022 6:45:00 PM 4.38 39.884 0.094 6.76 7.57 12.52
12/31/2022 7:00:00 PM 4.38 39.884 0.094 6.75 7.19 12.51
12/31/2022 7:15:00 PM 4.37 39.866 0.094 6.74 7.24 12.49
12/31/2022 7:30:00 PM 4.37 39.866 0.094 6.73 7.01 12.48
12/31/2022 7:45:00 PM 4.35 39.83 0.095 6.73 7.1 12.48
12/31/2022 8:00:00 PM 4.36 39.848 0.096 6.72 7.35 12.47
12/31/2022 8:15:00 PM 4.36 39.848 0.096 6.71 7.19 12.47
12/31/2022 8:30:00 PM 4.37 39.866 0.097 6.71 7.2 12.46
12/31/2022 8:45:00 PM 4.38 39.884 0.098 6.71 7.2 12.45
12/31/2022 9:00:00 PM 4.4 39.92 0.098 6.7 7.42 12.45
12/31/2022 9:15:00 PM 4.41 39.938 0.098 6.7 7.65 12.44
12/31/2022 9:30:00 PM 4.42 39.956 0.098 6.7 8.15 12.44
12/31/2022 9:45:00 PM 4.42 39.956 0.097 6.68 7.77 12.43
12/31/2022 10:00:00 PM 4.43 39.974 0.097 6.69 7.74 12.43
12/31/2022 10:15:00 PM 4.44 39.992 0.096 6.68 8.08 12.42
12/31/2022 10:30:00 PM 4.44 39.992 0.096 6.68 8.44 12.43
12/31/2022 10:45:00 PM 4.45 40.01 0.096 6.68 7.82 12.42
12/31/2022 11:00:00 PM 4.46 40.028 0.095 6.67 8.41 12.42
12/31/2022 11:15:00 PM 4.46 40.028 0.095 6.68 8.07 12.41
12/31/2022 11:30:00 PM 4.46 40.028 0.095 6.67 8.06 12.42
12/31/2022 11:45:00 PM 4.46 40.028 0.095 6.67 7.76 12.41
1/1/2023 12:00:00 AM 4.46 40.028 0.095 6.67 8.05 12.42
1/1/2023 12:15:00 AM 4.44 39.992 0.095 6.66 7.77 12.42
1/1/2023 12:30:00 AM 4.44 39.992 0.094 6.66 7.81 12.42
1/1/2023 12:45:00 AM 4.43 39.974 0.094 6.66 7.92 12.43
1/1/2023 1:00:00 AM 4.43 39.974 0.094 6.66 7.82 12.43
1/1/2023 1:15:00 AM 4.42 39.956 0.094 6.66 8.06 12.43
1/1/2023 1:30:00 AM 4.41 39.938 0.094 6.64 7.72 12.44
1/1/2023 1:45:00 AM 4.41 39.938 0.093 6.64 7.74 12.43
1/1/2023 2:00:00 AM 4.39 39.902 0.093 6.65 7.87 12.44
1/1/2023 2:15:00 AM 4.38 39.884 0.093 6.65 7.47 12.44
1/1/2023 2:30:00 AM 4.37 39.866 0.093 6.65 7.5 12.45
1/1/2023 2:45:00 AM 4.36 39.848 0.093 6.66 7.66 12.45
1/1/2023 3:00:00 AM 4.36 39.848 0.092 6.66 7.6 12.45
1/1/2023 3:15:00 AM 4.35 39.83 0.093 6.66 7.41 12.46
1/1/2023 3:30:00 AM 4.33 39.794 0.092 6.67 7.78 12.47
1/1/2023 3:45:00 AM 4.32 39.776 0.092 6.66 8.11 12.47
1/1/2023 4:00:00 AM 4.31 39.758 0.092 6.66 8.12 12.47
1/1/2023 4:15:00 AM 4.3 39.74 0.093 6.66 7.67 12.49
1/1/2023 4:30:00 AM 4.29 39.722 0.092 6.67 7.89 12.49
1/1/2023 4:45:00 AM 4.28 39.704 0.092 6.68 8.17 12.5
1/1/2023 5:00:00 AM 4.28 39.704 0.092 6.66 8.04 12.5
1/1/2023 5:15:00 AM 4.29 39.722 0.092 6.67 7.92 12.5
1/1/2023 5:30:00 AM 4.28 39.704 0.092 6.66 8.15 12.51
1/1/2023 5:45:00 AM 4.29 39.722 0.092 6.67 8.02 12.51
1/1/2023 6:00:00 AM 4.29 39.722 0.092 6.67 8.16 12.51
1/1/2023 6:15:00 AM 4.29 39.722 0.092 6.69 7.8 12.51
1/1/2023 6:30:00 AM 4.29 39.722 0.092 6.67 8.1 12.52
1/1/2023 6:45:00 AM 4.3 39.74 0.092 6.67 8.42 12.52
1/1/2023 7:00:00 AM 4.3 39.74 0.092 6.68 8.43 12.53
1/1/2023 7:15:00 AM 4.32 39.776 0.092 6.68 8.64 12.53
1/1/2023 7:30:00 AM 4.33 39.794 0.092 6.68 8.33 12.54
1/1/2023 7:45:00 AM 4.35 39.83 0.092 6.69 8.89 12.54
1/1/2023 8:00:00 AM 4.37 39.866 0.092 6.68 8.96 12.54
1/1/2023 8:15:00 AM 4.4 39.92 0.092 6.68 8.87 12.55
1/1/2023 8:30:00 AM 4.43 39.974 0.091 6.7 9.56 12.57
1/1/2023 8:45:00 AM 4.47 40.046 0.091 6.66 8.71 12.61
1/1/2023 9:00:00 AM 4.51 40.118 0.09 6.72 9.13 12.65
1/1/2023 9:15:00 AM 4.55 40.19 0.09 6.72 8.65 12.7
1/1/2023 9:30:00 AM 4.59 40.262 0.09 6.74 9.22 12.77
1/1/2023 9:45:00 AM 4.64 40.352 0.089 6.76 9.49 12.84
1/1/2023 10:00:00 AM 4.69 40.442 0.089 6.76 9.39 12.91
1/1/2023 10:15:00 AM 4.75 40.55 0.088 6.79 9.02 12.99
1/1/2023 10:30:00 AM 4.83 40.694 0.088 6.83 9.36 13.06
1/1/2023 10:45:00 AM 4.92 40.856 0.088 6.85 8.54 13.11
1/1/2023 11:00:00 AM 4.98 40.964 0.088 6.87 8.61 13.14
1/1/2023 11:15:00 AM 5.08 41.144 0.088 6.9 8.69 13.18
1/1/2023 11:30:00 AM 5.17 41.306 0.087 6.93 9.01 13.22
1/1/2023 11:45:00 AM 5.28 41.504 0.087 6.95 8.79 13.26
1/1/2023 12:00:00 PM 5.36 41.648 0.087 6.98 8.92 13.26
1/1/2023 12:15:00 PM 5.37 41.666 0.087 7 9.28 13.24
1/1/2023 12:30:00 PM 5.39 41.702 0.087 6.99 9.53 13.22
1/1/2023 12:45:00 PM 5.41 41.738 0.087 7.01 9.07 13.2
1/1/2023 1:00:00 PM 5.4 41.72 0.087 7.01 9.25 13.17
1/1/2023 1:15:00 PM 5.39 41.702 0.087 6.99 9.74 13.12
1/1/2023 1:30:00 PM 5.41 41.738 0.087 7 9.64 13.1
1/1/2023 1:45:00 PM 5.46 41.828 0.086 7 9.83 13.09
1/1/2023 2:00:00 PM 5.49 41.882 0.086 7.01 10.3 13.07
1/1/2023 2:15:00 PM 5.52 41.936 0.086 7.01 9.71 13.06
1/1/2023 2:30:00 PM 5.54 41.972 0.086 7.03 9.51 13.05
1/1/2023 2:45:00 PM 5.55 41.99 0.086 7.01 9.29 13.02
1/1/2023 3:00:00 PM 5.57 42.026 0.086 7.04 9.34 13.01
1/1/2023 3:15:00 PM 5.61 42.098 0.085 7.02 9.42 12.98
1/1/2023 3:30:00 PM 5.65 42.17 0.085 6.99 9.65 12.94
1/1/2023 3:45:00 PM 5.68 42.224 0.085 6.99 9.79 12.87
1/1/2023 4:00:00 PM 5.67 42.206 0.084 6.93 10.15 12.77
1/1/2023 4:15:00 PM 5.66 42.188 0.084 6.92 9.88 12.7
1/1/2023 4:30:00 PM 5.66 42.188 0.084 6.92 10.13 12.62
1/1/2023 4:45:00 PM 5.65 42.17 0.084 6.9 9.94 12.56
1/1/2023 5:00:00 PM 5.65 42.17 0.083 6.87 10.33 12.48
1/1/2023 5:15:00 PM 5.65 42.17 0.083 6.83 10.57 12.41
1/1/2023 5:30:00 PM 5.65 42.17 0.083 6.81 10.79 12.35
1/1/2023 5:45:00 PM 5.65 42.17 0.082 6.79 10.99 12.29
1/1/2023 6:00:00 PM 5.67 42.206 0.082 6.73 10.89 12.25
1/1/2023 6:15:00 PM 5.68 42.224 0.082 6.76 11.39 12.22
1/1/2023 6:30:00 PM 5.7 42.26 0.082 6.74 11.61 12.19
1/1/2023 6:45:00 PM 5.71 42.278 0.081 6.73 11.71 12.17
1/1/2023 7:00:00 PM 5.72 42.296 0.081 6.69 11.94 12.15
1/1/2023 7:15:00 PM 5.73 42.314 0.081 6.71 12.31 12.14
1/1/2023 7:30:00 PM 5.74 42.332 0.081 6.7 13.12 12.12
1/1/2023 7:45:00 PM 5.75 42.35 0.081 6.67 12.97 12.11
1/1/2023 8:00:00 PM 5.76 42.368 0.082 6.65 13.47 12.1
1/1/2023 8:15:00 PM 5.76 42.368 0.082 6.65 13.23 12.1
1/1/2023 8:30:00 PM 5.78 42.404 0.082 6.67 13.29 12.09
1/1/2023 8:45:00 PM 5.78 42.404 0.082 6.68 13.7 12.09
1/1/2023 9:00:00 PM 5.78 42.404 0.083 6.68 13.71 12.09
1/1/2023 9:15:00 PM 5.79 42.422 0.083 6.65 14.2 12.08
1/1/2023 9:30:00 PM 5.79 42.422 0.083 6.67 14.08 12.09
1/1/2023 9:45:00 PM 5.79 42.422 0.083 6.66 14.2 12.08
1/1/2023 10:00:00 PM 5.79 42.422 0.083 6.67 13.86 12.08
1/1/2023 10:15:00 PM 5.79 42.422 0.083 6.65 13.84 12.08
1/1/2023 10:30:00 PM 5.79 42.422 0.083 6.65 13.8 12.09
1/1/2023 10:45:00 PM 5.78 42.404 0.084 6.65 13.72 12.09
1/1/2023 11:00:00 PM 5.78 42.404 0.084 6.65 13.82 12.09
1/1/2023 11:15:00 PM 5.78 42.404 0.084 6.66 13.71 12.09
1/1/2023 11:30:00 PM 5.77 42.386 0.085 6.66 13.78 12.09
1/1/2023 11:45:00 PM 5.77 42.386 0.085 6.67 13.86 12.1
1/2/2023 12:00:00 AM 5.76 42.368 0.085 6.65 13.69 12.1
1/2/2023 12:15:00 AM 5.75 42.35 0.085 6.66 14.08 12.11
1/2/2023 12:30:00 AM 5.74 42.332 0.084 6.66 13.92 12.11
1/2/2023 12:45:00 AM 5.74 42.332 0.084 6.65 14.18 12.11
1/2/2023 1:00:00 AM 5.73 42.314 0.084 6.65 14.72 12.11
1/2/2023 1:15:00 AM 5.72 42.296 0.083 6.61 13.69 12.11
1/2/2023 1:30:00 AM 5.72 42.296 0.083 6.63 14.08 12.12
1/2/2023 1:45:00 AM 5.71 42.278 0.082 6.64 14.04 12.13
1/2/2023 2:00:00 AM 5.71 42.278 0.082 6.63 13.57 12.13
1/2/2023 2:15:00 AM 5.7 42.26 0.081 6.64 13.39 12.13
1/2/2023 2:30:00 AM 5.7 42.26 0.081 6.63 12.48 12.14
1/2/2023 2:45:00 AM 5.7 42.26 0.081 6.63 13.02 12.14
1/2/2023 3:00:00 AM 5.69 42.242 0.081 6.62 12.65 12.14
1/2/2023 3:15:00 AM 5.7 42.26 0.081 6.62 13.29 12.14
1/2/2023 3:30:00 AM 5.7 42.26 0.08 6.63 12.84 12.14
1/2/2023 3:45:00 AM 5.71 42.278 0.08 6.61 12.88 12.14
1/2/2023 4:00:00 AM 5.71 42.278 0.08 6.62 12.51 12.14
1/2/2023 4:15:00 AM 5.71 42.278 0.08 6.62 12.93 12.14
1/2/2023 4:30:00 AM 5.72 42.296 0.08 6.61 12.68 12.14
1/2/2023 4:45:00 AM 5.72 42.296 0.08 6.61 13.01 12.14
1/2/2023 5:00:00 AM 5.71 42.278 0.08 6.59 12.58 12.13
1/2/2023 5:15:00 AM 5.71 42.278 0.079 6.62 12.56 12.14
1/2/2023 5:30:00 AM 5.71 42.278 0.079 6.6 12.55 12.14
1/2/2023 5:45:00 AM 5.71 42.278 0.079 6.62 12.25 12.14
1/2/2023 6:00:00 AM 5.71 42.278 0.079 6.6 12.45 12.14
1/2/2023 6:15:00 AM 5.72 42.296 0.079 6.59 12.55 12.14
1/2/2023 6:30:00 AM 5.73 42.314 0.079 6.61 12.02 12.14
1/2/2023 6:45:00 AM 5.74 42.332 0.079 6.61 11.9 12.14
1/2/2023 7:00:00 AM 5.75 42.35 0.079 6.59 12.08 12.14
1/2/2023 7:15:00 AM 5.76 42.368 0.079 6.61 11.81 12.14
1/2/2023 7:30:00 AM 5.76 42.368 0.079 6.61 11.89 12.14
1/2/2023 7:45:00 AM 5.77 42.386 0.079 6.59 11.61 12.14
1/2/2023 8:00:00 AM 5.78 42.404 0.079 6.59 11.56 12.14
1/2/2023 8:15:00 AM 5.79 42.422 0.079 6.6 10.98 12.14
1/2/2023 8:30:00 AM 5.79 42.422 0.079 6.54 10.92 12.15
1/2/2023 8:45:00 AM 5.8 42.44 0.079 6.47 10.86 12.16
1/2/2023 9:00:00 AM 5.82 42.476 0.078 6.58 10.81 12.18
1/2/2023 9:15:00 AM 5.84 42.512 0.078 6.63 10.58 12.2
1/2/2023 9:30:00 AM 5.86 42.548 0.078 6.59 10.32 12.24
1/2/2023 9:45:00 AM 5.88 42.584 0.078 6.64 10.01 12.27
1/2/2023 10:00:00 AM 5.9 42.62 0.078 6.63 9.93 12.29
1/2/2023 10:15:00 AM 5.92 42.656 0.078 6.64 10.12 12.31
1/2/2023 10:30:00 AM 5.94 42.692 0.078 6.66 9.63 12.33
1/2/2023 10:45:00 AM 5.96 42.728 0.078 6.67 9.36 12.33
1/2/2023 11:00:00 AM 5.99 42.782 0.078 6.65 9.36 12.35
1/2/2023 11:15:00 AM 6.01 42.818 0.077 6.69 9.68 12.37
1/2/2023 11:30:00 AM 6.04 42.872 0.077 6.71 9.17 12.38
1/2/2023 11:45:00 AM 6.07 42.926 0.077 6.72 9.18 12.4
1/2/2023 12:00:00 PM 6.11 42.998 0.077 6.73 8.74 12.43
1/2/2023 12:15:00 PM 6.15 43.07 0.077 6.73 8.83 12.45
1/2/2023 12:30:00 PM 6.18 43.124 0.077 6.74 8.72 12.47
1/2/2023 12:45:00 PM 6.21 43.178 0.077 6.72 8.87 12.47
1/2/2023 1:00:00 PM 6.24 43.232 0.077 6.75 8.89 12.47
1/2/2023 1:15:00 PM 6.27 43.286 0.077 6.72 8.54 12.44
1/2/2023 1:30:00 PM 6.29 43.322 0.077 6.74 8.66 12.4
1/2/2023 1:45:00 PM 6.32 43.376 0.077 6.73 8.85 12.37
1/2/2023 2:00:00 PM 6.34 43.412 0.077 6.72 8.87 12.33
1/2/2023 2:15:00 PM 6.36 43.448 0.077 6.71 8.82 12.3
1/2/2023 2:30:00 PM 6.39 43.502 0.077 6.72 8.68 12.27
1/2/2023 2:45:00 PM 6.41 43.538 0.077 6.71 8.94 12.24
1/2/2023 3:00:00 PM 6.43 43.574 0.077 6.7 8.62 12.22
1/2/2023 3:15:00 PM 6.45 43.61 0.077 6.69 8.55 12.2
1/2/2023 3:30:00 PM 6.48 43.664 0.077 6.69 8.51 12.17
1/2/2023 3:45:00 PM 6.5 43.7 0.076 6.7 8.77 12.15
1/2/2023 4:00:00 PM 6.52 43.736 0.077 6.69 9.25 12.12
1/2/2023 4:15:00 PM 6.53 43.754 0.077 6.67 9.27 12.1
1/2/2023 4:30:00 PM 6.55 43.79 0.077 6.62 9.11 12.06
1/2/2023 4:45:00 PM 6.56 43.808 0.077 6.68 9.48 12.03
1/2/2023 5:00:00 PM 6.58 43.844 0.077 6.66 10.09 12
1/2/2023 5:15:00 PM 6.59 43.862 0.077 6.65 10.43 11.97
1/2/2023 5:30:00 PM 6.6 43.88 0.077 6.65 9.99 11.95
1/2/2023 5:45:00 PM 6.61 43.898 0.077 6.63 10.23 11.93
1/2/2023 6:00:00 PM 6.62 43.916 0.077 6.64 10.5 11.91
1/2/2023 6:15:00 PM 6.63 43.934 0.077 6.63 10.81 11.9
1/2/2023 6:30:00 PM 6.64 43.952 0.077 6.62 11.07 11.89
1/2/2023 6:45:00 PM 6.65 43.97 0.078 6.63 10.9 11.89
1/2/2023 7:00:00 PM 6.65 43.97 0.078 6.62 10.57 11.88
1/2/2023 7:15:00 PM 6.66 43.988 0.078 6.61 11.1 11.87
1/2/2023 7:30:00 PM 6.67 44.006 0.078 6.61 11.2 11.87
1/2/2023 7:45:00 PM 6.68 44.024 0.078 6.61 11.38 11.86
1/2/2023 8:00:00 PM 6.68 44.024 0.078 6.62 11.78 11.86
1/2/2023 8:15:00 PM 6.68 44.024 0.078 6.61 11.95 11.86
1/2/2023 8:30:00 PM 6.68 44.024 0.078 6.62 11.9 11.86
1/2/2023 8:45:00 PM 6.68 44.024 0.078 6.6 11.92 11.86
1/2/2023 9:00:00 PM 6.69 44.042 0.078 6.62 12.09 11.86
1/2/2023 9:15:00 PM 6.69 44.042 0.079 6.61 11.7 11.85
1/2/2023 9:30:00 PM 6.69 44.042 0.079 6.6 11.64 11.85
1/2/2023 9:45:00 PM 6.69 44.042 0.079 6.59 11.76 11.85
1/2/2023 10:00:00 PM 6.69 44.042 0.079 6.61 13.55 11.85
1/2/2023 10:15:00 PM 6.69 44.042 0.079 6.6 14.61 11.85
1/2/2023 10:30:00 PM 6.68 44.024 0.079 6.6 15.48 11.85
1/2/2023 10:45:00 PM 6.68 44.024 0.079 6.59 15.7 11.85
1/2/2023 11:00:00 PM 6.68 44.024 0.079 6.59 14.13 11.85
1/2/2023 11:15:00 PM 6.68 44.024 0.079 6.61 13.96 11.84
1/2/2023 11:30:00 PM 6.67 44.006 0.08 6.6 12.49 11.85
1/2/2023 11:45:00 PM 6.66 43.988 0.08 6.6 12.13 11.85
1/3/2023 12:00:00 AM 6.66 43.988 0.08 6.6 11.93 11.85
1/3/2023 12:15:00 AM 6.66 43.988 0.08 6.58 12.02 11.85
1/3/2023 12:30:00 AM 6.66 43.988 0.08 6.59 11.39 11.85
1/3/2023 12:45:00 AM 6.65 43.97 0.08 6.6 11.41 11.84
1/3/2023 1:00:00 AM 6.65 43.97 0.08 6.59 11.26 11.85
1/3/2023 1:15:00 AM 6.65 43.97 0.08 6.6 11.34 11.85
1/3/2023 1:30:00 AM 6.64 43.952 0.08 6.59 11.72 11.85
1/3/2023 1:45:00 AM 6.64 43.952 0.08 6.61 11.12 11.85
1/3/2023 2:00:00 AM 6.64 43.952 0.08 6.61 11.16 11.84
1/3/2023 2:15:00 AM 6.64 43.952 0.08 6.6 11.01 11.85
1/3/2023 2:30:00 AM 6.64 43.952 0.08 6.63 10.65 11.84
1/3/2023 2:45:00 AM 6.63 43.934 0.08 6.62 10.64 11.85
1/3/2023 3:00:00 AM 6.63 43.934 0.08 6.63 10.1 11.85
1/3/2023 3:15:00 AM 6.63 43.934 0.08 6.63 10.39 11.85
1/3/2023 3:30:00 AM 6.64 43.952 0.08 6.63 9.79 11.84
1/3/2023 3:45:00 AM 6.63 43.934 0.08 6.63 9.96 11.85
1/3/2023 4:00:00 AM 6.64 43.952 0.08 6.63 9.89 11.85
1/3/2023 4:15:00 AM 6.64 43.952 0.08 6.62 9.44 11.84
1/3/2023 4:30:00 AM 6.64 43.952 0.08 6.61 9.51 11.84
1/3/2023 4:45:00 AM 6.64 43.952 0.08 6.62 8.88 11.84
1/3/2023 5:00:00 AM 6.64 43.952 0.08 6.61 9.07 11.83
1/3/2023 5:15:00 AM 6.64 43.952 0.08 6.6 9.25 11.83
1/3/2023 5:30:00 AM 6.65 43.97 0.08 6.6 8.75 11.83
1/3/2023 5:45:00 AM 6.65 43.97 0.08 6.6 8.55 11.83
1/3/2023 6:00:00 AM 6.65 43.97 0.08 6.6 8.41 11.82
1/3/2023 6:15:00 AM 6.65 43.97 0.08 6.6 8.72 11.82
1/3/2023 6:30:00 AM 6.66 43.988 0.08 6.61 8.69 11.82
1/3/2023 6:45:00 AM 6.66 43.988 0.08 6.58 8.77 11.82
1/3/2023 7:00:00 AM 6.66 43.988 0.08 6.59 8.73 11.81
1/3/2023 7:15:00 AM 6.67 44.006 0.08 6.59 8.85 11.81
1/3/2023 7:30:00 AM 6.67 44.006 0.08 6.58 8.86 11.81
1/3/2023 7:45:00 AM 6.67 44.006 0.08 6.58 8.59 11.81
1/3/2023 8:00:00 AM 6.67 44.006 0.08 6.56 8.53 11.81
1/3/2023 8:15:00 AM 6.65 43.97 0.08 6.58 9.26 11.82
1/3/2023 8:30:00 AM 6.61 43.898 0.08 6.57 15.02 11.82
1/3/2023 8:45:00 AM 6.54 43.772 0.081 6.59 39.27 11.85
1/3/2023 9:00:00 AM 6.39 43.502 0.082 6.59 53.6 11.87
1/3/2023 9:15:00 AM 6.27 43.286 0.082 6.59 55.13 11.92
1/3/2023 9:30:00 AM 6.09 42.962 0.085 6.55 72.17 11.96
1/3/2023 9:45:00 AM 5.95 42.71 0.09 6.58 74.46 11.98
1/3/2023 10:00:00 AM 5.8 42.44 0.095 6.57 83.18 12.01
1/3/2023 10:15:00 AM 5.76 42.368 0.092 6.57 84.55 12.02
1/3/2023 10:30:00 AM 5.78 42.404 0.092 6.6 77.47 12.05
1/3/2023 10:45:00 AM 5.78 42.404 0.09 6.61 75.33 12.05
1/3/2023 11:00:00 AM 5.82 42.476 0.088 6.62 70.63 12.03
1/3/2023 11:15:00 AM 5.87 42.566 0.088 6.63 74.62 12.04
1/3/2023 11:30:00 AM 5.94 42.692 0.088 6.64 78.53 12.02
1/3/2023 11:45:00 AM 5.99 42.782 0.088 6.63 85.38 12.01
1/3/2023 12:00:00 PM 6.04 42.872 0.087 6.61 94.09 11.99
1/3/2023 12:15:00 PM 6.06 42.908 0.087 6.62 105.63 11.99
1/3/2023 12:30:00 PM 6.08 42.944 0.086 6.63 109.91 11.98
1/3/2023 12:45:00 PM 6.09 42.962 0.085 6.6 109.02 11.99
1/3/2023 1:00:00 PM 6.13 43.034 0.084 6.61 101.94 11.98
1/3/2023 1:15:00 PM 6.15 43.07 0.084 6.62 116.89 11.98
1/3/2023 1:30:00 PM 6.18 43.124 0.083 6.63 127.05 11.97
1/3/2023 1:45:00 PM 6.18 43.124 0.083 6.65 135.85 11.97
1/3/2023 2:00:00 PM 6.17 43.106 0.085 6.61 131.34 11.96
1/3/2023 2:15:00 PM 6.17 43.106 0.085 6.6 147.64 11.96
1/3/2023 2:30:00 PM 6.17 43.106 0.086 6.62 151.69 11.95
1/3/2023 2:45:00 PM 6.17 43.106 0.087 6.63 141.29 11.94
1/3/2023 3:00:00 PM 6.18 43.124 0.087 6.6 129.49 11.94
1/3/2023 3:15:00 PM 6.2 43.16 0.087 6.61 128.3 11.93
1/3/2023 3:30:00 PM 6.21 43.178 0.087 6.63 124.35 11.93
1/3/2023 3:45:00 PM 6.21 43.178 0.087 6.62 120.8 11.92
1/3/2023 4:00:00 PM 6.24 43.232 0.086 6.63 118.04 11.91
1/3/2023 4:15:00 PM 6.25 43.25 0.086 6.63 112.3 11.9
1/3/2023 4:30:00 PM 6.27 43.286 0.085 6.61 102.01 11.89
1/3/2023 4:45:00 PM 6.3 43.34 0.084 6.64 93.49 11.87
1/3/2023 5:00:00 PM 6.33 43.394 0.084 6.63 87.92 11.85
1/3/2023 5:15:00 PM 6.37 43.466 0.083 6.63 82.97 11.83
1/3/2023 5:30:00 PM 6.41 43.538 0.083 6.61 74.96 11.81
1/3/2023 5:45:00 PM 6.46 43.628 0.082 6.61 69.16 11.79
1/3/2023 6:00:00 PM 6.5 43.7 0.082 6.6 67.44 11.77
1/3/2023 6:15:00 PM 6.55 43.79 0.082 6.61 59.62 11.75
1/3/2023 6:30:00 PM 6.6 43.88 0.081 6.59 56.54 11.73
1/3/2023 6:45:00 PM 6.65 43.97 0.081 6.59 46.28 11.71
1/3/2023 7:00:00 PM 6.71 44.078 0.081 6.6 51.35 11.7
1/3/2023 7:15:00 PM 6.75 44.15 0.081 6.6 47.55 11.68
1/3/2023 7:30:00 PM 6.79 44.222 0.081 6.61 45.23 11.67
1/3/2023 7:45:00 PM 6.83 44.294 0.08 6.61 42.86 11.65
1/3/2023 8:00:00 PM 6.88 44.384 0.08 6.61 40.22 11.64
1/3/2023 8:15:00 PM 6.92 44.456 0.08 6.6 38.97 11.63
1/3/2023 8:30:00 PM 6.95 44.51 0.08 6.59 37.11 11.62
1/3/2023 8:45:00 PM 6.99 44.582 0.08 6.61 36.03 11.61
1/3/2023 9:00:00 PM 7.02 44.636 0.08 6.6 34.23 11.59
1/3/2023 9:15:00 PM 7.06 44.708 0.079 6.6 33.32 11.58
1/3/2023 9:30:00 PM 7.09 44.762 0.079 6.58 32.04 11.57
1/3/2023 9:45:00 PM 7.12 44.816 0.079 6.59 31.94 11.56
1/3/2023 10:00:00 PM 7.14 44.852 0.079 6.6 30.74 11.55
1/3/2023 10:15:00 PM 7.17 44.906 0.079 6.59 30.3 11.55
1/3/2023 10:30:00 PM 7.19 44.942 0.079 6.59 28.24 11.54
1/3/2023 10:45:00 PM 7.21 44.978 0.079 6.59 27.19 11.53
1/3/2023 11:00:00 PM 7.23 45.014 0.079 6.59 27.19 11.53
1/3/2023 11:15:00 PM 7.25 45.05 0.079 6.59 26.9 11.52
1/3/2023 11:30:00 PM 7.26 45.068 0.079 6.58 27.18 11.52
1/3/2023 11:45:00 PM 7.27 45.086 0.079 6.57 25.37 11.51
1/4/2023 12:00:00 AM 7.29 45.122 0.079 6.57 24.18 11.51
1/4/2023 12:15:00 AM 7.31 45.158 0.078 6.58 23.98 11.51
1/4/2023 12:30:00 AM 7.32 45.176 0.078 6.58 23.82 11.5
1/4/2023 12:45:00 AM 7.34 45.212 0.078 6.58 23.4 11.5
1/4/2023 1:00:00 AM 7.34 45.212 0.078 6.58 23.54 11.5
1/4/2023 1:15:00 AM 7.36 45.248 0.078 6.58 21.88 11.49
1/4/2023 1:30:00 AM 7.38 45.284 0.078 6.58 22.81 11.49
1/4/2023 1:45:00 AM 7.39 45.302 0.078 6.58 22.08 11.49
1/4/2023 2:00:00 AM 7.39 45.302 0.078 6.58 21.71 11.49
1/4/2023 2:15:00 AM 7.39 45.302 0.078 6.59 20.59 11.49
1/4/2023 2:30:00 AM 7.4 45.32 0.078 6.58 20.3 11.49
1/4/2023 2:45:00 AM 7.39 45.302 0.078 6.58 27.87 11.49
1/4/2023 3:00:00 AM 7.39 45.302 0.078 6.56 20.53 11.48
1/4/2023 3:15:00 AM 7.4 45.32 0.078 6.56 20.59 11.49
1/4/2023 3:30:00 AM 7.41 45.338 0.078 6.57 20.06 11.49
1/4/2023 3:45:00 AM 7.4 45.32 0.078 6.57 19.17 11.49
1/4/2023 4:00:00 AM 7.4 45.32 0.078 6.57 19.05 11.49
1/4/2023 4:15:00 AM 7.4 45.32 0.078 6.57 18.92 11.49
1/4/2023 4:30:00 AM 7.39 45.302 0.078 6.55 19.54 11.49
1/4/2023 4:45:00 AM 7.38 45.284 0.078 6.56 18.87 11.49
1/4/2023 5:00:00 AM 7.38 45.284 0.077 6.56 18.16 11.49
1/4/2023 5:15:00 AM 7.39 45.302 0.077 6.56 18.3 11.49
1/4/2023 5:30:00 AM 7.4 45.32 0.078 6.54 18.49 11.49
1/4/2023 5:45:00 AM 7.41 45.338 0.077 6.57 18.55 11.49
1/4/2023 6:00:00 AM 7.43 45.374 0.077 6.56 17.05 11.49
1/4/2023 6:15:00 AM 7.45 45.41 0.077 6.57 17.21 11.5
1/4/2023 6:30:00 AM 7.46 45.428 0.077 6.57 14.89 11.49
1/4/2023 6:45:00 AM 7.47 45.446 0.077 6.57 17.07 11.49
1/4/2023 7:00:00 AM 7.48 45.464 0.077 6.56 17.77 11.49
1/4/2023 7:15:00 AM 7.5 45.5 0.077 6.56 17.58 11.49
1/4/2023 7:30:00 AM 7.52 45.536 0.077 6.56 17.68 11.48
1/4/2023 7:45:00 AM 7.53 45.554 0.077 6.55 17.14 11.47
1/4/2023 8:00:00 AM 7.54 45.572 0.077 6.54 17.55 11.48
1/4/2023 8:15:00 AM 7.55 45.59 0.077 6.56 13.41 11.49
1/4/2023 8:30:00 AM 7.57 45.626 0.077 6.56 16.17 11.49
1/4/2023 8:45:00 AM 7.59 45.662 0.077 6.57 15.75 11.5
1/4/2023 9:00:00 AM 0 32 0 0 0 0
1/4/2023 9:15:00 AM 7.64 45.752 0.071 6.93 13.18 11.58
1/4/2023 9:30:00 AM 7.67 45.806 0.071 6.94 12.91 11.6
1/4/2023 9:45:00 AM 7.7 45.86 0.071 6.96 12.84 11.61
1/4/2023 10:00:00 AM 7.74 45.932 0.071 6.95 13.28 11.63
1/4/2023 10:15:00 AM 7.79 46.022 0.071 6.93 12.63 11.65
1/4/2023 10:30:00 AM 7.83 46.094 0.071 6.92 12.65 11.67
1/4/2023 10:45:00 AM 7.88 46.184 0.071 6.92 12.23 11.68
1/4/2023 11:00:00 AM 7.93 46.274 0.07 6.93 12.51 11.69
1/4/2023 11:15:00 AM 7.98 46.364 0.07 6.93 12.02 11.68
1/4/2023 11:30:00 AM 8.02 46.436 0.07 6.94 11.93 11.68
1/4/2023 11:45:00 AM 8.06 46.508 0.07 6.95 12.14 11.66
1/4/2023 12:00:00 PM 8.1 46.58 0.07 6.97 11.85 11.66
1/4/2023 12:15:00 PM 8.15 46.67 0.07 6.97 12.09 11.65
1/4/2023 12:30:00 PM 8.18 46.724 0.07 6.98 11.93 11.64
1/4/2023 12:45:00 PM 8.21 46.778 0.07 6.98 12.04 11.61
1/4/2023 1:00:00 PM 8.25 46.85 0.07 6.98 11.67 11.59
1/4/2023 1:15:00 PM 8.29 46.922 0.07 6.98 12.2 11.57
1/4/2023 1:30:00 PM 8.32 46.976 0.07 6.99 12.3 11.56
1/4/2023 1:45:00 PM 8.35 47.03 0.07 6.99 12.03 11.54
1/4/2023 2:00:00 PM 8.39 47.102 0.07 6.99 11.73 11.53
1/4/2023 2:15:00 PM 8.42 47.156 0.07 7 12.14 11.52
1/4/2023 2:30:00 PM 8.45 47.21 0.07 7.01 11.94 11.5
1/4/2023 2:45:00 PM 8.49 47.282 0.07 7.02 11.53 11.48
1/4/2023 3:00:00 PM 8.52 47.336 0.069 7.02 11.82 11.46
1/4/2023 3:15:00 PM 8.55 47.39 0.07 7.02 11.51 11.44
1/4/2023 3:30:00 PM 8.58 47.444 0.07 7.02 11.56 11.41
1/4/2023 3:45:00 PM 8.6 47.48 0.07 7.02 11.88 11.38
1/4/2023 4:00:00 PM 8.62 47.516 0.07 7.01 11.97 11.36
1/4/2023 4:15:00 PM 8.64 47.552 0.07 7 11.54 11.33
1/4/2023 4:30:00 PM 8.66 47.588 0.07 7 11.81 11.3
1/4/2023 4:45:00 PM 8.68 47.624 0.07 6.99 11.92 11.27
1/4/2023 5:00:00 PM 8.69 47.642 0.07 6.98 12.23 11.25
1/4/2023 5:15:00 PM 8.71 47.678 0.07 6.97 11.52 11.23
1/4/2023 5:30:00 PM 8.72 47.696 0.07 6.98 11.86 11.21
1/4/2023 5:45:00 PM 8.72 47.696 0.07 6.98 12.25 11.19
1/4/2023 6:00:00 PM 8.73 47.714 0.07 6.97 12.64 11.18
1/4/2023 6:15:00 PM 8.74 47.732 0.07 6.97 12.12 11.18
1/4/2023 6:30:00 PM 8.74 47.732 0.07 6.97 11.87 11.17
1/4/2023 6:45:00 PM 8.74 47.732 0.07 6.97 12.02 11.16
1/4/2023 7:00:00 PM 8.75 47.75 0.07 6.95 12.42 11.15
1/4/2023 7:15:00 PM 8.75 47.75 0.07 6.95 11.73 11.15
1/4/2023 7:30:00 PM 8.75 47.75 0.07 6.96 12.72 11.15
1/4/2023 7:45:00 PM 8.74 47.732 0.07 6.96 12.59 11.16
1/4/2023 8:00:00 PM 8.75 47.75 0.07 6.96 12.01 11.16
1/4/2023 8:15:00 PM 8.75 47.75 0.07 6.95 12.05 11.15
1/4/2023 8:30:00 PM 8.74 47.732 0.07 6.95 11.72 11.16
1/4/2023 8:45:00 PM 8.74 47.732 0.07 6.96 11.76 11.15
1/4/2023 9:00:00 PM 8.74 47.732 0.07 6.96 11.83 11.16
1/4/2023 9:15:00 PM 8.73 47.714 0.07 6.96 11.66 11.16
1/4/2023 9:30:00 PM 8.72 47.696 0.07 6.96 11.3 11.16
1/4/2023 9:45:00 PM 8.72 47.696 0.07 6.95 11.82 11.15
1/4/2023 10:00:00 PM 8.72 47.696 0.07 6.95 11.72 11.16
1/4/2023 10:15:00 PM 8.7 47.66 0.07 6.96 11.34 11.16
1/4/2023 10:30:00 PM 8.7 47.66 0.07 6.95 11.14 11.16
1/4/2023 10:45:00 PM 8.68 47.624 0.07 6.95 11.31 11.17
1/4/2023 11:00:00 PM 8.66 47.588 0.07 6.95 11.1 11.17
1/4/2023 11:15:00 PM 8.64 47.552 0.07 6.95 11.85 11.17
1/4/2023 11:30:00 PM 8.61 47.498 0.07 6.95 11.33 11.18
1/4/2023 11:45:00 PM 8.58 47.444 0.07 6.95 11.37 11.18
1/5/2023 12:00:00 AM 8.56 47.408 0.07 6.96 11.47 11.18
1/5/2023 12:15:00 AM 8.54 47.372 0.07 6.95 11.16 11.19
1/5/2023 12:30:00 AM 8.53 47.354 0.07 6.95 10.97 11.2
1/5/2023 12:45:00 AM 8.51 47.318 0.07 6.95 11.15 11.21
1/5/2023 1:00:00 AM 8.49 47.282 0.069 6.96 11.05 11.22
1/5/2023 1:15:00 AM 8.47 47.246 0.07 6.97 11.78 11.23
1/5/2023 1:30:00 AM 8.44 47.192 0.07 6.98 11.08 11.24
1/5/2023 1:45:00 AM 8.41 47.138 0.07 6.98 11.26 11.25
1/5/2023 2:00:00 AM 8.37 47.066 0.069 6.98 11.23 11.27
1/5/2023 2:15:00 AM 8.34 47.012 0.069 6.98 11.36 11.28
1/5/2023 2:30:00 AM 8.31 46.958 0.069 6.98 10.99 11.29
1/5/2023 2:45:00 AM 8.28 46.904 0.069 6.98 10.78 11.31
1/5/2023 3:00:00 AM 8.25 46.85 0.069 6.99 10.99 11.31
1/5/2023 3:15:00 AM 8.22 46.796 0.069 6.99 10.87 11.32
1/5/2023 3:30:00 AM 8.18 46.724 0.069 6.99 11.04 11.33
1/5/2023 3:45:00 AM 8.16 46.688 0.069 6.98 10.81 11.34
1/5/2023 4:00:00 AM 8.11 46.598 0.069 6.98 11.41 11.35
1/5/2023 4:15:00 AM 8.08 46.544 0.069 6.99 10.75 11.37
1/5/2023 4:30:00 AM 8.05 46.49 0.07 7 10.72 11.37
1/5/2023 4:45:00 AM 8.01 46.418 0.07 6.99 10.96 11.38
1/5/2023 5:00:00 AM 7.98 46.364 0.069 7 10.66 11.39
1/5/2023 5:15:00 AM 7.95 46.31 0.069 7.01 10.58 11.41
1/5/2023 5:30:00 AM 7.91 46.238 0.069 7.02 10.74 11.42
1/5/2023 5:45:00 AM 7.87 46.166 0.069 7.01 10.43 11.43
1/5/2023 6:00:00 AM 7.84 46.112 0.069 7.01 10.72 11.44
1/5/2023 6:15:00 AM 7.81 46.058 0.069 7.01 10.68 11.45
1/5/2023 6:30:00 AM 7.77 45.986 0.069 7.02 10.78 11.46
1/5/2023 6:45:00 AM 7.74 45.932 0.069 7.01 10.29 11.47
1/5/2023 7:00:00 AM 7.72 45.896 0.069 7.02 10.66 11.49
1/5/2023 7:15:00 AM 7.68 45.824 0.069 7.02 10.3 11.5
1/5/2023 7:30:00 AM 7.65 45.77 0.069 7.01 10.21 11.52
1/5/2023 7:45:00 AM 7.63 45.734 0.069 7.02 9.94 11.53
1/5/2023 8:00:00 AM 7.62 45.716 0.07 7.03 9.93 11.54
1/5/2023 8:15:00 AM 7.59 45.662 0.069 7.04 10.17 11.56
1/5/2023 8:30:00 AM 7.58 45.644 0.069 7.04 9.76 11.58
1/5/2023 8:45:00 AM 7.57 45.626 0.069 7.06 9.53 11.62
1/5/2023 9:00:00 AM 7.57 45.626 0.069 7.09 9.95 11.69
1/5/2023 9:15:00 AM 7.58 45.644 0.068 7.1 152.76 11.75
1/5/2023 9:30:00 AM 7.59 45.662 0.069 7.11 9.5 11.82
1/5/2023 9:45:00 AM 7.6 45.68 0.069 7.12 9.75 11.87
1/5/2023 10:00:00 AM 7.62 45.716 0.069 7.16 9.57 11.93
1/5/2023 10:15:00 AM 7.63 45.734 0.069 7.17 9.2 11.96
1/5/2023 10:30:00 AM 7.65 45.77 0.069 7.19 9.03 12
1/5/2023 10:45:00 AM 7.69 45.842 0.069 7.21 9.87 12.04
1/5/2023 11:00:00 AM 7.74 45.932 0.069 7.23 9.09 12.07
1/5/2023 11:15:00 AM 7.77 45.986 0.069 7.25 8.99 12.09
1/5/2023 11:30:00 AM 7.85 46.13 0.069 7.26 8.84 12.12
1/5/2023 11:45:00 AM 7.97 46.346 0.069 7.29 8.94 12.16
1/5/2023 12:00:00 PM 8.09 46.562 0.069 7.32 8.54 12.18
1/5/2023 12:15:00 PM 8.13 46.634 0.069 7.35 8.79 12.18
1/5/2023 12:30:00 PM 8.13 46.634 0.069 7.36 8.64 12.16
1/5/2023 12:45:00 PM 8.18 46.724 0.069 7.37 8.88 12.15
1/5/2023 1:00:00 PM 8.24 46.832 0.069 7.38 8.82 12.16
1/5/2023 1:15:00 PM 8.28 46.904 0.068 7.38 8.55 12.13
1/5/2023 1:30:00 PM 8.25 46.85 0.069 7.37 8.64 12.1
1/5/2023 1:45:00 PM 8.19 46.742 0.069 7.35 8.17 12.06
1/5/2023 2:00:00 PM 8.16 46.688 0.068 7.34 8.34 12.04
1/5/2023 2:15:00 PM 8.15 46.67 0.069 7.34 8.42 12.02
1/5/2023 2:30:00 PM 8.19 46.742 0.069 7.34 8.05 12
1/5/2023 2:45:00 PM 8.2 46.76 0.069 7.34 8.14 11.98
1/5/2023 3:00:00 PM 8.25 46.85 0.069 7.35 8.09 11.98
1/5/2023 3:15:00 PM 8.24 46.832 0.069 7.33 8.29 11.93
1/5/2023 3:30:00 PM 8.24 46.832 0.069 7.32 7.94 11.89
1/5/2023 3:45:00 PM 8.25 46.85 0.069 7.31 8.41 11.86
1/5/2023 4:00:00 PM 8.28 46.904 0.069 7.31 8.11 11.84
1/5/2023 4:15:00 PM 8.28 46.904 0.069 7.3 8.04 11.79
1/5/2023 4:30:00 PM 8.28 46.904 0.069 7.27 8.4 11.74
1/5/2023 4:45:00 PM 8.26 46.868 0.069 7.24 8.21 11.68
1/5/2023 5:00:00 PM 8.24 46.832 0.069 7.23 8.63 11.62
1/5/2023 5:15:00 PM 8.23 46.814 0.069 7.22 8.51 11.58
1/5/2023 5:30:00 PM 8.2 46.76 0.069 7.2 8.69 11.54
1/5/2023 5:45:00 PM 8.17 46.706 0.069 7.17 8.9 11.5
1/5/2023 6:00:00 PM 8.14 46.652 0.069 7.17 8.96 11.48
1/5/2023 6:15:00 PM 8.11 46.598 0.069 7.18 8.79 11.46
1/5/2023 6:30:00 PM 8.08 46.544 0.069 7.17 8.38 11.45
1/5/2023 6:45:00 PM 8.05 46.49 0.069 7.16 8.52 11.44
1/5/2023 7:00:00 PM 8.01 46.418 0.069 7.16 8.77 11.44
1/5/2023 7:15:00 PM 7.97 46.346 0.069 7.16 8.25 11.44
1/5/2023 7:30:00 PM 7.92 46.256 0.069 7.15 9.16 11.44
1/5/2023 7:45:00 PM 7.88 46.184 0.069 7.15 8.73 11.44
1/5/2023 8:00:00 PM 7.83 46.094 0.07 7.16 8.6 11.45
1/5/2023 8:15:00 PM 7.79 46.022 0.069 7.15 8.61 11.45
1/5/2023 8:30:00 PM 7.74 45.932 0.07 7.15 8.81 11.46
1/5/2023 8:45:00 PM 7.69 45.842 0.07 7.15 8.89 11.47
1/5/2023 9:00:00 PM 7.65 45.77 0.07 7.13 8.49 11.48
1/5/2023 9:15:00 PM 7.59 45.662 0.07 7.15 8.78 11.5
1/5/2023 9:30:00 PM 7.54 45.572 0.07 7.15 8.34 11.51
1/5/2023 9:45:00 PM 7.49 45.482 0.07 7.14 8.37 11.53
1/5/2023 10:00:00 PM 7.44 45.392 0.07 7.14 8.23 11.54
1/5/2023 10:15:00 PM 7.39 45.302 0.07 7.15 8.36 11.56
1/5/2023 10:30:00 PM 7.34 45.212 0.07 7.15 8.42 11.58
1/5/2023 10:45:00 PM 7.28 45.104 0.07 7.14 8.16 11.6
1/5/2023 11:00:00 PM 7.22 44.996 0.07 7.15 8.4 11.62
1/5/2023 11:15:00 PM 7.16 44.888 0.07 7.14 8.09 11.64
1/5/2023 11:30:00 PM 7.1 44.78 0.07 7.15 8.23 11.66
1/5/2023 11:45:00 PM 7.04 44.672 0.07 7.14 8.91 11.67
1/6/2023 12:00:00 AM 6.99 44.582 0.07 7.14 8.31 11.69
1/6/2023 12:15:00 AM 6.94 44.492 0.07 7.15 7.96 11.7
1/6/2023 12:30:00 AM 6.9 44.42 0.07 7.15 8.17 11.71
1/6/2023 12:45:00 AM 6.84 44.312 0.07 7.15 8.15 11.72
1/6/2023 1:00:00 AM 6.8 44.24 0.07 7.15 8.46 11.73
1/6/2023 1:15:00 AM 6.76 44.168 0.07 7.15 8.17 11.75
1/6/2023 1:30:00 AM 6.72 44.096 0.07 7.15 7.67 11.76
1/6/2023 1:45:00 AM 6.68 44.024 0.071 7.16 7.52 11.78
1/6/2023 2:00:00 AM 6.64 43.952 0.07 7.15 7.81 11.79
1/6/2023 2:15:00 AM 6.6 43.88 0.071 7.16 8.25 11.81
1/6/2023 2:30:00 AM 6.57 43.826 0.07 7.16 7.93 11.82
1/6/2023 2:45:00 AM 6.54 43.772 0.07 7.17 7.82 11.84
1/6/2023 3:00:00 AM 6.5 43.7 0.07 7.17 8 11.85
1/6/2023 3:15:00 AM 6.48 43.664 0.07 7.16 7.84 11.87
1/6/2023 3:30:00 AM 6.44 43.592 0.07 7.18 7.95 11.89
1/6/2023 3:45:00 AM 6.42 43.556 0.07 7.18 8 11.9
1/6/2023 4:00:00 AM 6.39 43.502 0.07 7.18 8.22 11.9
1/6/2023 4:15:00 AM 6.37 43.466 0.07 7.18 7.93 11.91
1/6/2023 4:30:00 AM 6.35 43.43 0.07 7.18 7.52 11.92
1/6/2023 4:45:00 AM 6.33 43.394 0.07 7.18 7.67 11.93
1/6/2023 5:00:00 AM 6.31 43.358 0.07 7.18 7.73 11.93
1/6/2023 5:15:00 AM 6.29 43.322 0.07 7.19 7.87 11.94
1/6/2023 5:30:00 AM 6.27 43.286 0.07 7.19 8.13 11.95
1/6/2023 5:45:00 AM 6.26 43.268 0.07 7.19 7.63 11.95
1/6/2023 6:00:00 AM 6.24 43.232 0.07 7.2 7.64 11.96
1/6/2023 6:15:00 AM 6.23 43.214 0.07 7.19 7.54 11.96
1/6/2023 6:30:00 AM 6.21 43.178 0.07 7.2 7.4 11.96
1/6/2023 6:45:00 AM 6.2 43.16 0.07 7.2 7.58 11.96
1/6/2023 7:00:00 AM 6.19 43.142 0.07 7.28 7.51 11.98
1/6/2023 7:15:00 AM 6.18 43.124 0.07 7.21 7.33 11.97
1/6/2023 7:30:00 AM 6.17 43.106 0.07 7.22 7.55 11.98
1/6/2023 7:45:00 AM 6.16 43.088 0.07 7.22 7.58 11.98
1/6/2023 8:00:00 AM 6.16 43.088 0.07 7.22 7.42 11.99
1/6/2023 8:15:00 AM 6.15 43.07 0.071 7.22 7.56 12
1/6/2023 8:30:00 AM 6.16 43.088 0.07 7.22 7.18 12.02
1/6/2023 8:45:00 AM 6.15 43.07 0.07 7.24 7.29 12.04
1/6/2023 9:00:00 AM 6.16 43.088 0.07 7.24 7.35 12.06
1/6/2023 9:15:00 AM 6.17 43.106 0.071 7.24 7.23 12.1
1/6/2023 9:30:00 AM 6.17 43.106 0.071 7.26 7.25 12.14
1/6/2023 9:45:00 AM 6.19 43.142 0.071 7.27 7.23 12.2
1/6/2023 10:00:00 AM 6.21 43.178 0.071 7.29 7.19 12.23
1/6/2023 10:15:00 AM 6.23 43.214 0.071 7.31 7.49 12.27
1/6/2023 10:30:00 AM 6.25 43.25 0.071 7.32 7.06 12.33
1/6/2023 10:45:00 AM 6.29 43.322 0.071 7.34 7.1 12.38
1/6/2023 11:00:00 AM 6.33 43.394 0.071 7.36 6.69 12.44
1/6/2023 11:15:00 AM 6.38 43.484 0.071 7.39 6.98 12.5
1/6/2023 11:30:00 AM 6.42 43.556 0.071 7.41 6.52 12.56
1/6/2023 11:45:00 AM 6.48 43.664 0.071 7.44 6.81 12.59
1/6/2023 12:00:00 PM 6.52 43.736 0.071 7.46 6.92 12.63
1/6/2023 12:15:00 PM 6.56 43.808 0.071 7.47 7.03 12.63
1/6/2023 12:30:00 PM 6.59 43.862 0.071 7.48 7.19 12.65
1/6/2023 12:45:00 PM 6.63 43.934 0.071 7.5 7.02 12.67
1/6/2023 1:00:00 PM 6.67 44.006 0.071 7.52 7.04 12.68
1/6/2023 1:15:00 PM 6.7 44.06 0.071 7.53 6.9 12.67
1/6/2023 1:30:00 PM 6.72 44.096 0.071 7.53 6.83 12.65
1/6/2023 1:45:00 PM 6.73 44.114 0.071 7.52 6.87 12.61
1/6/2023 2:00:00 PM 6.73 44.114 0.071 7.51 6.7 12.58
1/6/2023 2:15:00 PM 6.75 44.15 0.071 7.5 7.03 12.54
1/6/2023 2:30:00 PM 6.72 44.096 0.071 7.49 6.85 12.47
1/6/2023 2:45:00 PM 6.72 44.096 0.071 7.46 6.75 12.43
1/6/2023 3:00:00 PM 6.73 44.114 0.071 7.47 7.01 12.41
1/6/2023 3:15:00 PM 6.75 44.15 0.071 7.47 6.88 12.42
1/6/2023 3:30:00 PM 6.76 44.168 0.071 7.47 7.24 12.43
1/6/2023 3:45:00 PM 6.76 44.168 0.071 7.48 6.86 12.43
1/6/2023 4:00:00 PM 6.76 44.168 0.072 7.47 6.94 12.41
1/6/2023 4:15:00 PM 6.76 44.168 0.071 7.46 7.03 12.36
1/6/2023 4:30:00 PM 6.75 44.15 0.071 7.43 6.83 12.3
1/6/2023 4:45:00 PM 6.74 44.132 0.072 7.41 7.07 12.23
1/6/2023 5:00:00 PM 6.72 44.096 0.072 7.39 6.85 12.17
1/6/2023 5:15:00 PM 6.7 44.06 0.072 7.36 6.85 12.11
1/6/2023 5:30:00 PM 6.68 44.024 0.072 7.34 7.48 12.07
1/6/2023 5:45:00 PM 6.67 44.006 0.072 7.34 7.34 12.03
1/6/2023 6:00:00 PM 6.65 43.97 0.072 7.32 6.65 12
1/6/2023 6:15:00 PM 6.63 43.934 0.072 7.32 6.97 11.98
1/6/2023 6:30:00 PM 6.62 43.916 0.072 7.31 6.92 11.96
1/6/2023 6:45:00 PM 6.59 43.862 0.072 7.3 7.28 11.94
1/6/2023 7:00:00 PM 6.57 43.826 0.072 7.29 7.31 11.94
1/6/2023 7:15:00 PM 6.55 43.79 0.072 7.3 7.06 11.93
1/6/2023 7:30:00 PM 6.54 43.772 0.072 7.29 7.01 11.93
1/6/2023 7:45:00 PM 6.52 43.736 0.072 7.29 7.03 11.93
1/6/2023 8:00:00 PM 6.5 43.7 0.072 7.29 7.06 11.93
1/6/2023 8:15:00 PM 6.48 43.664 0.072 7.29 7.3 11.94
1/6/2023 8:30:00 PM 6.46 43.628 0.072 7.29 6.74 11.94
1/6/2023 8:45:00 PM 6.43 43.574 0.072 7.29 6.7 11.95
1/6/2023 9:00:00 PM 6.41 43.538 0.072 7.28 7 11.96
1/6/2023 9:15:00 PM 6.39 43.502 0.072 7.28 6.8 11.96
1/6/2023 9:30:00 PM 6.37 43.466 0.072 7.29 6.64 11.97
1/6/2023 9:45:00 PM 6.35 43.43 0.072 7.29 6.75 11.98
1/6/2023 10:00:00 PM 6.33 43.394 0.073 7.28 6.58 11.99
1/6/2023 10:15:00 PM 6.3 43.34 0.072 7.28 6.93 12
1/6/2023 10:30:00 PM 6.28 43.304 0.073 7.28 6.74 12.02
1/6/2023 10:45:00 PM 6.27 43.286 0.072 7.28 6.53 12.03
1/6/2023 11:00:00 PM 6.25 43.25 0.073 7.28 6.74 12.03
1/6/2023 11:15:00 PM 6.23 43.214 0.073 7.28 6.67 12.05
1/6/2023 11:30:00 PM 6.21 43.178 0.073 7.29 6.45 12.05
1/6/2023 11:45:00 PM 6.18 43.124 0.073 7.28 6.84 12.06
1/7/2023 12:00:00 AM 6.16 43.088 0.073 7.29 6.65 12.07
1/7/2023 12:15:00 AM 6.14 43.052 0.073 7.29 6.52 12.07
1/7/2023 12:30:00 AM 6.12 43.016 0.073 7.29 6.54 12.08
1/7/2023 12:45:00 AM 6.1 42.98 0.073 7.29 6.6 12.09
1/7/2023 1:00:00 AM 6.08 42.944 0.073 7.3 6.71 12.1
1/7/2023 1:15:00 AM 6.06 42.908 0.073 7.3 6.81 12.09
1/7/2023 1:30:00 AM 6.04 42.872 0.073 7.3 6.95 12.1
1/7/2023 1:45:00 AM 6.02 42.836 0.073 7.3 6.62 12.1
1/7/2023 2:00:00 AM 6 42.8 0.073 7.33 7.01 12.1
1/7/2023 2:15:00 AM 5.97 42.746 0.073 7.33 6.77 12.11
1/7/2023 2:30:00 AM 5.95 42.71 0.073 7.33 6.27 12.12
1/7/2023 2:45:00 AM 5.93 42.674 0.073 7.33 6.81 12.12
1/7/2023 3:00:00 AM 5.91 42.638 0.073 7.33 6.48 12.12
1/7/2023 3:15:00 AM 5.89 42.602 0.073 7.33 6.4 12.12
1/7/2023 3:30:00 AM 5.87 42.566 0.073 7.33 6.3 12.13
1/7/2023 3:45:00 AM 5.84 42.512 0.073 7.34 6.26 12.13
1/7/2023 4:00:00 AM 5.82 42.476 0.073 7.35 6.28 12.14
1/7/2023 4:15:00 AM 5.79 42.422 0.073 7.35 6.61 12.15
1/7/2023 4:30:00 AM 5.77 42.386 0.073 7.35 6.45 12.15
1/7/2023 4:45:00 AM 5.75 42.35 0.073 7.35 6.45 12.16
1/7/2023 5:00:00 AM 5.73 42.314 0.073 7.35 6.45 12.16
1/7/2023 5:15:00 AM 5.71 42.278 0.073 7.35 6.47 12.17
1/7/2023 5:30:00 AM 5.69 42.242 0.073 7.35 6.3 12.18
1/7/2023 5:45:00 AM 5.68 42.224 0.073 7.36 6.39 12.19
1/7/2023 6:00:00 AM 5.67 42.206 0.073 7.36 6.59 12.19
1/7/2023 6:15:00 AM 5.66 42.188 0.073 7.36 6.41 12.21
1/7/2023 6:30:00 AM 5.65 42.17 0.073 7.36 6.36 12.21
1/7/2023 6:45:00 AM 5.64 42.152 0.073 7.37 6.33 12.22
1/7/2023 7:00:00 AM 5.63 42.134 0.073 7.37 6.15 12.23
1/7/2023 7:15:00 AM 5.63 42.134 0.073 7.38 6.18 12.23
1/7/2023 7:30:00 AM 5.63 42.134 0.073 7.38 6.65 12.23
1/7/2023 7:45:00 AM 5.63 42.134 0.073 7.38 6.57 12.23
1/7/2023 8:00:00 AM 5.63 42.134 0.073 7.38 6.03 12.25
1/7/2023 8:15:00 AM 5.63 42.134 0.073 7.38 6.18 12.27
1/7/2023 8:30:00 AM 5.64 42.152 0.073 7.39 6.12 12.3
1/7/2023 8:45:00 AM 5.65 42.17 0.073 7.4 6.01 12.35
1/7/2023 9:00:00 AM 5.67 42.206 0.073 7.42 5.93 12.42
1/7/2023 9:15:00 AM 5.7 42.26 0.073 7.45 6.22 12.51
1/7/2023 9:30:00 AM 5.74 42.332 0.073 7.48 5.59 12.6
1/7/2023 9:45:00 AM 5.78 42.404 0.073 7.51 6.04 12.69
1/7/2023 10:00:00 AM 5.82 42.476 0.073 7.53 6.21 12.77
1/7/2023 10:15:00 AM 5.85 42.53 0.073 7.56 5.87 12.83
1/7/2023 10:30:00 AM 5.88 42.584 0.072 7.58 5.92 12.86
1/7/2023 10:45:00 AM 5.9 42.62 0.072 7.6 5.76 12.88
1/7/2023 11:00:00 AM 5.92 42.656 0.073 7.61 5.61 12.88
1/7/2023 11:15:00 AM 5.93 42.674 0.072 7.62 5.65 12.87
1/7/2023 11:30:00 AM 5.95 42.71 0.072 7.62 5.52 12.88
1/7/2023 11:45:00 AM 5.98 42.764 0.072 7.63 5.46 12.87
1/7/2023 12:00:00 PM 6 42.8 0.073 7.64 5.96 12.88
1/7/2023 12:15:00 PM 6.01 42.818 0.073 7.64 5.39 12.88
1/7/2023 12:30:00 PM 6.03 42.854 0.072 7.64 5.43 12.85
1/7/2023 12:45:00 PM 6.04 42.872 0.072 7.63 5.75 12.82
1/7/2023 1:00:00 PM 6.03 42.854 0.073 7.63 5.3 12.79
1/7/2023 1:15:00 PM 6.04 42.872 0.072 7.63 5.99 12.78
1/7/2023 1:30:00 PM 6.05 42.89 0.073 7.64 5.48 12.79
1/7/2023 1:45:00 PM 6.08 42.944 0.072 7.65 5.7 12.82
1/7/2023 2:00:00 PM 6.12 43.016 0.072 7.67 5.34 12.87
1/7/2023 2:15:00 PM 6.16 43.088 0.072 7.69 5.67 12.9
1/7/2023 2:30:00 PM 6.19 43.142 0.072 7.71 5.32 12.91
1/7/2023 2:45:00 PM 6.22 43.196 0.072 7.71 5.56 12.91
1/7/2023 3:00:00 PM 6.24 43.232 0.072 7.72 5.64 12.89
1/7/2023 3:15:00 PM 6.24 43.232 0.072 7.7 5.27 12.83
1/7/2023 3:30:00 PM 6.24 43.232 0.072 7.68 5.54 12.77
1/7/2023 3:45:00 PM 6.24 43.232 0.072 7.65 5.44 12.68
1/7/2023 4:00:00 PM 6.23 43.214 0.072 7.62 5.67 12.59
1/7/2023 4:15:00 PM 6.21 43.178 0.072 7.6 5.44 12.52
1/7/2023 4:30:00 PM 6.19 43.142 0.073 7.58 5.42 12.46
1/7/2023 4:45:00 PM 6.17 43.106 0.073 7.56 5.33 12.41
1/7/2023 5:00:00 PM 6.15 43.07 0.073 7.55 5.49 12.36
1/7/2023 5:15:00 PM 6.14 43.052 0.073 7.53 5.45 12.31
1/7/2023 5:30:00 PM 6.12 43.016 0.073 7.51 5.62 12.28
1/7/2023 5:45:00 PM 6.1 42.98 0.073 7.5 5.58 12.25
1/7/2023 6:00:00 PM 6.08 42.944 0.073 7.49 5.7 12.21
1/7/2023 6:15:00 PM 6.05 42.89 0.073 7.48 5.51 12.2
1/7/2023 6:30:00 PM 6.02 42.836 0.073 7.46 5.49 12.18
1/7/2023 6:45:00 PM 6 42.8 0.073 7.46 5.56 12.17
1/7/2023 7:00:00 PM 5.99 42.782 0.073 7.45 6.32 12.18
1/7/2023 7:15:00 PM 5.96 42.728 0.073 7.44 5.89 12.17
1/7/2023 7:30:00 PM 5.94 42.692 0.073 7.44 5.86 12.18
1/7/2023 7:45:00 PM 5.91 42.638 0.073 7.44 5.58 12.18
1/7/2023 8:00:00 PM 5.89 42.602 0.073 7.44 5.78 12.19
1/7/2023 8:15:00 PM 5.88 42.584 0.073 7.44 5.92 12.2
1/7/2023 8:30:00 PM 5.87 42.566 0.073 7.44 5.73 12.2
1/7/2023 8:45:00 PM 5.86 42.548 0.073 7.44 5.67 12.21
1/7/2023 9:00:00 PM 5.85 42.53 0.073 7.44 6 12.22
1/7/2023 9:15:00 PM 5.84 42.512 0.073 7.44 5.58 12.22
1/7/2023 9:30:00 PM 5.82 42.476 0.073 7.43 5.64 12.23
1/7/2023 9:45:00 PM 5.81 42.458 0.073 7.44 5.61 12.24
1/7/2023 10:00:00 PM 5.79 42.422 0.074 7.44 5.4 12.24
1/7/2023 10:15:00 PM 5.78 42.404 0.073 7.43 5.28 12.25
1/7/2023 10:30:00 PM 5.77 42.386 0.073 7.44 5.54 12.25
1/7/2023 10:45:00 PM 5.77 42.386 0.073 7.44 5.62 12.26
1/7/2023 11:00:00 PM 5.76 42.368 0.073 7.44 5.34 12.27
1/7/2023 11:15:00 PM 5.75 42.35 0.073 7.45 5.58 12.27
1/7/2023 11:30:00 PM 5.74 42.332 0.074 7.45 5.69 12.26
1/7/2023 11:45:00 PM 5.73 42.314 0.073 7.45 5.48 12.27
1/8/2023 12:00:00 AM 5.73 42.314 0.074 7.45 5.7 12.27
1/8/2023 12:15:00 AM 5.72 42.296 0.074 7.45 5.5 12.27
1/8/2023 12:30:00 AM 5.7 42.26 0.073 7.45 5.16 12.27
1/8/2023 12:45:00 AM 5.69 42.242 0.074 7.45 5.97 12.27
1/8/2023 1:00:00 AM 5.68 42.224 0.074 7.46 5.94 12.28
1/8/2023 1:15:00 AM 5.66 42.188 0.074 7.46 6.52 12.28
1/8/2023 1:30:00 AM 5.65 42.17 0.074 7.46 5.24 12.28
1/8/2023 1:45:00 AM 5.63 42.134 0.074 7.46 5.4 12.28
1/8/2023 2:00:00 AM 5.62 42.116 0.074 7.46 5.7 12.29
1/8/2023 2:15:00 AM 5.61 42.098 0.074 7.46 5.63 12.28
1/8/2023 2:30:00 AM 5.6 42.08 0.074 7.46 5.72 12.28
1/8/2023 2:45:00 AM 5.58 42.044 0.074 7.47 5.43 12.29
1/8/2023 3:00:00 AM 5.57 42.026 0.074 7.47 5.79 12.29
1/8/2023 3:15:00 AM 5.56 42.008 0.074 7.47 5.39 12.29
1/8/2023 3:30:00 AM 5.54 41.972 0.074 7.47 5.44 12.3
1/8/2023 3:45:00 AM 5.53 41.954 0.074 7.47 5.46 12.3
1/8/2023 4:00:00 AM 5.52 41.936 0.074 7.47 5.65 12.29
1/8/2023 4:15:00 AM 5.51 41.918 0.074 7.48 5.72 12.3
1/8/2023 4:30:00 AM 5.49 41.882 0.074 7.47 5.41 12.3
1/8/2023 4:45:00 AM 5.48 41.864 0.074 7.48 5.04 12.3
1/8/2023 5:00:00 AM 5.46 41.828 0.075 7.63 5.52 12.31
1/8/2023 5:15:00 AM 5.45 41.81 0.074 7.65 5.31 12.31
1/8/2023 5:30:00 AM 5.43 41.774 0.074 7.65 5.72 12.32
1/8/2023 5:45:00 AM 5.42 41.756 0.074 7.65 5.14 12.32
1/8/2023 6:00:00 AM 5.4 41.72 0.074 7.65 5.36 12.33
1/8/2023 6:15:00 AM 5.38 41.684 0.074 7.65 5.03 12.34
1/8/2023 6:30:00 AM 5.37 41.666 0.074 7.65 5.22 12.34
1/8/2023 6:45:00 AM 5.35 41.63 0.074 7.65 5.44 12.36
1/8/2023 7:00:00 AM 5.34 41.612 0.074 7.65 5.32 12.36
1/8/2023 7:15:00 AM 5.33 41.594 0.074 7.65 5.43 12.37
1/8/2023 7:30:00 AM 5.31 41.558 0.074 7.66 5.29 12.37
1/8/2023 7:45:00 AM 5.3 41.54 0.074 7.66 5.33 12.39
1/8/2023 8:00:00 AM 5.29 41.522 0.074 7.67 5.17 12.41
1/8/2023 8:15:00 AM 5.28 41.504 0.075 7.67 5.17 12.44
1/8/2023 8:30:00 AM 5.27 41.486 0.074 7.68 5.22 12.47
1/8/2023 8:45:00 AM 5.26 41.468 0.074 7.69 5.03 12.53
1/8/2023 9:00:00 AM 5.26 41.468 0.074 7.71 5.13 12.59
1/8/2023 9:15:00 AM 5.26 41.468 0.074 7.73 5.24 12.67
1/8/2023 9:30:00 AM 5.27 41.486 0.075 7.75 5.05 12.76
1/8/2023 9:45:00 AM 5.28 41.504 0.074 7.79 5.09 12.85
1/8/2023 10:00:00 AM 5.29 41.522 0.075 7.81 4.94 12.92
1/8/2023 10:15:00 AM 5.3 41.54 0.074 7.83 4.89 13
1/8/2023 10:30:00 AM 5.32 41.576 0.074 7.85 5.25 13.08
1/8/2023 10:45:00 AM 5.34 41.612 0.074 7.88 4.82 13.14
1/8/2023 11:00:00 AM 5.38 41.684 0.074 7.91 4.97 13.21
1/8/2023 11:15:00 AM 5.41 41.738 0.074 7.94 4.74 13.25
1/8/2023 11:30:00 AM 5.44 41.792 0.074 7.96 4.73 13.29
1/8/2023 11:45:00 AM 5.48 41.864 0.074 7.98 4.76 13.32
1/8/2023 12:00:00 PM 5.56 42.008 0.073 8 4.94 13.34
1/8/2023 12:15:00 PM 5.59 42.062 0.074 8.02 4.74 13.35
1/8/2023 12:30:00 PM 5.62 42.116 0.074 8.03 4.67 13.36
1/8/2023 12:45:00 PM 5.64 42.152 0.073 8.05 4.62 13.35
1/8/2023 1:00:00 PM 5.67 42.206 0.073 8.06 4.59 13.34
1/8/2023 1:15:00 PM 5.72 42.296 0.073 8.07 4.56 13.35
1/8/2023 1:30:00 PM 5.71 42.278 0.073 8.06 4.74 13.31
1/8/2023 1:45:00 PM 5.72 42.296 0.073 8.07 4.84 13.31
1/8/2023 2:00:00 PM 5.78 42.404 0.073 8.09 4.68 13.31
1/8/2023 2:15:00 PM 5.82 42.476 0.073 8.09 4.62 13.31
1/8/2023 2:30:00 PM 5.81 42.458 0.073 8.09 4.69 13.29
1/8/2023 2:45:00 PM 5.83 42.494 0.073 8.09 4.68 13.27
1/8/2023 3:00:00 PM 5.87 42.566 0.073 8.09 4.55 13.27
1/8/2023 3:15:00 PM 5.87 42.566 0.073 8.09 4.78 13.25
1/8/2023 3:30:00 PM 5.85 42.53 0.073 8.08 4.63 13.21
1/8/2023 3:45:00 PM 5.83 42.494 0.073 8.07 4.75 13.18
1/8/2023 4:00:00 PM 5.81 42.458 0.073 8.06 5.49 13.15
1/8/2023 4:15:00 PM 5.78 42.404 0.073 8.03 4.78 13.08
1/8/2023 4:30:00 PM 5.75 42.35 0.074 8 4.76 13
1/8/2023 4:45:00 PM 5.71 42.278 0.074 7.97 4.53 12.9
1/8/2023 5:00:00 PM 5.67 42.206 0.074 7.93 4.71 12.79
1/8/2023 5:15:00 PM 5.62 42.116 0.074 7.89 4.62 12.69
1/8/2023 5:30:00 PM 5.56 42.008 0.074 7.86 4.57 12.6
1/8/2023 5:45:00 PM 5.51 41.918 0.074 7.84 4.5 12.53
1/8/2023 6:00:00 PM 5.45 41.81 0.074 7.82 4.66 12.48
1/8/2023 6:15:00 PM 5.4 41.72 0.074 7.79 4.96 12.45
1/8/2023 6:30:00 PM 5.35 41.63 0.074 7.78 4.67 12.43
1/8/2023 6:45:00 PM 5.3 41.54 0.074 7.77 5.05 12.42
1/8/2023 7:00:00 PM 5.25 41.45 0.074 7.77 4.76 12.41
1/8/2023 7:15:00 PM 5.21 41.378 0.075 7.76 4.85 12.41
1/8/2023 7:30:00 PM 5.17 41.306 0.074 7.74 4.53 12.41
1/8/2023 7:45:00 PM 5.14 41.252 0.075 7.74 4.88 12.4
1/8/2023 8:00:00 PM 5.11 41.198 0.075 7.73 4.9 12.41
1/8/2023 8:15:00 PM 5.07 41.126 0.074 7.74 4.84 12.41
1/8/2023 8:30:00 PM 5.03 41.054 0.075 7.73 5.38 12.4
1/8/2023 8:45:00 PM 4.98 40.964 0.075 7.73 4.84 12.4
1/8/2023 9:00:00 PM 4.94 40.892 0.075 7.73 4.78 12.4
1/8/2023 9:15:00 PM 4.89 40.802 0.075 7.74 4.61 12.4
1/8/2023 9:30:00 PM 4.85 40.73 0.075 7.73 4.68 12.4
1/8/2023 9:45:00 PM 4.8 40.64 0.075 7.73 5.16 12.4
1/8/2023 10:00:00 PM 4.75 40.55 0.075 7.74 5.32 12.4
1/8/2023 10:15:00 PM 4.7 40.46 0.075 7.75 4.72 12.41
1/8/2023 10:30:00 PM 4.66 40.388 0.075 7.76 4.68 12.43
1/8/2023 10:45:00 PM 4.61 40.298 0.075 7.76 4.81 12.44
1/8/2023 11:00:00 PM 4.56 40.208 0.075 7.76 4.81 12.46
1/8/2023 11:15:00 PM 4.53 40.154 0.075 7.76 4.7 12.49
1/8/2023 11:30:00 PM 4.5 40.1 0.075 7.77 4.73 12.51
1/8/2023 11:45:00 PM 4.48 40.064 0.075 7.77 5.13 12.53
1/9/2023 12:00:00 AM 4.46 40.028 0.075 7.77 4.56 12.54
1/9/2023 12:15:00 AM 4.44 39.992 0.075 7.77 4.51 12.56
1/9/2023 12:30:00 AM 4.42 39.956 0.075 7.77 4.87 12.58
1/9/2023 12:45:00 AM 4.41 39.938 0.075 7.77 4.91 12.59
1/9/2023 1:00:00 AM 4.39 39.902 0.075 7.77 4.77 12.6
1/9/2023 1:15:00 AM 4.38 39.884 0.075 7.77 5.43 12.61
1/9/2023 1:30:00 AM 4.36 39.848 0.075 7.77 4.63 12.62
1/9/2023 1:45:00 AM 4.35 39.83 0.075 7.77 4.47 12.62
1/9/2023 2:00:00 AM 4.33 39.794 0.075 7.78 4.56 12.63
1/9/2023 2:15:00 AM 4.32 39.776 0.075 7.78 5.01 12.64
1/9/2023 2:30:00 AM 4.3 39.74 0.075 7.78 4.7 12.65
1/9/2023 2:45:00 AM 4.29 39.722 0.075 7.78 4.61 12.65
1/9/2023 3:00:00 AM 4.27 39.686 0.075 7.78 4.86 12.65
1/9/2023 3:15:00 AM 4.25 39.65 0.075 7.79 4.77 12.65
1/9/2023 3:30:00 AM 4.23 39.614 0.075 7.79 4.62 12.65
1/9/2023 3:45:00 AM 4.2 39.56 0.075 7.78 4.55 12.65
1/9/2023 4:00:00 AM 4.18 39.524 0.075 7.78 4.41 12.65
1/9/2023 4:15:00 AM 4.14 39.452 0.075 7.79 4.57 12.65
1/9/2023 4:30:00 AM 4.11 39.398 0.076 7.79 4.75 12.64
1/9/2023 4:45:00 AM 4.07 39.326 0.075 7.79 4.53 12.64
1/9/2023 5:00:00 AM 4.03 39.254 0.075 7.79 4.5 12.63
1/9/2023 5:15:00 AM 3.99 39.182 0.075 7.79 4.55 12.64
1/9/2023 5:30:00 AM 3.94 39.092 0.075 7.79 4.49 12.64
1/9/2023 5:45:00 AM 3.91 39.038 0.076 7.79 4.7 12.65
1/9/2023 6:00:00 AM 3.88 38.984 0.076 7.79 4.99 12.66
1/9/2023 6:15:00 AM 3.86 38.948 0.075 7.8 4.72 12.68
1/9/2023 6:30:00 AM 3.84 38.912 0.075 7.79 4.55 12.69
1/9/2023 6:45:00 AM 3.83 38.894 0.076 7.79 4.72 12.7
1/9/2023 7:00:00 AM 3.83 38.894 0.076 7.79 4.59 12.72
1/9/2023 7:15:00 AM 3.82 38.876 0.076 7.79 4.85 12.72
1/9/2023 7:30:00 AM 3.82 38.876 0.076 7.8 4.59 12.73
1/9/2023 7:45:00 AM 3.82 38.876 0.076 7.8 4.68 12.74
1/9/2023 8:00:00 AM 3.82 38.876 0.076 7.8 4.55 12.77
1/9/2023 8:15:00 AM 3.81 38.858 0.076 7.8 4.65 12.8
1/9/2023 8:30:00 AM 3.8 38.84 0.076 7.81 4.62 12.85
1/9/2023 8:45:00 AM 3.8 38.84 0.076 7.82 4.38 12.89
1/9/2023 9:00:00 AM 3.8 38.84 0.075 7.84 4.25 12.95
1/9/2023 9:15:00 AM 3.81 38.858 0.075 7.85 4.28 13.01
1/9/2023 9:30:00 AM 3.82 38.876 0.075 7.87 4.21 13.1
1/9/2023 9:45:00 AM 3.85 38.93 0.075 7.9 4.49 13.18
1/9/2023 10:00:00 AM 3.89 39.002 0.075 7.93 4.29 13.29
1/9/2023 10:15:00 AM 3.93 39.074 0.075 7.96 4.3 13.38
1/9/2023 10:30:00 AM 3.98 39.164 0.075 7.99 4.82 13.46
1/9/2023 10:45:00 AM 4.05 39.29 0.075 8.03 4.29 13.54
1/9/2023 11:00:00 AM 4.16 39.488 0.075 8.07 4.48 13.61
1/9/2023 11:15:00 AM 4.19 39.542 0.075 8.09 4.45 13.65
1/9/2023 11:30:00 AM 4.32 39.776 0.075 8.11 4.69 13.72
1/9/2023 11:45:00 AM 4.4 39.92 0.075 8.13 4.3 13.75
1/9/2023 12:00:00 PM 4.48 40.064 0.074 8.14 4.51 13.76
1/9/2023 12:15:00 PM 4.57 40.226 0.075 8.16 4.18 13.78
1/9/2023 12:30:00 PM 4.67 40.406 0.074 8.17 4.69 13.75
1/9/2023 12:45:00 PM 4.75 40.55 0.074 8.18 4.24 13.71
1/9/2023 1:00:00 PM 4.82 40.676 0.074 8.19 4.28 13.65
1/9/2023 1:15:00 PM 4.88 40.784 0.074 8.19 4.35 13.61
1/9/2023 1:30:00 PM 4.93 40.874 0.074 8.2 4.16 13.58
1/9/2023 1:45:00 PM 4.98 40.964 0.074 8.2 4.5 13.54
1/9/2023 2:00:00 PM 5.02 41.036 0.074 8.2 4.17 13.52
1/9/2023 2:15:00 PM 5.04 41.072 0.074 8.2 4.41 13.49
1/9/2023 2:30:00 PM 5.05 41.09 0.074 8.2 4.07 13.46
1/9/2023 2:45:00 PM 5.05 41.09 0.074 8.2 4.21 13.45
1/9/2023 3:00:00 PM 5.03 41.054 0.074 8.2 4.45 13.42
1/9/2023 3:15:00 PM 5 41 0.074 8.2 4.37 13.4
1/9/2023 3:30:00 PM 4.96 40.928 0.074 8.19 4.22 13.37
1/9/2023 3:45:00 PM 4.92 40.856 0.074 8.17 4.21 13.33
1/9/2023 4:00:00 PM 4.87 40.766 0.074 8.16 4.2 13.31
1/9/2023 4:15:00 PM 4.82 40.676 0.074 8.14 4.19 13.26
1/9/2023 4:30:00 PM 4.78 40.604 0.074 8.11 4.19 13.2
1/9/2023 4:45:00 PM 4.73 40.514 0.074 8.08 4.27 13.14
1/9/2023 5:00:00 PM 4.69 40.442 0.075 8.05 4.13 13.07
1/9/2023 5:15:00 PM 4.64 40.352 0.075 8.02 4.51 13
1/9/2023 5:30:00 PM 4.6 40.28 0.075 7.99 4.24 12.92
1/9/2023 5:45:00 PM 4.57 40.226 0.075 7.97 4.23 12.85
1/9/2023 6:00:00 PM 4.53 40.154 0.075 7.94 4.29 12.8
1/9/2023 6:15:00 PM 4.5 40.1 0.075 7.93 4.53 12.75
1/9/2023 6:30:00 PM 4.46 40.028 0.075 7.92 4.26 12.71
1/9/2023 6:45:00 PM 4.43 39.974 0.075 7.91 4.31 12.68
1/9/2023 7:00:00 PM 4.4 39.92 0.075 7.9 4.24 12.65
1/9/2023 7:15:00 PM 4.36 39.848 0.075 7.89 4.32 12.63
1/9/2023 7:30:00 PM 4.33 39.794 0.075 7.89 4.56 12.62
1/9/2023 7:45:00 PM 4.3 39.74 0.075 7.88 4.53 12.6
1/9/2023 8:00:00 PM 4.26 39.668 0.075 7.88 4.43 12.59
1/9/2023 8:15:00 PM 4.23 39.614 0.075 7.87 4.5 12.59
1/9/2023 8:30:00 PM 4.19 39.542 0.075 7.87 4.34 12.59
1/9/2023 8:45:00 PM 4.14 39.452 0.075 7.86 4.51 12.59
1/9/2023 9:00:00 PM 4.1 39.38 0.076 7.86 4.28 12.6
1/9/2023 9:15:00 PM 4.06 39.308 0.076 7.86 4.17 12.62
1/9/2023 9:30:00 PM 4.02 39.236 0.076 7.86 4.47 12.64
1/9/2023 9:45:00 PM 3.99 39.182 0.076 7.86 4.4 12.67
1/9/2023 10:00:00 PM 3.95 39.11 0.076 7.86 4.35 12.69
1/9/2023 10:15:00 PM 3.92 39.056 0.076 7.87 4.34 12.71
1/9/2023 10:30:00 PM 3.9 39.02 0.076 7.88 4.18 12.73
1/9/2023 10:45:00 PM 3.89 39.002 0.076 7.87 4.49 12.75
1/9/2023 11:00:00 PM 3.89 39.002 0.076 7.87 4.55 12.76
1/9/2023 11:15:00 PM 3.88 38.984 0.076 7.87 4.39 12.77
1/9/2023 11:30:00 PM 3.88 38.984 0.076 7.87 4.12 12.77
1/9/2023 11:45:00 PM 3.88 38.984 0.076 7.87 4 12.78
1/10/2023 12:00:00 AM 3.88 38.984 0.076 7.86 4.33 12.78
1/10/2023 12:15:00 AM 3.88 38.984 0.076 7.87 4.38 12.78
1/10/2023 12:30:00 AM 3.88 38.984 0.076 7.87 4.43 12.79
1/10/2023 12:45:00 AM 3.88 38.984 0.076 7.87 4.17 12.79
1/10/2023 1:00:00 AM 3.88 38.984 0.076 7.87 4.14 12.79
1/10/2023 1:15:00 AM 3.87 38.966 0.076 7.87 4.43 12.8
1/10/2023 1:30:00 AM 3.87 38.966 0.076 7.87 4.18 12.8
1/10/2023 1:45:00 AM 3.87 38.966 0.075 7.87 4.21 12.8
1/10/2023 2:00:00 AM 3.86 38.948 0.076 7.87 4.33 12.81
1/10/2023 2:15:00 AM 3.86 38.948 0.076 7.87 4.35 12.81
1/10/2023 2:30:00 AM 3.85 38.93 0.076 7.87 4.29 12.81
1/10/2023 2:45:00 AM 3.85 38.93 0.076 7.87 4.21 12.82
1/10/2023 3:00:00 AM 3.85 38.93 0.076 7.87 4.56 12.81
1/10/2023 3:15:00 AM 3.84 38.912 0.076 7.87 4.07 12.82
1/10/2023 3:30:00 AM 3.84 38.912 0.076 7.87 5.1 12.82
1/10/2023 3:45:00 AM 3.84 38.912 0.076 7.87 4.15 12.82
1/10/2023 4:00:00 AM 3.84 38.912 0.076 7.87 4.26 12.83
1/10/2023 4:15:00 AM 3.84 38.912 0.076 7.87 4.2 12.83
1/10/2023 4:30:00 AM 3.84 38.912 0.076 7.87 4.36 12.83
1/10/2023 4:45:00 AM 3.83 38.894 0.076 7.87 4.16 12.83
1/10/2023 5:00:00 AM 3.83 38.894 0.076 7.9 4.24 12.83
1/10/2023 5:15:00 AM 3.83 38.894 0.076 7.91 4.03 12.83
1/10/2023 5:30:00 AM 3.83 38.894 0.076 7.88 4.11 12.83
1/10/2023 5:45:00 AM 3.83 38.894 0.076 7.87 4.34 12.83
1/10/2023 6:00:00 AM 3.83 38.894 0.076 7.88 4.08 12.83
1/10/2023 6:15:00 AM 3.84 38.912 0.076 7.88 4.18 12.83
1/10/2023 6:30:00 AM 3.84 38.912 0.076 7.87 4.13 12.83
1/10/2023 6:45:00 AM 3.84 38.912 0.076 7.87 4.1 12.83
1/10/2023 7:00:00 AM 3.84 38.912 0.076 7.88 4.23 12.83
1/10/2023 7:15:00 AM 3.84 38.912 0.076 7.88 4.14 12.83
1/10/2023 7:30:00 AM 3.84 38.912 0.076 7.88 4.25 12.83
1/10/2023 7:45:00 AM 3.84 38.912 0.076 7.89 3.99 12.83
1/10/2023 8:00:00 AM 3.85 38.93 0.076 7.9 4.1 12.85
1/10/2023 8:15:00 AM 3.85 38.93 0.076 7.91 4.11 12.88
1/10/2023 8:30:00 AM 3.86 38.948 0.076 7.93 4.19 12.92
1/10/2023 8:45:00 AM 3.87 38.966 0.076 7.92 4.13 12.98
1/10/2023 9:00:00 AM 3.89 39.002 0.076 7.94 4.07 13.05
1/10/2023 9:15:00 AM 3.91 39.038 0.076 7.97 3.91 13.14
1/10/2023 9:30:00 AM 3.94 39.092 0.076 7.99 4.18 13.25
1/10/2023 9:45:00 AM 3.96 39.128 0.076 8.02 4.22 13.35
1/10/2023 10:00:00 AM 3.99 39.182 0.076 8.04 4.06 13.45
1/10/2023 10:15:00 AM 4.04 39.272 0.076 8.08 4.24 13.55
1/10/2023 10:30:00 AM 4.09 39.362 0.076 8.12 4.06 13.62
1/10/2023 10:45:00 AM 4.13 39.434 0.075 8.15 4.09 13.69
1/10/2023 11:00:00 AM 4.17 39.506 0.076 8.18 4.01 13.73
1/10/2023 11:15:00 AM 4.22 39.596 0.075 8.2 3.8 13.75
1/10/2023 11:30:00 AM 4.26 39.668 0.075 8.22 4.04 13.77
1/10/2023 11:45:00 AM 4.31 39.758 0.075 8.25 3.94 13.78
1/10/2023 12:00:00 PM 4.35 39.83 0.075 8.27 3.95 13.78
1/10/2023 12:15:00 PM 4.38 39.884 0.075 8.27 4.17 13.76
1/10/2023 12:30:00 PM 4.42 39.956 0.076 8.28 3.95 13.76
1/10/2023 12:45:00 PM 4.46 40.028 0.075 8.3 4.22 13.76
1/10/2023 1:00:00 PM 4.51 40.118 0.075 8.31 3.93 13.76
1/10/2023 1:15:00 PM 4.55 40.19 0.075 8.32 3.8 13.76
1/10/2023 1:30:00 PM 4.6 40.28 0.075 8.33 3.81 13.76
1/10/2023 1:45:00 PM 4.65 40.37 0.075 8.34 4.48 13.77
1/10/2023 2:00:00 PM 4.7 40.46 0.075 8.35 3.97 13.78
1/10/2023 2:15:00 PM 4.74 40.532 0.075 8.35 4 13.77
1/10/2023 2:30:00 PM 4.78 40.604 0.075 8.35 4.28 13.74
1/10/2023 2:45:00 PM 4.81 40.658 0.075 8.35 4.02 13.73
1/10/2023 3:00:00 PM 4.83 40.694 0.075 8.34 3.92 13.7
1/10/2023 3:15:00 PM 4.85 40.73 0.075 8.33 4.01 13.66
1/10/2023 3:30:00 PM 4.87 40.766 0.075 8.31 4.28 13.62
1/10/2023 3:45:00 PM 4.87 40.766 0.075 8.3 3.95 13.56
1/10/2023 4:00:00 PM 4.86 40.748 0.075 8.27 3.62 13.5
1/10/2023 4:15:00 PM 4.86 40.748 0.075 8.24 4.16 13.41
1/10/2023 4:30:00 PM 4.86 40.748 0.075 8.2 3.88 13.33
1/10/2023 4:45:00 PM 4.86 40.748 0.075 8.17 3.94 13.23
1/10/2023 5:00:00 PM 4.85 40.73 0.075 8.13 4.04 13.11
1/10/2023 5:15:00 PM 4.85 40.73 0.075 8.1 3.94 13.01
1/10/2023 5:30:00 PM 4.84 40.712 0.075 8.06 4.07 12.91
1/10/2023 5:45:00 PM 4.83 40.694 0.076 8.03 4.11 12.82
1/10/2023 6:00:00 PM 4.82 40.676 0.076 8.01 4.38 12.75
1/10/2023 6:15:00 PM 4.81 40.658 0.076 8 4.16 12.69
1/10/2023 6:30:00 PM 4.79 40.622 0.076 7.98 4.27 12.64
1/10/2023 6:45:00 PM 4.77 40.586 0.076 7.97 4.35 12.6
1/10/2023 7:00:00 PM 4.74 40.532 0.076 7.96 4.08 12.56
1/10/2023 7:15:00 PM 4.71 40.478 0.076 7.95 4.15 12.54
1/10/2023 7:30:00 PM 4.69 40.442 0.076 7.95 4.08 12.52
1/10/2023 7:45:00 PM 4.67 40.406 0.076 7.95 4.22 12.51
1/10/2023 8:00:00 PM 4.66 40.388 0.076 7.95 4.22 12.5
1/10/2023 8:15:00 PM 4.64 40.352 0.076 7.94 4.19 12.49
1/10/2023 8:30:00 PM 4.63 40.334 0.076 7.94 4.2 12.48
1/10/2023 8:45:00 PM 4.62 40.316 0.076 7.94 3.96 12.48
1/10/2023 9:00:00 PM 4.61 40.298 0.077 7.93 4.31 12.48
1/10/2023 9:15:00 PM 4.6 40.28 0.077 7.93 4.3 12.47
1/10/2023 9:30:00 PM 4.59 40.262 0.076 7.93 4.46 12.48
1/10/2023 9:45:00 PM 4.59 40.262 0.077 7.93 4.69 12.48
1/10/2023 10:00:00 PM 4.58 40.244 0.076 7.93 4.45 12.48
1/10/2023 10:15:00 PM 4.57 40.226 0.077 7.93 4.61 12.48
1/10/2023 10:30:00 PM 4.56 40.208 0.077 7.93 4.54 12.48
1/10/2023 10:45:00 PM 4.55 40.19 0.076 7.93 4.53 12.48
1/10/2023 11:00:00 PM 4.54 40.172 0.077 7.93 4.48 12.48
1/10/2023 11:15:00 PM 4.52 40.136 0.077 7.93 5.58 12.48
1/10/2023 11:30:00 PM 4.5 40.1 0.077 7.93 4.86 12.48
1/10/2023 11:45:00 PM 4.48 40.064 0.077 7.93 4.87 12.49
1/11/2023 12:00:00 AM 4.46 40.028 0.076 7.93 4.34 12.5
1/11/2023 12:15:00 AM 4.44 39.992 0.077 7.93 4.32 12.5
1/11/2023 12:30:00 AM 4.42 39.956 0.077 7.93 4.28 12.5
1/11/2023 12:45:00 AM 4.38 39.884 0.077 7.93 4.06 12.52
1/11/2023 1:00:00 AM 4.35 39.83 0.077 7.93 4.17 12.53
1/11/2023 1:15:00 AM 4.32 39.776 0.077 7.93 4.12 12.55
1/11/2023 1:30:00 AM 4.3 39.74 0.077 7.94 4.67 12.57
1/11/2023 1:45:00 AM 4.28 39.704 0.077 7.94 4.63 12.58
1/11/2023 2:00:00 AM 4.26 39.668 0.077 7.94 4.6 12.6
1/11/2023 2:15:00 AM 4.24 39.632 0.077 7.94 4.4 12.62
1/11/2023 2:30:00 AM 4.23 39.614 0.077 7.94 4.38 12.63
1/11/2023 2:45:00 AM 4.23 39.614 0.077 7.94 4.16 12.64
1/11/2023 3:00:00 AM 4.21 39.578 0.077 7.94 3.99 12.65
1/11/2023 3:15:00 AM 4.19 39.542 0.077 7.94 4.19 12.66
1/11/2023 3:30:00 AM 4.17 39.506 0.077 7.95 4.11 12.67
1/11/2023 3:45:00 AM 4.15 39.47 0.077 7.95 4.17 12.69
1/11/2023 4:00:00 AM 4.12 39.416 0.077 7.95 4.12 12.7
1/11/2023 4:15:00 AM 4.09 39.362 0.077 7.95 3.98 12.71
1/11/2023 4:30:00 AM 4.05 39.29 0.077 7.96 4.15 12.72
1/11/2023 4:45:00 AM 4.01 39.218 0.077 7.96 4.03 12.73
1/11/2023 5:00:00 AM 3.97 39.146 0.077 7.96 4.36 12.73
1/11/2023 5:15:00 AM 3.92 39.056 0.077 7.95 4.05 12.74
1/11/2023 5:30:00 AM 3.87 38.966 0.077 7.96 4.1 12.74
1/11/2023 5:45:00 AM 3.83 38.894 0.077 7.96 3.92 12.73
1/11/2023 6:00:00 AM 3.78 38.804 0.077 7.96 3.99 12.74
1/11/2023 6:15:00 AM 3.74 38.732 0.077 7.97 4.02 12.74
1/11/2023 6:30:00 AM 3.7 38.66 0.077 7.97 4.16 12.75
1/11/2023 6:45:00 AM 3.66 38.588 0.077 7.98 4.06 12.76
1/11/2023 7:00:00 AM 3.62 38.516 0.077 7.98 3.89 12.77
1/11/2023 7:15:00 AM 3.57 38.426 0.078 7.98 3.86 12.8
1/11/2023 7:30:00 AM 3.53 38.354 0.077 7.99 3.93 12.81
1/11/2023 7:45:00 AM 3.49 38.282 0.078 8 3.77 12.86
1/11/2023 8:00:00 AM 3.46 38.228 0.078 8.01 3.96 12.91
1/11/2023 8:15:00 AM 3.44 38.192 0.078 8.03 3.79 12.99
1/11/2023 8:30:00 AM 3.41 38.138 0.078 8.04 3.81 13.09
1/11/2023 8:45:00 AM 3.4 38.12 0.078 8.06 3.99 13.19
1/11/2023 9:00:00 AM 3.4 38.12 0.078 8.09 3.89 13.31
1/11/2023 9:15:00 AM 3.4 38.12 0.078 8.12 3.83 13.45
1/11/2023 9:30:00 AM 3.42 38.156 0.077 8.15 3.91 13.57
1/11/2023 9:45:00 AM 3.44 38.192 0.077 8.18 3.7 13.68
1/11/2023 10:00:00 AM 3.49 38.282 0.077 8.22 3.77 13.78
1/11/2023 10:15:00 AM 3.54 38.372 0.077 8.26 3.82 13.88
1/11/2023 10:30:00 AM 3.56 38.408 0.077 8.29 3.85 13.94
1/11/2023 10:45:00 AM 3.6 38.48 0.077 8.33 3.87 14
1/11/2023 11:00:00 AM 3.65 38.57 0.077 8.37 3.82 14.05
1/11/2023 11:15:00 AM 3.7 38.66 0.077 8.39 3.74 14.08
1/11/2023 11:30:00 AM 3.77 38.786 0.076 8.41 3.8 14.09
1/11/2023 11:45:00 AM 3.83 38.894 0.076 8.43 3.87 14.12
1/11/2023 12:00:00 PM 3.89 39.002 0.077 8.45 4.06 14.15
1/11/2023 12:15:00 PM 4 39.2 0.076 8.47 3.82 14.18
1/11/2023 12:30:00 PM 4.1 39.38 0.076 8.49 3.83 14.21
1/11/2023 12:45:00 PM 4.17 39.506 0.076 8.5 3.61 14.21
1/11/2023 1:00:00 PM 4.23 39.614 0.076 8.51 3.81 14.2
1/11/2023 1:15:00 PM 4.29 39.722 0.076 8.52 3.84 14.17
1/11/2023 1:30:00 PM 4.36 39.848 0.076 8.53 3.82 14.11
1/11/2023 1:45:00 PM 4.44 39.992 0.076 8.57 3.71 14.06
1/11/2023 2:00:00 PM 4.49 40.082 0.076 8.57 3.58 14
1/11/2023 2:15:00 PM 4.53 40.154 0.076 8.57 3.64 13.96
1/11/2023 2:30:00 PM 4.55 40.19 0.076 8.58 3.81 13.93
1/11/2023 2:45:00 PM 4.56 40.208 0.076 8.57 3.68 13.91
1/11/2023 3:00:00 PM 4.56 40.208 0.076 8.57 3.59 13.88
1/11/2023 3:15:00 PM 4.59 40.262 0.076 8.57 3.71 13.85
1/11/2023 3:30:00 PM 4.61 40.298 0.076 8.57 3.69 13.82
1/11/2023 3:45:00 PM 4.65 40.37 0.076 8.56 3.95 13.78
1/11/2023 4:00:00 PM 4.67 40.406 0.076 8.53 3.52 13.71
1/11/2023 4:15:00 PM 4.68 40.424 0.076 8.49 3.69 13.62
1/11/2023 4:30:00 PM 4.69 40.442 0.076 8.45 3.66 13.53
1/11/2023 4:45:00 PM 4.69 40.442 0.076 8.42 3.76 13.44
1/11/2023 5:00:00 PM 4.67 40.406 0.076 8.38 3.56 13.33
1/11/2023 5:15:00 PM 4.64 40.352 0.076 8.34 3.64 13.21
1/11/2023 5:30:00 PM 4.6 40.28 0.076 8.3 3.66 13.11
1/11/2023 5:45:00 PM 4.57 40.226 0.077 8.27 3.68 13.01
1/11/2023 6:00:00 PM 4.54 40.172 0.077 8.24 3.64 12.92
1/11/2023 6:15:00 PM 4.51 40.118 0.077 8.21 3.69 12.85
1/11/2023 6:30:00 PM 4.49 40.082 0.077 8.17 3.68 12.79
1/11/2023 6:45:00 PM 4.46 40.028 0.077 8.14 3.8 12.75
1/11/2023 7:00:00 PM 4.44 39.992 0.077 8.13 3.89 12.71
1/11/2023 7:15:00 PM 4.43 39.974 0.077 8.11 3.78 12.68
1/11/2023 7:30:00 PM 4.42 39.956 0.077 8.1 3.77 12.66
1/11/2023 7:45:00 PM 4.41 39.938 0.078 8.09 3.93 12.64
1/11/2023 8:00:00 PM 4.4 39.92 0.077 8.08 3.76 12.63
1/11/2023 8:15:00 PM 4.39 39.902 0.078 8.07 4 12.62
1/11/2023 8:30:00 PM 4.38 39.884 0.078 8.07 3.94 12.62
1/11/2023 8:45:00 PM 4.36 39.848 0.078 8.07 3.86 12.63
1/11/2023 9:00:00 PM 4.33 39.794 0.078 8.07 3.93 12.63
1/11/2023 9:15:00 PM 4.31 39.758 0.078 8.06 3.79 12.64
1/11/2023 9:30:00 PM 4.28 39.704 0.078 8.06 3.68 12.64
1/11/2023 9:45:00 PM 4.24 39.632 0.078 8.07 3.93 12.65
1/11/2023 10:00:00 PM 4.21 39.578 0.078 8.06 3.77 12.66
1/11/2023 10:15:00 PM 4.18 39.524 0.078 8.06 3.79 12.66
1/11/2023 10:30:00 PM 4.16 39.488 0.078 8.06 3.78 12.67
1/11/2023 10:45:00 PM 4.14 39.452 0.078 8.06 3.7 12.68
1/11/2023 11:00:00 PM 4.12 39.416 0.078 8.06 3.7 12.68
1/11/2023 11:15:00 PM 4.11 39.398 0.078 8.07 3.84 12.68
1/11/2023 11:30:00 PM 4.1 39.38 0.078 8.07 3.86 12.68
1/11/2023 11:45:00 PM 4.09 39.362 0.078 8.06 3.78 12.69
1/12/2023 12:00:00 AM 4.1 39.38 0.078 8.06 3.58 12.69
1/12/2023 12:15:00 AM 4.1 39.38 0.078 8.06 3.78 12.69
1/12/2023 12:30:00 AM 4.1 39.38 0.079 8.06 3.74 12.69
1/12/2023 12:45:00 AM 4.11 39.398 0.078 8.06 3.63 12.69
1/12/2023 1:00:00 AM 4.12 39.416 0.078 8.06 3.79 12.69
1/12/2023 1:15:00 AM 4.13 39.434 0.078 8.06 3.71 12.69
1/12/2023 1:30:00 AM 4.13 39.434 0.078 8.06 3.66 12.69
1/12/2023 1:45:00 AM 4.14 39.452 0.078 8.06 4.09 12.69
1/12/2023 2:00:00 AM 4.14 39.452 0.078 8.06 3.7 12.68
1/12/2023 2:15:00 AM 4.14 39.452 0.078 8.06 3.73 12.69
1/12/2023 2:30:00 AM 4.12 39.416 0.078 8.06 3.69 12.68
1/12/2023 2:45:00 AM 4.13 39.434 0.078 8.06 3.61 12.68
1/12/2023 3:00:00 AM 4.14 39.452 0.078 8.05 3.77 12.68
1/12/2023 3:15:00 AM 4.14 39.452 0.078 8.06 3.51 12.68
1/12/2023 3:30:00 AM 4.14 39.452 0.078 8.06 3.66 12.67
1/12/2023 3:45:00 AM 4.14 39.452 0.078 8.06 3.78 12.68
1/12/2023 4:00:00 AM 4.14 39.452 0.078 8.06 3.86 12.67
1/12/2023 4:15:00 AM 4.15 39.47 0.078 8.05 3.76 12.67
1/12/2023 4:30:00 AM 4.15 39.47 0.078 8.06 3.82 12.67
1/12/2023 4:45:00 AM 4.15 39.47 0.078 8.06 3.91 12.67
1/12/2023 5:00:00 AM 4.15 39.47 0.078 8.06 4.04 12.66
1/12/2023 5:15:00 AM 4.16 39.488 0.078 8.06 3.72 12.66
1/12/2023 5:30:00 AM 4.17 39.506 0.078 8.07 3.74 12.66
1/12/2023 5:45:00 AM 4.17 39.506 0.078 8.08 3.72 12.66
1/12/2023 6:00:00 AM 4.18 39.524 0.078 8.08 3.87 12.66
1/12/2023 6:15:00 AM 4.19 39.542 0.078 8.08 3.68 12.66
1/12/2023 6:30:00 AM 4.2 39.56 0.079 8.1 3.74 12.66
1/12/2023 6:45:00 AM 4.21 39.578 0.079 8.15 3.62 12.66
1/12/2023 7:00:00 AM 4.22 39.596 0.079 8.13 3.86 12.65
1/12/2023 7:15:00 AM 4.22 39.596 0.079 8.11 3.7 12.65
1/12/2023 7:30:00 AM 4.23 39.614 0.079 8.11 3.87 12.65
1/12/2023 7:45:00 AM 4.23 39.614 0.079 8.11 3.61 12.65
1/12/2023 8:00:00 AM 4.24 39.632 0.079 8.1 3.63 12.65
1/12/2023 8:15:00 AM 4.24 39.632 0.079 8.1 3.7 12.66
1/12/2023 8:30:00 AM 4.25 39.65 0.079 8.1 3.68 12.67
1/12/2023 8:45:00 AM 4.26 39.668 0.078 8.1 3.69 12.68
1/12/2023 9:00:00 AM 4.27 39.686 0.079 8.1 3.73 12.69
1/12/2023 9:15:00 AM 4.28 39.704 0.079 8.11 3.63 12.72
1/12/2023 9:30:00 AM 4.3 39.74 0.079 8.12 3.71 12.77
1/12/2023 9:45:00 AM 4.32 39.776 0.079 8.14 3.6 12.82
1/12/2023 10:00:00 AM 4.34 39.812 0.078 8.15 3.62 12.87
1/12/2023 10:15:00 AM 4.36 39.848 0.079 8.17 3.59 12.93
1/12/2023 10:30:00 AM 4.39 39.902 0.079 8.19 3.56 13
1/12/2023 10:45:00 AM 4.42 39.956 0.079 8.24 3.59 13.05
1/12/2023 11:00:00 AM 4.45 40.01 0.079 8.27 3.65 13.12
1/12/2023 11:15:00 AM 4.49 40.082 0.079 8.28 3.56 13.18
1/12/2023 11:30:00 AM 4.52 40.136 0.078 8.3 3.59 13.22
1/12/2023 11:45:00 AM 4.56 40.208 0.078 8.31 3.49 13.26
1/12/2023 12:00:00 PM 4.59 40.262 0.078 8.33 3.57 13.28
1/12/2023 12:15:00 PM 4.63 40.334 0.078 8.35 3.72 13.32
1/12/2023 12:30:00 PM 4.67 40.406 0.078 8.37 3.57 13.34
1/12/2023 12:45:00 PM 4.7 40.46 0.078 8.37 3.69 13.33
1/12/2023 1:00:00 PM 4.73 40.514 0.078 8.39 4.05 13.32
1/12/2023 1:15:00 PM 4.76 40.568 0.078 8.4 3.75 13.31
1/12/2023 1:30:00 PM 4.78 40.604 0.078 8.39 3.57 13.28
1/12/2023 1:45:00 PM 4.8 40.64 0.078 8.39 3.56 13.23
1/12/2023 2:00:00 PM 4.82 40.676 0.079 8.37 3.5 13.16
1/12/2023 2:15:00 PM 4.84 40.712 0.078 8.37 3.67 13.08
1/12/2023 2:30:00 PM 4.85 40.73 0.078 8.34 3.86 13.01
1/12/2023 2:45:00 PM 4.86 40.748 0.078 8.33 4.31 12.93
1/12/2023 3:00:00 PM 4.86 40.748 0.079 8.31 4.33 12.85
1/12/2023 3:15:00 PM 4.88 40.784 0.079 8.3 4.59 12.79
1/12/2023 3:30:00 PM 4.89 40.802 0.081 8.29 8.51 12.74
1/12/2023 3:45:00 PM 4.9 40.82 0.082 8.27 19.77 12.66
1/12/2023 4:00:00 PM 4.9 40.82 0.082 8.29 35.49 12.63
1/12/2023 4:15:00 PM 4.9 40.82 0.084 8.28 22.82 12.59
1/12/2023 4:30:00 PM 4.9 40.82 0.083 8.27 16.66 12.55
1/12/2023 4:45:00 PM 4.9 40.82 0.083 8.26 16.31 12.52
1/12/2023 5:00:00 PM 4.89 40.802 0.083 8.25 14.27 12.47
1/12/2023 5:15:00 PM 4.89 40.802 0.084 8.26 14.18 12.43
1/12/2023 5:30:00 PM 4.89 40.802 0.086 8.27 14.18 12.4
1/12/2023 5:45:00 PM 4.89 40.802 0.087 8.26 13.18 12.35
1/12/2023 6:00:00 PM 4.89 40.802 0.088 8.26 13.61 12.33
1/12/2023 6:15:00 PM 4.9 40.82 0.09 8.26 14.18 12.32
1/12/2023 6:30:00 PM 4.9 40.82 0.089 8.25 20.85 12.3
1/12/2023 6:45:00 PM 4.9 40.82 0.087 8.25 22.44 12.28
1/12/2023 7:00:00 PM 4.9 40.82 0.087 8.25 22.83 12.27
1/12/2023 7:15:00 PM 4.9 40.82 0.088 8.26 21.23 12.26
1/12/2023 7:30:00 PM 4.89 40.802 0.089 8.27 27.42 12.24
1/12/2023 7:45:00 PM 4.9 40.82 0.089 8.27 27.57 12.22
1/12/2023 8:00:00 PM 4.91 40.838 0.089 8.26 25.73 12.21
1/12/2023 8:15:00 PM 4.92 40.856 0.088 8.25 22.95 12.21
1/12/2023 8:30:00 PM 4.94 40.892 0.087 8.25 21.95 12.21
1/12/2023 8:45:00 PM 4.95 40.91 0.087 8.24 22.52 12.21
1/12/2023 9:00:00 PM 4.97 40.946 0.088 8.24 20.98 12.19
1/12/2023 9:15:00 PM 4.98 40.964 0.088 8.24 24.23 12.19
1/12/2023 9:30:00 PM 5 41 0.087 8.24 25.63 12.19
1/12/2023 9:45:00 PM 5.01 41.018 0.087 8.24 20.78 12.19
1/12/2023 10:00:00 PM 5.03 41.054 0.086 8.24 19.99 12.19
1/12/2023 10:15:00 PM 5.05 41.09 0.086 8.25 19.67 12.19
1/12/2023 10:30:00 PM 5.06 41.108 0.085 8.25 20.53 12.19
1/12/2023 10:45:00 PM 5.08 41.144 0.085 8.25 26.37 12.19
1/12/2023 11:00:00 PM 5.09 41.162 0.085 8.25 25.82 12.19
1/12/2023 11:15:00 PM 5.11 41.198 0.085 8.25 16.2 12.18
1/12/2023 11:30:00 PM 5.12 41.216 0.085 8.25 17.06 12.19
1/12/2023 11:45:00 PM 5.14 41.252 0.085 8.26 17.36 12.18
1/13/2023 12:00:00 AM 5.15 41.27 0.085 8.26 16.62 12.17
1/13/2023 12:15:00 AM 5.17 41.306 0.086 8.26 16.32 12.16
1/13/2023 12:30:00 AM 5.18 41.324 0.086 8.26 15.29 12.17
1/13/2023 12:45:00 AM 5.19 41.342 0.086 8.26 19.56 12.15
1/13/2023 1:00:00 AM 5.19 41.342 0.086 8.26 16.36 12.16
1/13/2023 1:15:00 AM 5.2 41.36 0.087 8.26 17.53 12.13
1/13/2023 1:30:00 AM 5.21 41.378 0.088 8.26 19.8 12.14
1/13/2023 1:45:00 AM 5.21 41.378 0.088 8.27 19.51 12.13
1/13/2023 2:00:00 AM 5.22 41.396 0.089 8.27 19.75 12.13
1/13/2023 2:15:00 AM 5.23 41.414 0.09 8.27 19.36 12.11
1/13/2023 2:30:00 AM 5.23 41.414 0.09 8.27 18.51 12.1
1/13/2023 2:45:00 AM 5.23 41.414 0.091 8.27 19.48 12.11
1/13/2023 3:00:00 AM 5.23 41.414 0.091 8.27 20.24 12.09
1/13/2023 3:15:00 AM 5.23 41.414 0.092 8.27 22.08 12.09
1/13/2023 3:30:00 AM 5.23 41.414 0.092 8.27 21.86 12.08
1/13/2023 3:45:00 AM 5.23 41.414 0.092 8.27 26.03 12.08
1/13/2023 4:00:00 AM 5.23 41.414 0.092 8.27 23.23 12.07
1/13/2023 4:15:00 AM 5.23 41.414 0.092 8.27 18.89 12.06
1/13/2023 4:30:00 AM 5.24 41.432 0.092 8.27 19.99 12.06
1/13/2023 4:45:00 AM 5.25 41.45 0.092 8.28 20.32 12.06
1/13/2023 5:00:00 AM 5.25 41.45 0.092 8.28 20.51 12.06
1/13/2023 5:15:00 AM 5.27 41.486 0.092 8.28 19.52 12.06
1/13/2023 5:30:00 AM 5.29 41.522 0.091 8.28 20.76 12.06
1/13/2023 5:45:00 AM 5.3 41.54 0.092 8.29 20.48 12.05
1/13/2023 6:00:00 AM 5.31 41.558 0.092 8.3 20.2 12.06
1/13/2023 6:15:00 AM 5.32 41.576 0.092 8.3 19.76 12.06
1/13/2023 6:30:00 AM 5.33 41.594 0.092 8.3 20.06 12.06
1/13/2023 6:45:00 AM 5.34 41.612 0.092 8.31 20.62 12.06
1/13/2023 7:00:00 AM 5.34 41.612 0.092 8.31 20.48 12.07
1/13/2023 7:15:00 AM 5.34 41.612 0.092 8.32 20.77 12.08
1/13/2023 7:30:00 AM 5.33 41.594 0.092 8.32 22.35 12.08
1/13/2023 7:45:00 AM 5.32 41.576 0.092 8.32 20.58 12.08
1/13/2023 8:00:00 AM 5.32 41.576 0.092 8.33 20.15 12.1
1/13/2023 8:15:00 AM 5.31 41.558 0.092 8.33 20.21 12.11
1/13/2023 8:30:00 AM 5.3 41.54 0.091 8.34 19.54 12.13
1/13/2023 8:45:00 AM 5.29 41.522 0.091 8.34 21.32 12.15
1/13/2023 9:00:00 AM 5.3 41.54 0.091 8.35 19.73 12.21
1/13/2023 9:15:00 AM 5.31 41.558 0.091 8.37 18.58 12.26
1/13/2023 9:30:00 AM 5.33 41.594 0.091 8.38 22.19 12.33
1/13/2023 9:45:00 AM 5.34 41.612 0.09 8.4 15.42 12.4
1/13/2023 10:00:00 AM 5.35 41.63 0.09 8.41 17.05 12.45
1/13/2023 10:15:00 AM 5.36 41.648 0.09 8.42 16.38 12.49
1/13/2023 10:30:00 AM 5.35 41.63 0.09 8.43 15.4 12.54
1/13/2023 10:45:00 AM 5.36 41.648 0.09 8.44 15.13 12.57
1/13/2023 11:00:00 AM 5.36 41.648 0.09 8.45 14.87 12.61
1/13/2023 11:15:00 AM 5.36 41.648 0.09 8.46 14.09 12.65
1/13/2023 11:30:00 AM 5.37 41.666 0.09 8.48 13.6 12.7
1/13/2023 11:45:00 AM 5.37 41.666 0.09 8.49 13.49 12.73
1/13/2023 12:00:00 PM 5.37 41.666 0.09 8.5 12.53 12.77
1/13/2023 12:15:00 PM 5.37 41.666 0.09 8.51 12.52 12.78
1/13/2023 12:30:00 PM 5.36 41.648 0.09 8.52 12.67 12.79
1/13/2023 12:45:00 PM 5.35 41.63 0.09 8.52 11.93 12.79
1/13/2023 1:00:00 PM 5.34 41.612 0.09 8.53 12.12 12.78
1/13/2023 1:15:00 PM 5.35 41.63 0.09 8.53 11.76 12.79
1/13/2023 1:30:00 PM 5.35 41.63 0.09 8.53 11.66 12.79
1/13/2023 1:45:00 PM 5.34 41.612 0.09 8.53 11.54 12.79
1/13/2023 2:00:00 PM 5.33 41.594 0.09 8.53 10.65 12.78
1/13/2023 2:15:00 PM 5.32 41.576 0.09 8.54 10.73 12.77
1/13/2023 2:30:00 PM 5.32 41.576 0.09 8.54 10.67 12.77
1/13/2023 2:45:00 PM 5.31 41.558 0.09 8.53 10.81 12.75
1/13/2023 3:00:00 PM 5.28 41.504 0.09 8.53 10.78 12.74
1/13/2023 3:15:00 PM 5.26 41.468 0.09 8.53 10.09 12.71
1/13/2023 3:30:00 PM 5.24 41.432 0.09 8.52 10.22 12.67
1/13/2023 3:45:00 PM 5.22 41.396 0.089 8.51 9.9 12.65
1/13/2023 4:00:00 PM 5.2 41.36 0.089 8.51 9.63 12.63
1/13/2023 4:15:00 PM 5.17 41.306 0.089 8.49 9.62 12.59
1/13/2023 4:30:00 PM 5.14 41.252 0.089 8.5 9.28 12.56
1/13/2023 4:45:00 PM 5.12 41.216 0.089 8.49 9.17 12.52
1/13/2023 5:00:00 PM 5.1 41.18 0.089 8.49 9.43 12.47
1/13/2023 5:15:00 PM 5.08 41.144 0.089 8.48 9.02 12.44
1/13/2023 5:30:00 PM 5.05 41.09 0.089 8.48 9.09 12.41
1/13/2023 5:45:00 PM 5.03 41.054 0.089 8.47 8.9 12.38
1/13/2023 6:00:00 PM 4.99 40.982 0.089 8.46 8.54 12.34
1/13/2023 6:15:00 PM 4.96 40.928 0.089 8.45 8.61 12.33
1/13/2023 6:30:00 PM 4.93 40.874 0.089 8.45 8.44 12.31
1/13/2023 6:45:00 PM 4.91 40.838 0.089 8.44 8.31 12.32
1/13/2023 7:00:00 PM 4.89 40.802 0.089 8.44 8.4 12.32
1/13/2023 7:15:00 PM 4.87 40.766 0.089 8.45 8.57 12.31
1/13/2023 7:30:00 PM 4.85 40.73 0.089 8.45 8.34 12.32
1/13/2023 7:45:00 PM 4.82 40.676 0.088 8.45 8.37 12.35
1/13/2023 8:00:00 PM 4.79 40.622 0.089 8.45 8.1 12.36
1/13/2023 8:15:00 PM 4.76 40.568 0.088 8.45 8.27 12.38
1/13/2023 8:30:00 PM 4.72 40.496 0.088 8.46 7.73 12.4
1/13/2023 8:45:00 PM 4.69 40.442 0.088 8.45 8.26 12.42
1/13/2023 9:00:00 PM 4.65 40.37 0.088 8.46 8.21 12.44
1/13/2023 9:15:00 PM 4.63 40.334 0.088 8.45 7.62 12.45
1/13/2023 9:30:00 PM 4.6 40.28 0.088 8.45 8.24 12.46
1/13/2023 9:45:00 PM 4.57 40.226 0.087 8.45 7.67 12.48
1/13/2023 10:00:00 PM 4.55 40.19 0.087 8.45 7.77 12.49
1/13/2023 10:15:00 PM 4.51 40.118 0.087 8.45 7.7 12.5
1/13/2023 10:30:00 PM 4.49 40.082 0.087 8.45 7.58 12.51
1/13/2023 10:45:00 PM 4.45 40.01 0.087 8.46 7.87 12.52
1/13/2023 11:00:00 PM 4.42 39.956 0.087 11.69 7.27 12.51
1/13/2023 11:15:00 PM 4.38 39.884 0.087 17.35 7.21 12.52
1/13/2023 11:30:00 PM 4.35 39.83 0.086 13.25 7.67 12.52
1/13/2023 11:45:00 PM 4.32 39.776 0.087 12.15 7.07 12.52
1/14/2023 12:00:00 AM 4.28 39.704 0.086 11.92 7.14 12.52
1/14/2023 12:15:00 AM 4.25 39.65 0.086 11.77 7.27 12.52
1/14/2023 12:30:00 AM 4.22 39.596 0.086 11.63 6.92 12.52
1/14/2023 12:45:00 AM 4.2 39.56 0.086 11.59 6.97 12.53
1/14/2023 1:00:00 AM 4.18 39.524 0.086 11.61 7.14 12.53
1/14/2023 1:15:00 AM 4.15 39.47 0.086 11.92 6.95 12.55
1/14/2023 1:30:00 AM 4.11 39.398 0.086 14.59 6.66 12.56
1/14/2023 1:45:00 AM 4.09 39.362 0.086 12.91 6.49 12.57
1/14/2023 2:00:00 AM 4.06 39.308 0.085 12.58 6.56 12.59
1/14/2023 2:15:00 AM 4.03 39.254 0.085 12.33 6.57 12.61
1/14/2023 2:30:00 AM 4 39.2 0.085 17.43 6.56 12.63
1/14/2023 2:45:00 AM 3.98 39.164 0.085 14.75 6.8 12.65
1/14/2023 3:00:00 AM 3.95 39.11 0.086 13.64 6.64 12.67
1/14/2023 3:15:00 AM 3.93 39.074 0.085 17.79 6.29 12.7
1/14/2023 3:30:00 AM 3.9 39.02 0.085 17.79 6.51 12.72
1/14/2023 3:45:00 AM 3.86 38.948 0.085 17.79 6.38 12.74
1/14/2023 4:00:00 AM 3.83 38.894 0.085 17.79 6.23 12.76
1/14/2023 4:15:00 AM 3.8 38.84 0.085 17.79 6.11 12.78
1/14/2023 4:30:00 AM 3.78 38.804 0.084 17.79 6.13 12.79
1/14/2023 4:45:00 AM 3.75 38.75 0.084 17.79 6.28 12.8
1/14/2023 5:00:00 AM 3.73 38.714 0.084 17.66 6.45 12.81
1/14/2023 5:15:00 AM 3.71 38.678 0.084 16.97 6.48 12.81
1/14/2023 5:30:00 AM 3.69 38.642 0.085 16.36 5.91 12.82
1/14/2023 5:45:00 AM 3.67 38.606 0.084 15.88 6.04 12.82
1/14/2023 6:00:00 AM 3.65 38.57 0.084 15.65 6.24 12.83
1/14/2023 6:15:00 AM 3.62 38.516 0.084 15.51 6.22 12.84
1/14/2023 6:30:00 AM 3.59 38.462 0.084 15.35 6.12 12.84
1/14/2023 6:45:00 AM 3.56 38.408 0.084 15.37 6.16 12.84
1/14/2023 7:00:00 AM 3.53 38.354 0.084 15.29 5.95 12.83
1/14/2023 7:15:00 AM 3.5 38.3 0.083 15.28 6 12.84
1/14/2023 7:30:00 AM 3.47 38.246 0.084 15.33 5.7 12.84
1/14/2023 7:45:00 AM 3.45 38.21 0.083 15.49 5.61 12.85
1/14/2023 8:00:00 AM 3.43 38.174 0.083 15.67 5.77 12.86
1/14/2023 8:15:00 AM 3.42 38.156 0.083 15.84 5.76 12.88
1/14/2023 8:30:00 AM 3.4 38.12 0.083 16.01 5.79 12.9
1/14/2023 8:45:00 AM 3.39 38.102 0.083 16.32 5.79 12.93
1/14/2023 9:00:00 AM 3.38 38.084 0.083 16.56 5.9 12.97
1/14/2023 9:15:00 AM 3.37 38.066 0.083 16.81 5.93 13.01
1/14/2023 9:30:00 AM 3.36 38.048 0.083 17.07 5.83 13.05
1/14/2023 9:45:00 AM 3.36 38.048 0.083 17.3 5.45 13.08
1/14/2023 10:00:00 AM 3.35 38.03 0.083 17.47 5.69 13.15
1/14/2023 10:15:00 AM 3.35 38.03 0.082 17.66 5.87 13.22
1/14/2023 10:30:00 AM 3.35 38.03 0.082 17.81 5.54 13.3
1/14/2023 10:45:00 AM 3.35 38.03 0.082 17.81 5.5 13.4
1/14/2023 11:00:00 AM 3.35 38.03 0.082 17.81 5.84 13.5
1/14/2023 11:15:00 AM 3.36 38.048 0.082 17.81 5.52 13.6
1/14/2023 11:30:00 AM 3.38 38.084 0.082 17.81 5.66 13.68
1/14/2023 11:45:00 AM 3.4 38.12 0.081 17.81 5.49 13.75
1/14/2023 12:00:00 PM 3.42 38.156 0.081 17.81 5.29 13.82
1/14/2023 12:15:00 PM 3.45 38.21 0.081 17.81 5.25 13.89
1/14/2023 12:30:00 PM 3.49 38.282 0.081 17.8 5.24 13.94
1/14/2023 12:45:00 PM 3.53 38.354 0.081 17.8 5.27 13.99
1/14/2023 1:00:00 PM 3.56 38.408 0.081 17.8 5.29 14.01
1/14/2023 1:15:00 PM 3.59 38.462 0.081 17.8 5.02 14.03
1/14/2023 1:30:00 PM 3.62 38.516 0.08 17.8 5.37 14.02
1/14/2023 1:45:00 PM 3.65 38.57 0.08 17.8 5.2 14.03
1/14/2023 2:00:00 PM 3.66 38.588 0.08 17.8 5.09 14.03
1/14/2023 2:15:00 PM 3.67 38.606 0.08 17.8 5.37 14.03
1/14/2023 2:30:00 PM 3.69 38.642 0.08 17.8 5.07 14.03
1/14/2023 2:45:00 PM 3.69 38.642 0.08 17.8 5.06 14.01
1/14/2023 3:00:00 PM 3.7 38.66 0.08 17.8 5.22 14
1/14/2023 3:15:00 PM 3.7 38.66 0.08 17.8 5.28 13.97
1/14/2023 3:30:00 PM 3.69 38.642 0.08 17.8 5.25 13.94
1/14/2023 3:45:00 PM 3.67 38.606 0.08 17.8 5.33 13.87
1/14/2023 4:00:00 PM 3.65 38.57 0.08 17.8 5.37 13.8
1/14/2023 4:15:00 PM 3.63 38.534 0.08 17.8 5.49 13.73
1/14/2023 4:30:00 PM 3.61 38.498 0.079 17.8 5.88 13.65
1/14/2023 4:45:00 PM 3.59 38.462 0.08 17.8 5.24 13.57
1/14/2023 5:00:00 PM 3.58 38.444 0.079 17.8 5.55 13.47
1/14/2023 5:15:00 PM 3.56 38.408 0.08 17.8 5.49 13.39
1/14/2023 5:30:00 PM 3.54 38.372 0.08 17.8 5.25 13.31
1/14/2023 5:45:00 PM 3.51 38.318 0.08 17.8 5.34 13.23
1/14/2023 6:00:00 PM 3.48 38.264 0.08 17.8 5.32 13.17
1/14/2023 6:15:00 PM 3.46 38.228 0.08 17.81 5.48 13.12
1/14/2023 6:30:00 PM 3.44 38.192 0.08 17.81 5.48 13.08
1/14/2023 6:45:00 PM 3.41 38.138 0.08 17.81 5.19 13.06
1/14/2023 7:00:00 PM 3.38 38.084 0.08 17.81 5.34 13.05
1/14/2023 7:15:00 PM 3.36 38.048 0.08 17.81 5.53 13.05
1/14/2023 7:30:00 PM 3.33 37.994 0.08 17.81 6.46 13.05
1/14/2023 7:45:00 PM 3.3 37.94 0.08 17.81 5.08 13.06
1/14/2023 8:00:00 PM 3.27 37.886 0.08 17.81 5.13 13.07
1/14/2023 8:15:00 PM 3.25 37.85 0.08 17.81 5.13 13.08
1/14/2023 8:30:00 PM 3.22 37.796 0.08 17.81 4.87 13.09
1/14/2023 8:45:00 PM 3.2 37.76 0.08 17.82 5.01 13.1
1/14/2023 9:00:00 PM 3.18 37.724 0.08 17.82 5.16 13.11
1/14/2023 9:15:00 PM 3.18 37.724 0.08 17.82 4.9 13.12
1/14/2023 9:30:00 PM 3.16 37.688 0.08 17.82 4.79 13.12
1/14/2023 9:45:00 PM 3.15 37.67 0.08 17.82 5.01 13.12
1/14/2023 10:00:00 PM 3.13 37.634 0.079 17.82 4.84 13.13
1/14/2023 10:15:00 PM 3.11 37.598 0.08 17.82 4.95 13.13
1/14/2023 10:30:00 PM 3.09 37.562 0.079 17.82 5.33 13.14
1/14/2023 10:45:00 PM 3.07 37.526 0.079 17.82 4.97 13.14
1/14/2023 11:00:00 PM 3.05 37.49 0.079 17.82 5.18 13.15
1/14/2023 11:15:00 PM 3.02 37.436 0.079 17.82 5.05 13.14
1/14/2023 11:30:00 PM 2.98 37.364 0.079 17.82 4.78 13.14
1/14/2023 11:45:00 PM 2.94 37.292 0.079 17.83 4.82 13.14
1/15/2023 12:00:00 AM 2.91 37.238 0.079 17.83 4.85 13.13
1/15/2023 12:15:00 AM 2.89 37.202 0.079 17.83 4.89 13.14
1/15/2023 12:30:00 AM 2.88 37.184 0.079 17.83 4.91 13.14
1/15/2023 12:45:00 AM 2.88 37.184 0.079 17.83 4.75 13.14
1/15/2023 1:00:00 AM 2.87 37.166 0.079 17.83 4.74 13.14
1/15/2023 1:15:00 AM 2.87 37.166 0.079 17.83 5.16 13.14
1/15/2023 1:30:00 AM 2.87 37.166 0.079 17.83 4.77 13.15
1/15/2023 1:45:00 AM 2.86 37.148 0.079 17.83 4.59 13.15
1/15/2023 2:00:00 AM 2.86 37.148 0.079 17.83 5.25 13.16
1/15/2023 2:15:00 AM 2.85 37.13 0.079 17.83 4.65 13.15
1/15/2023 2:30:00 AM 2.85 37.13 0.079 17.83 4.81 13.17
1/15/2023 2:45:00 AM 2.84 37.112 0.079 17.83 4.89 13.16
1/15/2023 3:00:00 AM 2.83 37.094 0.079 17.83 4.8 13.16
1/15/2023 3:15:00 AM 2.82 37.076 0.079 17.83 4.56 13.17
1/15/2023 3:30:00 AM 2.82 37.076 0.079 17.83 4.77 13.17
1/15/2023 3:45:00 AM 2.81 37.058 0.079 17.83 4.96 13.17
1/15/2023 4:00:00 AM 2.8 37.04 0.079 17.83 4.73 13.18
1/15/2023 4:15:00 AM 2.79 37.022 0.079 17.83 4.9 13.19
1/15/2023 4:30:00 AM 2.77 36.986 0.079 17.83 4.56 13.19
1/15/2023 4:45:00 AM 2.76 36.968 0.079 17.83 5.03 13.19
1/15/2023 5:00:00 AM 2.74 36.932 0.079 17.83 4.67 13.21
1/15/2023 5:15:00 AM 2.73 36.914 0.079 17.83 4.62 13.2
1/15/2023 5:30:00 AM 2.71 36.878 0.079 17.83 4.66 13.22
1/15/2023 5:45:00 AM 2.7 36.86 0.079 17.84 4.79 13.22
1/15/2023 6:00:00 AM 2.68 36.824 0.079 17.84 4.85 13.25
1/15/2023 6:15:00 AM 2.66 36.788 0.079 17.84 4.51 13.26
1/15/2023 6:30:00 AM 2.64 36.752 0.079 17.84 4.72 13.28
1/15/2023 6:45:00 AM 2.63 36.734 0.079 17.84 4.77 13.29
1/15/2023 7:00:00 AM 2.61 36.698 0.079 17.84 4.45 13.29
1/15/2023 7:15:00 AM 2.58 36.644 0.079 17.84 4.47 13.32
1/15/2023 7:30:00 AM 2.54 36.572 0.079 17.84 4.57 13.35
1/15/2023 7:45:00 AM 2.51 36.518 0.079 17.84 4.3 13.38
1/15/2023 8:00:00 AM 2.49 36.482 0.079 17.84 4.42 13.43
1/15/2023 8:15:00 AM 2.46 36.428 0.078 17.84 4.69 13.5
1/15/2023 8:30:00 AM 2.44 36.392 0.079 17.85 4.48 13.56
1/15/2023 8:45:00 AM 2.43 36.374 0.079 17.85 4.78 13.67
1/15/2023 9:00:00 AM 2.42 36.356 0.078 17.85 4.43 13.77
1/15/2023 9:15:00 AM 2.43 36.374 0.079 17.85 4.42 13.88
1/15/2023 9:30:00 AM 2.45 36.41 0.078 17.85 4.5 13.98
1/15/2023 9:45:00 AM 2.47 36.446 0.078 17.84 4.31 14.05
1/15/2023 10:00:00 AM 2.52 36.536 0.078 17.84 4.49 14.15
1/15/2023 10:15:00 AM 2.58 36.644 0.078 17.84 4.39 14.24
1/15/2023 10:30:00 AM 2.65 36.77 0.078 17.84 4.55 14.29
1/15/2023 10:45:00 AM 2.72 36.896 0.078 17.83 4.58 14.32
1/15/2023 11:00:00 AM 2.79 37.022 0.078 17.83 4.49 14.32
1/15/2023 11:15:00 AM 2.86 37.148 0.078 17.83 4.42 14.35
1/15/2023 11:30:00 AM 2.93 37.274 0.078 17.83 4.48 14.35
1/15/2023 11:45:00 AM 3.01 37.418 0.077 17.82 4.42 14.36
1/15/2023 12:00:00 PM 3.09 37.562 0.077 17.82 4.2 14.38
1/15/2023 12:15:00 PM 3.18 37.724 0.077 17.82 4.57 14.4
1/15/2023 12:30:00 PM 3.27 37.886 0.077 17.81 4.37 14.41
1/15/2023 12:45:00 PM 3.35 38.03 0.077 17.81 4.17 14.42
1/15/2023 1:00:00 PM 3.43 38.174 0.077 17.81 4.34 14.41
1/15/2023 1:15:00 PM 3.5 38.3 0.077 17.8 4.37 14.38
1/15/2023 1:30:00 PM 3.56 38.408 0.077 17.8 4.52 14.35
1/15/2023 1:45:00 PM 3.62 38.516 0.077 17.8 4.54 14.31
1/15/2023 2:00:00 PM 3.66 38.588 0.077 17.8 4.52 14.27
1/15/2023 2:15:00 PM 3.7 38.66 0.077 17.8 4.21 14.23
1/15/2023 2:30:00 PM 3.73 38.714 0.077 17.8 4.23 14.18
1/15/2023 2:45:00 PM 3.74 38.732 0.077 17.79 4.47 14.14
1/15/2023 3:00:00 PM 3.76 38.768 0.077 17.79 4.43 14.11
1/15/2023 3:15:00 PM 3.76 38.768 0.077 17.79 4.48 14.07
1/15/2023 3:30:00 PM 3.76 38.768 0.077 17.79 4.17 14.02
1/15/2023 3:45:00 PM 3.74 38.732 0.077 17.79 4.24 13.99
1/15/2023 4:00:00 PM 3.72 38.696 0.077 17.8 4.35 13.93
1/15/2023 4:15:00 PM 3.7 38.66 0.077 17.8 5.09 13.86
1/15/2023 4:30:00 PM 3.66 38.588 0.077 17.8 4.25 13.79
1/15/2023 4:45:00 PM 3.63 38.534 0.077 17.8 4.37 13.72
1/15/2023 5:00:00 PM 3.59 38.462 0.077 17.8 4.27 13.63
1/15/2023 5:15:00 PM 3.55 38.39 0.077 17.8 4.29 13.54
1/15/2023 5:30:00 PM 3.51 38.318 0.077 17.8 4.37 13.47
1/15/2023 5:45:00 PM 3.47 38.246 0.077 17.81 4.23 13.39
1/15/2023 6:00:00 PM 3.43 38.174 0.077 17.81 4.29 13.32
1/15/2023 6:15:00 PM 3.4 38.12 0.077 17.81 4.3 13.27
1/15/2023 6:30:00 PM 3.37 38.066 0.077 17.81 4.65 13.22
1/15/2023 6:45:00 PM 3.34 38.012 0.077 17.81 4.7 13.19
1/15/2023 7:00:00 PM 3.31 37.958 0.077 17.81 4.32 13.16
1/15/2023 7:15:00 PM 3.28 37.904 0.077 17.81 4.45 13.13
1/15/2023 7:30:00 PM 3.24 37.832 0.077 17.81 4.24 13.11
1/15/2023 7:45:00 PM 3.2 37.76 0.077 17.82 4.19 13.1
1/15/2023 8:00:00 PM 3.16 37.688 0.077 17.82 4.52 13.09
1/15/2023 8:15:00 PM 3.13 37.634 0.077 17.82 4.45 13.08
1/15/2023 8:30:00 PM 3.09 37.562 0.077 17.82 4.25 13.08
1/15/2023 8:45:00 PM 3.05 37.49 0.077 17.82 4.38 13.07
1/15/2023 9:00:00 PM 3.02 37.436 0.078 17.82 4.91 13.07
1/15/2023 9:15:00 PM 2.98 37.364 0.077 17.82 4.26 13.08
1/15/2023 9:30:00 PM 2.95 37.31 0.077 17.83 4.3 13.08
1/15/2023 9:45:00 PM 2.91 37.238 0.077 17.83 4.3 13.1
1/15/2023 10:00:00 PM 2.87 37.166 0.077 17.83 4.39 13.11
1/15/2023 10:15:00 PM 2.84 37.112 0.077 17.83 4.32 13.13
1/15/2023 10:30:00 PM 2.8 37.04 0.077 17.83 4.41 13.15
1/15/2023 10:45:00 PM 2.77 36.986 0.077 17.83 4.63 13.18
1/15/2023 11:00:00 PM 2.73 36.914 0.077 17.83 4.21 13.2
1/15/2023 11:15:00 PM 2.69 36.842 0.077 17.84 4.49 13.23
1/15/2023 11:30:00 PM 2.66 36.788 0.077 17.84 4.28 13.25
1/15/2023 11:45:00 PM 2.63 36.734 0.077 17.84 4.59 13.27
1/16/2023 12:00:00 AM 2.59 36.662 0.077 17.84 4.33 13.3
1/16/2023 12:15:00 AM 2.55 36.59 0.077 17.84 5.24 13.32
1/16/2023 12:30:00 AM 2.51 36.518 0.077 17.84 4.29 13.33
1/16/2023 12:45:00 AM 2.48 36.464 0.077 17.84 4.26 13.34
1/16/2023 1:00:00 AM 2.43 36.374 0.077 17.85 4.62 13.35
1/16/2023 1:15:00 AM 2.39 36.302 0.077 17.85 4.34 13.37
1/16/2023 1:30:00 AM 2.35 36.23 0.077 17.85 4.3 13.37
1/16/2023 1:45:00 AM 2.31 36.158 0.077 17.85 4.14 13.37
1/16/2023 2:00:00 AM 2.27 36.086 0.077 17.85 4.07 13.36
1/16/2023 2:15:00 AM 2.23 36.014 0.077 17.85 4.09 13.37
1/16/2023 2:30:00 AM 2.19 35.942 0.077 17.86 4.17 13.38
1/16/2023 2:45:00 AM 2.16 35.888 0.077 17.86 4.23 13.38
1/16/2023 3:00:00 AM 2.12 35.816 0.077 17.86 4.3 13.39
1/16/2023 3:15:00 AM 2.08 35.744 0.077 17.86 4.31 13.39
1/16/2023 3:30:00 AM 2.04 35.672 0.077 17.86 4.11 13.41
1/16/2023 3:45:00 AM 2 35.6 0.077 17.86 4.77 13.42
1/16/2023 4:00:00 AM 1.96 35.528 0.077 17.86 4.36 13.43
1/16/2023 4:15:00 AM 1.93 35.474 0.077 17.87 4.09 13.45
1/16/2023 4:30:00 AM 1.89 35.402 0.077 17.87 4.01 13.48
1/16/2023 4:45:00 AM 1.85 35.33 0.077 17.87 4.25 13.5
1/16/2023 5:00:00 AM 1.81 35.258 0.078 17.87 4.06 13.53
1/16/2023 5:15:00 AM 1.78 35.204 0.077 17.87 4.14 13.56
1/16/2023 5:30:00 AM 1.75 35.15 0.077 17.87 4.11 13.58
1/16/2023 5:45:00 AM 1.72 35.096 0.078 17.87 4.06 13.6
1/16/2023 6:00:00 AM 1.69 35.042 0.078 17.88 4.11 13.62
1/16/2023 6:15:00 AM 1.66 34.988 0.077 17.88 4.08 13.64
1/16/2023 6:30:00 AM 1.63 34.934 0.077 17.88 4.11 13.66
1/16/2023 6:45:00 AM 1.6 34.88 0.077 17.88 4.22 13.68
1/16/2023 7:00:00 AM 1.57 34.826 0.077 17.88 4.25 13.68
1/16/2023 7:15:00 AM 1.54 34.772 0.077 17.88 4.04 13.69
1/16/2023 7:30:00 AM 1.52 34.736 0.077 17.88 4.06 13.7
1/16/2023 7:45:00 AM 1.49 34.682 0.077 17.88 4.18 13.72
1/16/2023 8:00:00 AM 1.47 34.646 0.077 17.88 3.95 13.76
1/16/2023 8:15:00 AM 1.45 34.61 0.078 17.88 3.91 13.8
1/16/2023 8:30:00 AM 1.44 34.592 0.077 17.89 3.98 13.87
1/16/2023 8:45:00 AM 1.44 34.592 0.077 17.89